<?xml version='1.0' encoding='UTF-8' standalone='yes' ?>
<gpx version="1.1" creator="OsmAnd 3.8.4" xmlns="http://www.topografix.com/GPX/1/1" xmlns:xsi="http://www.w3.org/2001/XMLSchema-instance" xsi:schemaLocation="http://www.topografix.com/GPX/1/1 http://www.topografix.com/GPX/1/1/gpx.xsd">
 <metadata>
 <name>2020-11-30_12-41_Mon</name>
 </metadata>
 <trk>
 <trkseg>
 <trkpt lat="50.4055922" lon="7.9514686">
 <ele>271</ele>
 <time>2020-11-30T11:41:16Z</time>
 <hdop>11.792</hdop>
 </trkpt>
 <trkpt lat="50.4055368" lon="7.9515138">
 <ele>299</ele>
 <time>2020-11-30T11:41:22Z</time>
 <hdop>7.504</hdop>
 <extensions>
 <speed>0.31</speed>
 </extensions>
 </trkpt>
 <trkpt lat="50.4054978" lon="7.9516804">
 <ele>292</ele>
 <time>2020-11-30T11:41:28Z</time>
 <hdop>12.864</hdop>
 <extensions>
 <speed>1.19</speed>
 </extensions>
 </trkpt>
 <trkpt lat="50.4054585" lon="7.9515129">
 <ele>293</ele>
 <time>2020-11-30T11:41:34Z</time>
 <hdop>12.864</hdop>
 </trkpt>
 <trkpt lat="50.4054793" lon="7.9514947">
 <ele>304</ele>
 <time>2020-11-30T11:41:39Z</time>
 <hdop>11.792</hdop>
 </trkpt>
 <trkpt lat="50.4054833" lon="7.951499">
 <ele>307</ele>
 <time>2020-11-30T11:41:44Z</time>
 <hdop>11.792</hdop>
 </trkpt>
 <trkpt lat="50.4054936" lon="7.9515416">
 <ele>304</ele>
 <time>2020-11-30T11:41:50Z</time>
 <hdop>9.648</hdop>
 </trkpt>
 <trkpt lat="50.4055149" lon="7.9515153">
 <ele>304</ele>
 <time>2020-11-30T11:41:56Z</time>
 <hdop>9.648</hdop>
 </trkpt>
 <trkpt lat="50.4055236" lon="7.9514931">
 <ele>302</ele>
 <time>2020-11-30T11:42:02Z</time>
 <hdop>9.648</hdop>
 </trkpt>
 <trkpt lat="50.4055194" lon="7.9514971">
 <ele>301</ele>
 <time>2020-11-30T11:42:07Z</time>
 <hdop>9.648</hdop>
 </trkpt>
 <trkpt lat="50.4055184" lon="7.9515187">
 <ele>300</ele>
 <time>2020-11-30T11:42:12Z</time>
 <hdop>9.648</hdop>
 </trkpt>
 <trkpt lat="50.4055213" lon="7.9515199">
 <ele>300</ele>
 <time>2020-11-30T11:42:17Z</time>
 <hdop>9.648</hdop>
 </trkpt>
 <trkpt lat="50.4055207" lon="7.9515198">
 <ele>297</ele>
 <time>2020-11-30T11:42:23Z</time>
 <hdop>9.648</hdop>
 </trkpt>
 <trkpt lat="50.4055212" lon="7.951521">
 <ele>292</ele>
 <time>2020-11-30T11:42:29Z</time>
 <hdop>9.648</hdop>
 </trkpt>
 <trkpt lat="50.4055212" lon="7.9515212">
 <ele>298</ele>
 <time>2020-11-30T11:42:34Z</time>
 <hdop>9.648</hdop>
 </trkpt>
 <trkpt lat="50.4055446" lon="7.9515715">
 <ele>295</ele>
 <time>2020-11-30T11:42:40Z</time>
 <hdop>9.648</hdop>
 </trkpt>
 <trkpt lat="50.4055387" lon="7.9515578">
 <ele>299</ele>
 <time>2020-11-30T11:42:45Z</time>
 <hdop>9.648</hdop>
 </trkpt>
 <trkpt lat="50.4055438" lon="7.9515566">
 <ele>299</ele>
 <time>2020-11-30T11:42:51Z</time>
 <hdop>9.648</hdop>
 </trkpt>
 <trkpt lat="50.4055436" lon="7.9515563">
 <ele>299</ele>
 <time>2020-11-30T11:42:57Z</time>
 <hdop>9.648</hdop>
 </trkpt>
 <trkpt lat="50.4055433" lon="7.9515598">
 <ele>299</ele>
 <time>2020-11-30T11:43:03Z</time>
 <hdop>9.648</hdop>
 </trkpt>
 <trkpt lat="50.4055428" lon="7.9515603">
 <ele>299</ele>
 <time>2020-11-30T11:43:08Z</time>
 <hdop>9.648</hdop>
 </trkpt>
 <trkpt lat="50.4055421" lon="7.9515603">
 <ele>299</ele>
 <time>2020-11-30T11:43:13Z</time>
 <hdop>9.648</hdop>
 </trkpt>
 <trkpt lat="50.4055426" lon="7.9515614">
 <ele>299</ele>
 <time>2020-11-30T11:43:19Z</time>
 <hdop>9.648</hdop>
 </trkpt>
 <trkpt lat="50.4055427" lon="7.9515619">
 <ele>299</ele>
 <time>2020-11-30T11:43:24Z</time>
 <hdop>9.648</hdop>
 </trkpt>
 <trkpt lat="50.4055797" lon="7.9516654">
 <ele>299</ele>
 <time>2020-11-30T11:43:30Z</time>
 <hdop>10.72</hdop>
 <extensions>
 <speed>1.09</speed>
 </extensions>
 </trkpt>
 <trkpt lat="50.4055518" lon="7.9518329">
 <ele>301</ele>
 <time>2020-11-30T11:43:36Z</time>
 <hdop>10.72</hdop>
 <extensions>
 <speed>0.96</speed>
 </extensions>
 </trkpt>
 <trkpt lat="50.4055114" lon="7.9519289">
 <ele>304</ele>
 <time>2020-11-30T11:43:42Z</time>
 <hdop>10.72</hdop>
 </trkpt>
 <trkpt lat="50.4055027" lon="7.9519668">
 <ele>301</ele>
 <time>2020-11-30T11:43:47Z</time>
 <hdop>10.72</hdop>
 </trkpt>
 <trkpt lat="50.4054954" lon="7.9519886">
 <ele>299</ele>
 <time>2020-11-30T11:43:52Z</time>
 <hdop>10.72</hdop>
 </trkpt>
 <trkpt lat="50.4054624" lon="7.9520592">
 <ele>303</ele>
 <time>2020-11-30T11:43:58Z</time>
 <hdop>9.648</hdop>
 <extensions>
 <speed>1.75</speed>
 </extensions>
 </trkpt>
 <trkpt lat="50.4054191" lon="7.9521602">
 <ele>298</ele>
 <time>2020-11-30T11:44:04Z</time>
 <hdop>9.648</hdop>
 <extensions>
 <speed>0.3</speed>
 </extensions>
 </trkpt>
 <trkpt lat="50.405405" lon="7.9521851">
 <ele>297</ele>
 <time>2020-11-30T11:44:10Z</time>
 <hdop>9.648</hdop>
 </trkpt>
 <trkpt lat="50.4054044" lon="7.952171">
 <ele>295</ele>
 <time>2020-11-30T11:44:15Z</time>
 <hdop>9.648</hdop>
 </trkpt>
 <trkpt lat="50.4054008" lon="7.9521734">
 <ele>294</ele>
 <time>2020-11-30T11:44:21Z</time>
 <hdop>10.72</hdop>
 </trkpt>
 <trkpt lat="50.4054018" lon="7.9521757">
 <ele>294</ele>
 <time>2020-11-30T11:44:26Z</time>
 <hdop>10.72</hdop>
 </trkpt>
 <trkpt lat="50.4053993" lon="7.9521763">
 <ele>293</ele>
 <time>2020-11-30T11:44:31Z</time>
 <hdop>10.72</hdop>
 </trkpt>
 <trkpt lat="50.4053837" lon="7.9522068">
 <ele>295</ele>
 <time>2020-11-30T11:44:37Z</time>
 <hdop>10.72</hdop>
 </trkpt>
 <trkpt lat="50.4053688" lon="7.9522143">
 <ele>295</ele>
 <time>2020-11-30T11:44:42Z</time>
 <hdop>11.792</hdop>
 </trkpt>
 <trkpt lat="50.4053465" lon="7.9522277">
 <ele>295</ele>
 <time>2020-11-30T11:44:48Z</time>
 <hdop>12.864</hdop>
 </trkpt>
 <trkpt lat="50.4053326" lon="7.952256">
 <ele>294</ele>
 <time>2020-11-30T11:44:54Z</time>
 <hdop>10.72</hdop>
 </trkpt>
 <trkpt lat="50.405319" lon="7.9522664">
 <ele>294</ele>
 <time>2020-11-30T11:45:00Z</time>
 <hdop>9.648</hdop>
 </trkpt>
 <trkpt lat="50.4053198" lon="7.9522435">
 <ele>294</ele>
 <time>2020-11-30T11:45:06Z</time>
 <hdop>10.72</hdop>
 </trkpt>
 <trkpt lat="50.4053213" lon="7.9522384">
 <ele>294</ele>
 <time>2020-11-30T11:45:12Z</time>
 <hdop>11.792</hdop>
 </trkpt>
 <trkpt lat="50.4053293" lon="7.95224">
 <ele>292</ele>
 <time>2020-11-30T11:45:18Z</time>
 <hdop>10.72</hdop>
 <extensions>
 <speed>0.59</speed>
 </extensions>
 </trkpt>
 <trkpt lat="50.4053365" lon="7.9522328">
 <ele>292</ele>
 <time>2020-11-30T11:45:24Z</time>
 <hdop>10.72</hdop>
 </trkpt>
 <trkpt lat="50.4053373" lon="7.9522505">
 <ele>290</ele>
 <time>2020-11-30T11:45:29Z</time>
 <hdop>10.72</hdop>
 <extensions>
 <speed>0.34</speed>
 </extensions>
 </trkpt>
 <trkpt lat="50.405323" lon="7.9523503">
 <ele>291</ele>
 <time>2020-11-30T11:45:35Z</time>
 <hdop>10.72</hdop>
 <extensions>
 <speed>1.33</speed>
 </extensions>
 </trkpt>
 <trkpt lat="50.4052712" lon="7.9524553">
 <ele>292</ele>
 <time>2020-11-30T11:45:40Z</time>
 <hdop>12.864</hdop>
 <extensions>
 <speed>1.62</speed>
 </extensions>
 </trkpt>
 <trkpt lat="50.4051799" lon="7.9525612">
 <ele>294</ele>
 <time>2020-11-30T11:45:46Z</time>
 <hdop>11.792</hdop>
 <extensions>
 <speed>1.53</speed>
 </extensions>
 </trkpt>
 <trkpt lat="50.4051359" lon="7.9525808">
 <ele>291</ele>
 <time>2020-11-30T11:45:52Z</time>
 <hdop>10.72</hdop>
 <extensions>
 <speed>0.66</speed>
 </extensions>
 </trkpt>
 <trkpt lat="50.4051093" lon="7.95264">
 <ele>298</ele>
 <time>2020-11-30T11:45:58Z</time>
 <hdop>11.792</hdop>
 <extensions>
 <speed>0.67</speed>
 </extensions>
 </trkpt>
 <trkpt lat="50.4050663" lon="7.9527112">
 <ele>298</ele>
 <time>2020-11-30T11:46:03Z</time>
 <hdop>11.792</hdop>
 <extensions>
 <speed>0.92</speed>
 </extensions>
 </trkpt>
 <trkpt lat="50.4050719" lon="7.9528125">
 <ele>297</ele>
 <time>2020-11-30T11:46:09Z</time>
 <hdop>10.72</hdop>
 <extensions>
 <speed>1.1</speed>
 </extensions>
 </trkpt>
 <trkpt lat="50.4051112" lon="7.9529021">
 <ele>297</ele>
 <time>2020-11-30T11:46:15Z</time>
 <hdop>10.72</hdop>
 <extensions>
 <speed>0.91</speed>
 </extensions>
 </trkpt>
 <trkpt lat="50.4051252" lon="7.9530016">
 <ele>300</ele>
 <time>2020-11-30T11:46:21Z</time>
 <hdop>10.72</hdop>
 <extensions>
 <speed>0.95</speed>
 </extensions>
 </trkpt>
 <trkpt lat="50.4051428" lon="7.9531234">
 <ele>299</ele>
 <time>2020-11-30T11:46:27Z</time>
 <hdop>11.792</hdop>
 <extensions>
 <speed>1.18</speed>
 </extensions>
 </trkpt>
 <trkpt lat="50.4051874" lon="7.9532356">
 <ele>303</ele>
 <time>2020-11-30T11:46:32Z</time>
 <hdop>11.792</hdop>
 <extensions>
 <speed>1.05</speed>
 </extensions>
 </trkpt>
 <trkpt lat="50.4052481" lon="7.9534084">
 <ele>303</ele>
 <time>2020-11-30T11:46:38Z</time>
 <hdop>10.72</hdop>
 <extensions>
 <speed>1.19</speed>
 </extensions>
 </trkpt>
 <trkpt lat="50.4052496" lon="7.9535031">
 <ele>304</ele>
 <time>2020-11-30T11:46:43Z</time>
 <hdop>10.72</hdop>
 <extensions>
 <speed>0.89</speed>
 </extensions>
 </trkpt>
 <trkpt lat="50.4052442" lon="7.9536234">
 <ele>302</ele>
 <time>2020-11-30T11:46:49Z</time>
 <hdop>11.792</hdop>
 <extensions>
 <speed>1.36</speed>
 </extensions>
 </trkpt>
 <trkpt lat="50.405256" lon="7.9537469">
 <ele>305</ele>
 <time>2020-11-30T11:46:55Z</time>
 <hdop>10.72</hdop>
 <extensions>
 <speed>0.99</speed>
 </extensions>
 </trkpt>
 <trkpt lat="50.4052522" lon="7.9538744">
 <ele>303</ele>
 <time>2020-11-30T11:47:01Z</time>
 <hdop>10.72</hdop>
 <extensions>
 <speed>0.97</speed>
 </extensions>
 </trkpt>
 <trkpt lat="50.4052299" lon="7.9539567">
 <ele>303</ele>
 <time>2020-11-30T11:47:06Z</time>
 <hdop>12.864</hdop>
 <extensions>
 <speed>1.12</speed>
 </extensions>
 </trkpt>
 <trkpt lat="50.4051736" lon="7.9540582">
 <ele>303</ele>
 <time>2020-11-30T11:47:12Z</time>
 <hdop>10.72</hdop>
 <extensions>
 <speed>1.06</speed>
 </extensions>
 </trkpt>
 <trkpt lat="50.4051312" lon="7.9541159">
 <ele>302</ele>
 <time>2020-11-30T11:47:17Z</time>
 <hdop>10.72</hdop>
 <extensions>
 <speed>0.23</speed>
 </extensions>
 </trkpt>
 <trkpt lat="50.4051083" lon="7.9541559">
 <ele>308</ele>
 <time>2020-11-30T11:47:22Z</time>
 <hdop>10.72</hdop>
 <extensions>
 <speed>0.97</speed>
 </extensions>
 </trkpt>
 <trkpt lat="50.4050556" lon="7.9542618">
 <ele>308</ele>
 <time>2020-11-30T11:47:28Z</time>
 <hdop>11.792</hdop>
 <extensions>
 <speed>0.93</speed>
 </extensions>
 </trkpt>
 <trkpt lat="50.4049737" lon="7.9543207">
 <ele>306</ele>
 <time>2020-11-30T11:47:33Z</time>
 <hdop>13.936</hdop>
 <extensions>
 <speed>2.12</speed>
 </extensions>
 </trkpt>
 <trkpt lat="50.4049547" lon="7.9543426">
 <ele>300</ele>
 <time>2020-11-30T11:47:39Z</time>
 <hdop>11.792</hdop>
 </trkpt>
 <trkpt lat="50.4049273" lon="7.9543788">
 <ele>302</ele>
 <time>2020-11-30T11:47:45Z</time>
 <hdop>11.792</hdop>
 </trkpt>
 <trkpt lat="50.4049079" lon="7.9544001">
 <ele>302</ele>
 <time>2020-11-30T11:47:51Z</time>
 <hdop>10.72</hdop>
 </trkpt>
 <trkpt lat="50.404907" lon="7.9544041">
 <ele>303</ele>
 <time>2020-11-30T11:47:56Z</time>
 <hdop>11.792</hdop>
 </trkpt>
 <trkpt lat="50.4048529" lon="7.9544647">
 <ele>306</ele>
 <time>2020-11-30T11:48:02Z</time>
 <hdop>11.792</hdop>
 <extensions>
 <speed>0.65</speed>
 </extensions>
 </trkpt>
 <trkpt lat="50.4047798" lon="7.9545399">
 <ele>306</ele>
 <time>2020-11-30T11:48:07Z</time>
 <hdop>11.792</hdop>
 <extensions>
 <speed>0.37</speed>
 </extensions>
 </trkpt>
 <trkpt lat="50.4046873" lon="7.9546151">
 <ele>302</ele>
 <time>2020-11-30T11:48:13Z</time>
 <hdop>11.792</hdop>
 <extensions>
 <speed>0.24</speed>
 </extensions>
 </trkpt>
 <trkpt lat="50.404624" lon="7.9546788">
 <ele>300</ele>
 <time>2020-11-30T11:48:18Z</time>
 <hdop>12.864</hdop>
 <extensions>
 <speed>0.3</speed>
 </extensions>
 </trkpt>
 <trkpt lat="50.4045012" lon="7.9547971">
 <ele>305</ele>
 <time>2020-11-30T11:48:24Z</time>
 <hdop>13.936</hdop>
 <extensions>
 <speed>1.81</speed>
 </extensions>
 </trkpt>
 <trkpt lat="50.404447" lon="7.9549439">
 <ele>302</ele>
 <time>2020-11-30T11:48:29Z</time>
 <hdop>12.864</hdop>
 </trkpt>
 <trkpt lat="50.4043948" lon="7.9550378">
 <ele>307</ele>
 <time>2020-11-30T11:48:35Z</time>
 <hdop>11.792</hdop>
 <extensions>
 <speed>0.53</speed>
 </extensions>
 </trkpt>
 <trkpt lat="50.4043517" lon="7.9551126">
 <ele>310</ele>
 <time>2020-11-30T11:48:40Z</time>
 <hdop>11.792</hdop>
 <extensions>
 <speed>0.17</speed>
 </extensions>
 </trkpt>
 <trkpt lat="50.4043013" lon="7.9552076">
 <ele>308</ele>
 <time>2020-11-30T11:48:45Z</time>
 <hdop>11.792</hdop>
 </trkpt>
 <trkpt lat="50.4042644" lon="7.955258">
 <ele>304</ele>
 <time>2020-11-30T11:48:51Z</time>
 <hdop>11.792</hdop>
 </trkpt>
 <trkpt lat="50.4042483" lon="7.9552726">
 <ele>307</ele>
 <time>2020-11-30T11:48:56Z</time>
 <hdop>10.72</hdop>
 </trkpt>
 <trkpt lat="50.4042452" lon="7.9552773">
 <ele>308</ele>
 <time>2020-11-30T11:49:02Z</time>
 <hdop>10.72</hdop>
 </trkpt>
 <trkpt lat="50.4041851" lon="7.9553063">
 <ele>314</ele>
 <time>2020-11-30T11:49:08Z</time>
 <hdop>10.72</hdop>
 <extensions>
 <speed>1.26</speed>
 </extensions>
 </trkpt>
 <trkpt lat="50.4040945" lon="7.9553758">
 <ele>314</ele>
 <time>2020-11-30T11:49:13Z</time>
 <hdop>11.792</hdop>
 <extensions>
 <speed>1.04</speed>
 </extensions>
 </trkpt>
 <trkpt lat="50.4040254" lon="7.955456">
 <ele>313</ele>
 <time>2020-11-30T11:49:19Z</time>
 <hdop>11.792</hdop>
 <extensions>
 <speed>0.97</speed>
 </extensions>
 </trkpt>
 <trkpt lat="50.4039511" lon="7.9555054">
 <ele>309</ele>
 <time>2020-11-30T11:49:24Z</time>
 <hdop>12.864</hdop>
 <extensions>
 <speed>0.78</speed>
 </extensions>
 </trkpt>
 <trkpt lat="50.4038434" lon="7.9556069">
 <ele>303</ele>
 <time>2020-11-30T11:49:30Z</time>
 <hdop>11.792</hdop>
 <extensions>
 <speed>0.66</speed>
 </extensions>
 </trkpt>
 <trkpt lat="50.4037656" lon="7.9557034">
 <ele>309</ele>
 <time>2020-11-30T11:49:36Z</time>
 <hdop>12.864</hdop>
 <extensions>
 <speed>1</speed>
 </extensions>
 </trkpt>
 <trkpt lat="50.4037186" lon="7.9557481">
 <ele>308</ele>
 <time>2020-11-30T11:49:42Z</time>
 <hdop>12.864</hdop>
 <extensions>
 <speed>0.53</speed>
 </extensions>
 </trkpt>
 <trkpt lat="50.4036321" lon="7.9557947">
 <ele>310</ele>
 <time>2020-11-30T11:49:47Z</time>
 <hdop>12.864</hdop>
 <extensions>
 <speed>1.23</speed>
 </extensions>
 </trkpt>
 <trkpt lat="50.4035518" lon="7.955854">
 <ele>305</ele>
 <time>2020-11-30T11:49:53Z</time>
 <hdop>12.864</hdop>
 <extensions>
 <speed>1.14</speed>
 </extensions>
 </trkpt>
 <trkpt lat="50.4034744" lon="7.9558935">
 <ele>310</ele>
 <time>2020-11-30T11:49:59Z</time>
 <hdop>12.864</hdop>
 <extensions>
 <speed>0.78</speed>
 </extensions>
 </trkpt>
 <trkpt lat="50.403434" lon="7.955859">
 <ele>306</ele>
 <time>2020-11-30T11:50:04Z</time>
 <hdop>13.936</hdop>
 <extensions>
 <speed>0.76</speed>
 </extensions>
 </trkpt>
 <trkpt lat="50.4033663" lon="7.9558665">
 <ele>307</ele>
 <time>2020-11-30T11:50:10Z</time>
 <hdop>12.864</hdop>
 <extensions>
 <speed>0.71</speed>
 </extensions>
 </trkpt>
 <trkpt lat="50.4033207" lon="7.9559325">
 <ele>301</ele>
 <time>2020-11-30T11:50:15Z</time>
 <hdop>12.864</hdop>
 <extensions>
 <speed>0.51</speed>
 </extensions>
 </trkpt>
 <trkpt lat="50.4032355" lon="7.9558399">
 <ele>303</ele>
 <time>2020-11-30T11:50:21Z</time>
 <hdop>20.368</hdop>
 <extensions>
 <speed>1.31</speed>
 </extensions>
 </trkpt>
 <trkpt lat="50.4032831" lon="7.9557518">
 <ele>307</ele>
 <time>2020-11-30T11:50:27Z</time>
 <hdop>12.864</hdop>
 <extensions>
 <speed>0.26</speed>
 </extensions>
 </trkpt>
 <trkpt lat="50.4032846" lon="7.9557755">
 <ele>307</ele>
 <time>2020-11-30T11:50:33Z</time>
 <hdop>12.864</hdop>
 <extensions>
 <speed>0.4</speed>
 </extensions>
 </trkpt>
 <trkpt lat="50.4032292" lon="7.9558654">
 <ele>306</ele>
 <time>2020-11-30T11:50:39Z</time>
 <hdop>13.936</hdop>
 <extensions>
 <speed>0.48</speed>
 </extensions>
 </trkpt>
 <trkpt lat="50.4032004" lon="7.9558615">
 <ele>311</ele>
 <time>2020-11-30T11:50:45Z</time>
 <hdop>12.864</hdop>
 </trkpt>
 <trkpt lat="50.4032002" lon="7.9558514">
 <ele>313</ele>
 <time>2020-11-30T11:50:51Z</time>
 <hdop>11.792</hdop>
 </trkpt>
 <trkpt lat="50.4031937" lon="7.9558637">
 <ele>311</ele>
 <time>2020-11-30T11:50:56Z</time>
 <hdop>11.792</hdop>
 </trkpt>
 <trkpt lat="50.4031923" lon="7.955874">
 <ele>311</ele>
 <time>2020-11-30T11:51:02Z</time>
 <hdop>11.792</hdop>
 </trkpt>
 <trkpt lat="50.4031753" lon="7.9558718">
 <ele>310</ele>
 <time>2020-11-30T11:51:07Z</time>
 <hdop>11.792</hdop>
 <extensions>
 <speed>0.55</speed>
 </extensions>
 </trkpt>
 <trkpt lat="50.4030869" lon="7.9559184">
 <ele>306</ele>
 <time>2020-11-30T11:51:13Z</time>
 <hdop>11.792</hdop>
 </trkpt>
 <trkpt lat="50.4030496" lon="7.955948">
 <ele>305</ele>
 <time>2020-11-30T11:51:18Z</time>
 <hdop>11.792</hdop>
 </trkpt>
 <trkpt lat="50.4029977" lon="7.9559667">
 <ele>305</ele>
 <time>2020-11-30T11:51:24Z</time>
 <hdop>11.792</hdop>
 </trkpt>
 <trkpt lat="50.4029756" lon="7.9559849">
 <ele>305</ele>
 <time>2020-11-30T11:51:30Z</time>
 <hdop>12.864</hdop>
 </trkpt>
 <trkpt lat="50.4029154" lon="7.9559865">
 <ele>302</ele>
 <time>2020-11-30T11:51:35Z</time>
 <hdop>11.792</hdop>
 <extensions>
 <speed>0.38</speed>
 </extensions>
 </trkpt>
 <trkpt lat="50.4027956" lon="7.9559939">
 <ele>305</ele>
 <time>2020-11-30T11:51:41Z</time>
 <hdop>12.864</hdop>
 </trkpt>
 <trkpt lat="50.4026819" lon="7.9560248">
 <ele>309</ele>
 <time>2020-11-30T11:51:46Z</time>
 <hdop>12.864</hdop>
 <extensions>
 <speed>1.72</speed>
 </extensions>
 </trkpt>
 <trkpt lat="50.4025506" lon="7.9561619">
 <ele>315</ele>
 <time>2020-11-30T11:51:52Z</time>
 <hdop>12.864</hdop>
 <extensions>
 <speed>0.55</speed>
 </extensions>
 </trkpt>
 <trkpt lat="50.4024148" lon="7.9562247">
 <ele>321</ele>
 <time>2020-11-30T11:51:58Z</time>
 <hdop>11.792</hdop>
 <extensions>
 <speed>0.65</speed>
 </extensions>
 </trkpt>
 <trkpt lat="50.4023282" lon="7.9562383">
 <ele>321</ele>
 <time>2020-11-30T11:52:03Z</time>
 <hdop>12.864</hdop>
 <extensions>
 <speed>0.24</speed>
 </extensions>
 </trkpt>
 <trkpt lat="50.4022357" lon="7.9562422">
 <ele>323</ele>
 <time>2020-11-30T11:52:09Z</time>
 <hdop>11.792</hdop>
 <extensions>
 <speed>0.45</speed>
 </extensions>
 </trkpt>
 <trkpt lat="50.4021632" lon="7.9562202">
 <ele>324</ele>
 <time>2020-11-30T11:52:14Z</time>
 <hdop>12.864</hdop>
 <extensions>
 <speed>1.79</speed>
 </extensions>
 </trkpt>
 <trkpt lat="50.4020915" lon="7.9561137">
 <ele>323</ele>
 <time>2020-11-30T11:52:19Z</time>
 <hdop>11.792</hdop>
 <extensions>
 <speed>0.23</speed>
 </extensions>
 </trkpt>
 <trkpt lat="50.4021364" lon="7.956021">
 <ele>327</ele>
 <time>2020-11-30T11:52:25Z</time>
 <hdop>12.864</hdop>
 </trkpt>
 <trkpt lat="50.4021212" lon="7.9560038">
 <ele>327</ele>
 <time>2020-11-30T11:52:30Z</time>
 <hdop>11.792</hdop>
 </trkpt>
 <trkpt lat="50.4021146" lon="7.9560038">
 <ele>328</ele>
 <time>2020-11-30T11:52:36Z</time>
 <hdop>11.792</hdop>
 </trkpt>
 <trkpt lat="50.4021112" lon="7.9560032">
 <ele>329</ele>
 <time>2020-11-30T11:52:42Z</time>
 <hdop>13.936</hdop>
 </trkpt>
 <trkpt lat="50.4021108" lon="7.9560035">
 <ele>329</ele>
 <time>2020-11-30T11:52:48Z</time>
 <hdop>12.864</hdop>
 </trkpt>
 <trkpt lat="50.402111" lon="7.9560033">
 <ele>329</ele>
 <time>2020-11-30T11:52:54Z</time>
 <hdop>13.936</hdop>
 </trkpt>
 <trkpt lat="50.4021099" lon="7.9560021">
 <ele>329</ele>
 <time>2020-11-30T11:53:00Z</time>
 <hdop>13.936</hdop>
 </trkpt>
 <trkpt lat="50.4021097" lon="7.9560018">
 <ele>329</ele>
 <time>2020-11-30T11:53:05Z</time>
 <hdop>12.864</hdop>
 </trkpt>
 <trkpt lat="50.4021106" lon="7.9560025">
 <ele>329</ele>
 <time>2020-11-30T11:53:10Z</time>
 <hdop>11.792</hdop>
 </trkpt>
 <trkpt lat="50.4021096" lon="7.9560029">
 <ele>329</ele>
 <time>2020-11-30T11:53:16Z</time>
 <hdop>12.864</hdop>
 </trkpt>
 <trkpt lat="50.4021092" lon="7.9560036">
 <ele>329</ele>
 <time>2020-11-30T11:53:22Z</time>
 <hdop>12.864</hdop>
 </trkpt>
 <trkpt lat="50.4021091" lon="7.9560042">
 <ele>329</ele>
 <time>2020-11-30T11:53:28Z</time>
 <hdop>11.792</hdop>
 </trkpt>
 <trkpt lat="50.4021087" lon="7.9560042">
 <ele>329</ele>
 <time>2020-11-30T11:53:33Z</time>
 <hdop>10.72</hdop>
 </trkpt>
 <trkpt lat="50.4020565" lon="7.9559485">
 <ele>327</ele>
 <time>2020-11-30T11:53:39Z</time>
 <hdop>10.72</hdop>
 <extensions>
 <speed>1.48</speed>
 </extensions>
 </trkpt>
 <trkpt lat="50.402004" lon="7.955862">
 <ele>326</ele>
 <time>2020-11-30T11:53:44Z</time>
 <hdop>11.792</hdop>
 <extensions>
 <speed>0.88</speed>
 </extensions>
 </trkpt>
 <trkpt lat="50.4019978" lon="7.9557938">
 <ele>328</ele>
 <time>2020-11-30T11:53:50Z</time>
 <hdop>11.792</hdop>
 </trkpt>
 <trkpt lat="50.4020069" lon="7.955763">
 <ele>328</ele>
 <time>2020-11-30T11:53:55Z</time>
 <hdop>12.864</hdop>
 </trkpt>
 <trkpt lat="50.4020021" lon="7.9557314">
 <ele>328</ele>
 <time>2020-11-30T11:54:01Z</time>
 <hdop>11.792</hdop>
 </trkpt>
 <trkpt lat="50.4020044" lon="7.955698">
 <ele>329</ele>
 <time>2020-11-30T11:54:06Z</time>
 <hdop>12.864</hdop>
 <extensions>
 <speed>1.12</speed>
 </extensions>
 </trkpt>
 <trkpt lat="50.4019871" lon="7.9554666">
 <ele>329</ele>
 <time>2020-11-30T11:54:12Z</time>
 <hdop>13.936</hdop>
 <extensions>
 <speed>2.49</speed>
 </extensions>
 </trkpt>
 <trkpt lat="50.4020206" lon="7.9552254">
 <ele>323</ele>
 <time>2020-11-30T11:54:18Z</time>
 <hdop>12.864</hdop>
 <extensions>
 <speed>1.02</speed>
 </extensions>
 </trkpt>
 <trkpt lat="50.4020308" lon="7.9550207">
 <ele>327</ele>
 <time>2020-11-30T11:54:24Z</time>
 <hdop>13.936</hdop>
 <extensions>
 <speed>0.94</speed>
 </extensions>
 </trkpt>
 <trkpt lat="50.4020206" lon="7.9549146">
 <ele>328</ele>
 <time>2020-11-30T11:54:30Z</time>
 <hdop>12.864</hdop>
 <extensions>
 <speed>0.9</speed>
 </extensions>
 </trkpt>
 <trkpt lat="50.4020418" lon="7.9547881">
 <ele>329</ele>
 <time>2020-11-30T11:54:36Z</time>
 <hdop>11.792</hdop>
 <extensions>
 <speed>0.29</speed>
 </extensions>
 </trkpt>
 <trkpt lat="50.40203" lon="7.9547107">
 <ele>334</ele>
 <time>2020-11-30T11:54:41Z</time>
 <hdop>12.864</hdop>
 <extensions>
 <speed>0.94</speed>
 </extensions>
 </trkpt>
 <trkpt lat="50.4019873" lon="7.9545795">
 <ele>338</ele>
 <time>2020-11-30T11:54:47Z</time>
 <hdop>12.864</hdop>
 <extensions>
 <speed>0.67</speed>
 </extensions>
 </trkpt>
 <trkpt lat="50.4019722" lon="7.9545083">
 <ele>341</ele>
 <time>2020-11-30T11:54:52Z</time>
 <hdop>11.792</hdop>
 </trkpt>
 <trkpt lat="50.4019726" lon="7.9544892">
 <ele>341</ele>
 <time>2020-11-30T11:54:57Z</time>
 <hdop>11.792</hdop>
 </trkpt>
 <trkpt lat="50.4019608" lon="7.9544726">
 <ele>341</ele>
 <time>2020-11-30T11:55:03Z</time>
 <hdop>10.72</hdop>
 </trkpt>
 <trkpt lat="50.401948" lon="7.9543873">
 <ele>340</ele>
 <time>2020-11-30T11:55:08Z</time>
 <hdop>11.792</hdop>
 <extensions>
 <speed>1.02</speed>
 </extensions>
 </trkpt>
 <trkpt lat="50.4019067" lon="7.9542984">
 <ele>343</ele>
 <time>2020-11-30T11:55:14Z</time>
 <hdop>10.72</hdop>
 <extensions>
 <speed>0.96</speed>
 </extensions>
 </trkpt>
 <trkpt lat="50.4018685" lon="7.9542166">
 <ele>336</ele>
 <time>2020-11-30T11:55:19Z</time>
 <hdop>12.864</hdop>
 <extensions>
 <speed>1.59</speed>
 </extensions>
 </trkpt>
 <trkpt lat="50.4018001" lon="7.9541196">
 <ele>339</ele>
 <time>2020-11-30T11:55:25Z</time>
 <hdop>11.792</hdop>
 <extensions>
 <speed>1.25</speed>
 </extensions>
 </trkpt>
 <trkpt lat="50.401757" lon="7.9540218">
 <ele>342</ele>
 <time>2020-11-30T11:55:31Z</time>
 <hdop>11.792</hdop>
 </trkpt>
 <trkpt lat="50.401753" lon="7.9539962">
 <ele>341</ele>
 <time>2020-11-30T11:55:37Z</time>
 <hdop>11.792</hdop>
 </trkpt>
 <trkpt lat="50.4017445" lon="7.9539836">
 <ele>343</ele>
 <time>2020-11-30T11:55:42Z</time>
 <hdop>10.72</hdop>
 </trkpt>
 <trkpt lat="50.4017397" lon="7.9539801">
 <ele>342</ele>
 <time>2020-11-30T11:55:48Z</time>
 <hdop>10.72</hdop>
 </trkpt>
 <trkpt lat="50.4017003" lon="7.9538576">
 <ele>339</ele>
 <time>2020-11-30T11:55:54Z</time>
 <hdop>11.792</hdop>
 <extensions>
 <speed>0.99</speed>
 </extensions>
 </trkpt>
 <trkpt lat="50.4016042" lon="7.9537153">
 <ele>339</ele>
 <time>2020-11-30T11:56:00Z</time>
 <hdop>12.864</hdop>
 <extensions>
 <speed>0.5</speed>
 </extensions>
 </trkpt>
 <trkpt lat="50.4015822" lon="7.9535825">
 <ele>338</ele>
 <time>2020-11-30T11:56:05Z</time>
 <hdop>11.792</hdop>
 <extensions>
 <speed>0.59</speed>
 </extensions>
 </trkpt>
 <trkpt lat="50.4015213" lon="7.9534865">
 <ele>341</ele>
 <time>2020-11-30T11:56:11Z</time>
 <hdop>11.792</hdop>
 <extensions>
 <speed>1.19</speed>
 </extensions>
 </trkpt>
 <trkpt lat="50.4014624" lon="7.9533738">
 <ele>344</ele>
 <time>2020-11-30T11:56:17Z</time>
 <hdop>11.792</hdop>
 <extensions>
 <speed>0.8</speed>
 </extensions>
 </trkpt>
 <trkpt lat="50.4014068" lon="7.953291">
 <ele>347</ele>
 <time>2020-11-30T11:56:23Z</time>
 <hdop>13.936</hdop>
 <extensions>
 <speed>0.96</speed>
 </extensions>
 </trkpt>
 <trkpt lat="50.4013681" lon="7.9533378">
 <ele>349</ele>
 <time>2020-11-30T11:56:29Z</time>
 <hdop>11.792</hdop>
 </trkpt>
 <trkpt lat="50.4013484" lon="7.9533483">
 <ele>348</ele>
 <time>2020-11-30T11:56:35Z</time>
 <hdop>11.792</hdop>
 </trkpt>
 <trkpt lat="50.4013365" lon="7.9533602">
 <ele>348</ele>
 <time>2020-11-30T11:56:41Z</time>
 <hdop>11.792</hdop>
 </trkpt>
 <trkpt lat="50.4013133" lon="7.9533665">
 <ele>347</ele>
 <time>2020-11-30T11:56:46Z</time>
 <hdop>11.792</hdop>
 <extensions>
 <speed>0.76</speed>
 </extensions>
 </trkpt>
 <trkpt lat="50.4012089" lon="7.9534136">
 <ele>347</ele>
 <time>2020-11-30T11:56:52Z</time>
 <hdop>11.792</hdop>
 <extensions>
 <speed>0.6</speed>
 </extensions>
 </trkpt>
 <trkpt lat="50.401139" lon="7.9534596">
 <ele>343</ele>
 <time>2020-11-30T11:56:57Z</time>
 <hdop>11.792</hdop>
 <extensions>
 <speed>0.39</speed>
 </extensions>
 </trkpt>
 <trkpt lat="50.4010824" lon="7.9534826">
 <ele>342</ele>
 <time>2020-11-30T11:57:03Z</time>
 <hdop>11.792</hdop>
 <extensions>
 <speed>0.74</speed>
 </extensions>
 </trkpt>
 <trkpt lat="50.4010201" lon="7.9535025">
 <ele>344</ele>
 <time>2020-11-30T11:57:08Z</time>
 <hdop>11.792</hdop>
 <extensions>
 <speed>0.35</speed>
 </extensions>
 </trkpt>
 <trkpt lat="50.4009824" lon="7.9535368">
 <ele>347</ele>
 <time>2020-11-30T11:57:13Z</time>
 <hdop>11.792</hdop>
 <extensions>
 <speed>0.41</speed>
 </extensions>
 </trkpt>
 <trkpt lat="50.4009655" lon="7.9535673">
 <ele>349</ele>
 <time>2020-11-30T11:57:18Z</time>
 <hdop>11.792</hdop>
 <extensions>
 <speed>0.26</speed>
 </extensions>
 </trkpt>
 <trkpt lat="50.4009781" lon="7.9535392">
 <ele>347</ele>
 <time>2020-11-30T11:57:24Z</time>
 <hdop>12.864</hdop>
 </trkpt>
 <trkpt lat="50.4009604" lon="7.9535375">
 <ele>347</ele>
 <time>2020-11-30T11:57:29Z</time>
 <hdop>11.792</hdop>
 </trkpt>
 <trkpt lat="50.4009476" lon="7.9535649">
 <ele>347</ele>
 <time>2020-11-30T11:57:35Z</time>
 <hdop>10.72</hdop>
 </trkpt>
 <trkpt lat="50.4009445" lon="7.9535692">
 <ele>347</ele>
 <time>2020-11-30T11:57:41Z</time>
 <hdop>10.72</hdop>
 </trkpt>
 <trkpt lat="50.4009422" lon="7.953574">
 <ele>348</ele>
 <time>2020-11-30T11:57:47Z</time>
 <hdop>10.72</hdop>
 </trkpt>
 <trkpt lat="50.4008679" lon="7.9536978">
 <ele>344</ele>
 <time>2020-11-30T11:57:53Z</time>
 <hdop>11.792</hdop>
 <extensions>
 <speed>0.31</speed>
 </extensions>
 </trkpt>
 <trkpt lat="50.4007956" lon="7.9536929">
 <ele>343</ele>
 <time>2020-11-30T11:57:59Z</time>
 <hdop>12.864</hdop>
 </trkpt>
 <trkpt lat="50.40077" lon="7.953709">
 <ele>342</ele>
 <time>2020-11-30T11:58:04Z</time>
 <hdop>11.792</hdop>
 </trkpt>
 <trkpt lat="50.40075" lon="7.9537194">
 <ele>342</ele>
 <time>2020-11-30T11:58:09Z</time>
 <hdop>10.72</hdop>
 </trkpt>
 <trkpt lat="50.4007451" lon="7.9537234">
 <ele>343</ele>
 <time>2020-11-30T11:58:15Z</time>
 <hdop>12.864</hdop>
 </trkpt>
 <trkpt lat="50.4006849" lon="7.9537205">
 <ele>345</ele>
 <time>2020-11-30T11:58:21Z</time>
 <hdop>12.864</hdop>
 <extensions>
 <speed>1.2</speed>
 </extensions>
 </trkpt>
 <trkpt lat="50.4006024" lon="7.9537651">
 <ele>345</ele>
 <time>2020-11-30T11:58:26Z</time>
 <hdop>11.792</hdop>
 </trkpt>
 <trkpt lat="50.4005485" lon="7.9538172">
 <ele>348</ele>
 <time>2020-11-30T11:58:32Z</time>
 <hdop>11.792</hdop>
 </trkpt>
 <trkpt lat="50.4004992" lon="7.9538673">
 <ele>350</ele>
 <time>2020-11-30T11:58:38Z</time>
 <hdop>11.792</hdop>
 </trkpt>
 <trkpt lat="50.4004493" lon="7.9539098">
 <ele>349</ele>
 <time>2020-11-30T11:58:44Z</time>
 <hdop>10.72</hdop>
 <extensions>
 <speed>0.87</speed>
 </extensions>
 </trkpt>
 <trkpt lat="50.4003935" lon="7.9539348">
 <ele>355</ele>
 <time>2020-11-30T11:58:49Z</time>
 <hdop>10.72</hdop>
 <extensions>
 <speed>0.45</speed>
 </extensions>
 </trkpt>
 <trkpt lat="50.4003341" lon="7.9539926">
 <ele>358</ele>
 <time>2020-11-30T11:58:54Z</time>
 <hdop>11.792</hdop>
 <extensions>
 <speed>0.46</speed>
 </extensions>
 </trkpt>
 <trkpt lat="50.4002813" lon="7.9540162">
 <ele>352</ele>
 <time>2020-11-30T11:59:00Z</time>
 <hdop>12.864</hdop>
 <extensions>
 <speed>0.47</speed>
 </extensions>
 </trkpt>
 <trkpt lat="50.4001321" lon="7.9540349">
 <ele>350</ele>
 <time>2020-11-30T11:59:06Z</time>
 <hdop>12.864</hdop>
 <extensions>
 <speed>0.87</speed>
 </extensions>
 </trkpt>
 <trkpt lat="50.4000927" lon="7.9540347">
 <ele>351</ele>
 <time>2020-11-30T11:59:11Z</time>
 <hdop>12.864</hdop>
 <extensions>
 <speed>0.87</speed>
 </extensions>
 </trkpt>
 <trkpt lat="50.4000578" lon="7.9540728">
 <ele>354</ele>
 <time>2020-11-30T11:59:17Z</time>
 <hdop>11.792</hdop>
 <extensions>
 <speed>0.86</speed>
 </extensions>
 </trkpt>
 <trkpt lat="50.4000115" lon="7.954078">
 <ele>353</ele>
 <time>2020-11-30T11:59:23Z</time>
 <hdop>12.864</hdop>
 <extensions>
 <speed>0.65</speed>
 </extensions>
 </trkpt>
 <trkpt lat="50.3999509" lon="7.9541139">
 <ele>353</ele>
 <time>2020-11-30T11:59:28Z</time>
 <hdop>12.864</hdop>
 <extensions>
 <speed>0.56</speed>
 </extensions>
 </trkpt>
 <trkpt lat="50.3999084" lon="7.9541636">
 <ele>356</ele>
 <time>2020-11-30T11:59:34Z</time>
 <hdop>12.864</hdop>
 <extensions>
 <speed>0.49</speed>
 </extensions>
 </trkpt>
 <trkpt lat="50.3998528" lon="7.954218">
 <ele>358</ele>
 <time>2020-11-30T11:59:40Z</time>
 <hdop>11.792</hdop>
 <extensions>
 <speed>0.88</speed>
 </extensions>
 </trkpt>
 <trkpt lat="50.3998434" lon="7.9542358">
 <ele>354</ele>
 <time>2020-11-30T11:59:45Z</time>
 <hdop>11.792</hdop>
 </trkpt>
 <trkpt lat="50.399792" lon="7.9543356">
 <ele>355</ele>
 <time>2020-11-30T11:59:51Z</time>
 <hdop>11.792</hdop>
 <extensions>
 <speed>0.64</speed>
 </extensions>
 </trkpt>
 <trkpt lat="50.3997026" lon="7.954362">
 <ele>358</ele>
 <time>2020-11-30T11:59:57Z</time>
 <hdop>11.792</hdop>
 <extensions>
 <speed>0.61</speed>
 </extensions>
 </trkpt>
 <trkpt lat="50.3996264" lon="7.9543934">
 <ele>359</ele>
 <time>2020-11-30T12:00:02Z</time>
 <hdop>12.864</hdop>
 <extensions>
 <speed>0.92</speed>
 </extensions>
 </trkpt>
 <trkpt lat="50.3995482" lon="7.9544205">
 <ele>361</ele>
 <time>2020-11-30T12:00:08Z</time>
 <hdop>10.72</hdop>
 </trkpt>
 <trkpt lat="50.3995539" lon="7.9543566">
 <ele>360</ele>
 <time>2020-11-30T12:00:13Z</time>
 <hdop>11.792</hdop>
 </trkpt>
 <trkpt lat="50.3995758" lon="7.9543208">
 <ele>357</ele>
 <time>2020-11-30T12:00:18Z</time>
 <hdop>11.792</hdop>
 <extensions>
 <speed>0.19</speed>
 </extensions>
 </trkpt>
 <trkpt lat="50.3995601" lon="7.9543553">
 <ele>360</ele>
 <time>2020-11-30T12:00:24Z</time>
 <hdop>12.864</hdop>
 </trkpt>
 <trkpt lat="50.3995536" lon="7.9543916">
 <ele>360</ele>
 <time>2020-11-30T12:00:29Z</time>
 <hdop>11.792</hdop>
 </trkpt>
 <trkpt lat="50.3995476" lon="7.9544131">
 <ele>361</ele>
 <time>2020-11-30T12:00:35Z</time>
 <hdop>10.72</hdop>
 </trkpt>
 <trkpt lat="50.3995463" lon="7.9544203">
 <ele>361</ele>
 <time>2020-11-30T12:00:41Z</time>
 <hdop>11.792</hdop>
 </trkpt>
 <trkpt lat="50.3994995" lon="7.9544512">
 <ele>362</ele>
 <time>2020-11-30T12:00:47Z</time>
 <hdop>11.792</hdop>
 <extensions>
 <speed>1.34</speed>
 </extensions>
 </trkpt>
 <trkpt lat="50.3993974" lon="7.9545327">
 <ele>365</ele>
 <time>2020-11-30T12:00:52Z</time>
 <hdop>10.72</hdop>
 <extensions>
 <speed>0.78</speed>
 </extensions>
 </trkpt>
 <trkpt lat="50.3992804" lon="7.954659">
 <ele>366</ele>
 <time>2020-11-30T12:00:58Z</time>
 <hdop>11.792</hdop>
 <extensions>
 <speed>0.75</speed>
 </extensions>
 </trkpt>
 <trkpt lat="50.3991804" lon="7.954733">
 <ele>370</ele>
 <time>2020-11-30T12:01:04Z</time>
 <hdop>11.792</hdop>
 <extensions>
 <speed>0.75</speed>
 </extensions>
 </trkpt>
 <trkpt lat="50.3990932" lon="7.9548016">
 <ele>370</ele>
 <time>2020-11-30T12:01:09Z</time>
 <hdop>12.864</hdop>
 <extensions>
 <speed>1.81</speed>
 </extensions>
 </trkpt>
 <trkpt lat="50.399018" lon="7.9548638">
 <ele>374</ele>
 <time>2020-11-30T12:01:15Z</time>
 <hdop>11.792</hdop>
 <extensions>
 <speed>0.52</speed>
 </extensions>
 </trkpt>
 <trkpt lat="50.3989665" lon="7.9549518">
 <ele>374</ele>
 <time>2020-11-30T12:01:21Z</time>
 <hdop>11.792</hdop>
 <extensions>
 <speed>0.73</speed>
 </extensions>
 </trkpt>
 <trkpt lat="50.3989267" lon="7.9549499">
 <ele>371</ele>
 <time>2020-11-30T12:01:26Z</time>
 <hdop>10.72</hdop>
 <extensions>
 <speed>0.15</speed>
 </extensions>
 </trkpt>
 <trkpt lat="50.3988675" lon="7.9549338">
 <ele>369</ele>
 <time>2020-11-30T12:01:32Z</time>
 <hdop>11.792</hdop>
 <extensions>
 <speed>1.24</speed>
 </extensions>
 </trkpt>
 <trkpt lat="50.3987853" lon="7.9548543">
 <ele>368</ele>
 <time>2020-11-30T12:01:38Z</time>
 <hdop>11.792</hdop>
 <extensions>
 <speed>0.79</speed>
 </extensions>
 </trkpt>
 <trkpt lat="50.3987083" lon="7.9548624">
 <ele>370</ele>
 <time>2020-11-30T12:01:43Z</time>
 <hdop>11.792</hdop>
 <extensions>
 <speed>1.18</speed>
 </extensions>
 </trkpt>
 <trkpt lat="50.3986414" lon="7.9548541">
 <ele>369</ele>
 <time>2020-11-30T12:01:49Z</time>
 <hdop>11.792</hdop>
 <extensions>
 <speed>0.65</speed>
 </extensions>
 </trkpt>
 <trkpt lat="50.3986083" lon="7.9548235">
 <ele>368</ele>
 <time>2020-11-30T12:01:54Z</time>
 <hdop>11.792</hdop>
 <extensions>
 <speed>0.55</speed>
 </extensions>
 </trkpt>
 <trkpt lat="50.3985309" lon="7.9547883">
 <ele>367</ele>
 <time>2020-11-30T12:02:00Z</time>
 <hdop>10.72</hdop>
 <extensions>
 <speed>1.01</speed>
 </extensions>
 </trkpt>
 <trkpt lat="50.3984579" lon="7.9547419">
 <ele>367</ele>
 <time>2020-11-30T12:02:06Z</time>
 <hdop>12.864</hdop>
 <extensions>
 <speed>0.99</speed>
 </extensions>
 </trkpt>
 <trkpt lat="50.3983809" lon="7.9547045">
 <ele>365</ele>
 <time>2020-11-30T12:02:12Z</time>
 <hdop>11.792</hdop>
 <extensions>
 <speed>1.08</speed>
 </extensions>
 </trkpt>
 <trkpt lat="50.3983066" lon="7.9546442">
 <ele>366</ele>
 <time>2020-11-30T12:02:18Z</time>
 <hdop>11.792</hdop>
 <extensions>
 <speed>1.56</speed>
 </extensions>
 </trkpt>
 <trkpt lat="50.3982492" lon="7.9545811">
 <ele>368</ele>
 <time>2020-11-30T12:02:24Z</time>
 <hdop>12.864</hdop>
 <extensions>
 <speed>0.91</speed>
 </extensions>
 </trkpt>
 <trkpt lat="50.3981702" lon="7.9546545">
 <ele>363</ele>
 <time>2020-11-30T12:02:30Z</time>
 <hdop>12.864</hdop>
 <extensions>
 <speed>0.67</speed>
 </extensions>
 </trkpt>
 <trkpt lat="50.3981042" lon="7.9546033">
 <ele>362</ele>
 <time>2020-11-30T12:02:36Z</time>
 <hdop>11.792</hdop>
 <extensions>
 <speed>1.02</speed>
 </extensions>
 </trkpt>
 <trkpt lat="50.3980403" lon="7.954632">
 <ele>368</ele>
 <time>2020-11-30T12:02:41Z</time>
 <hdop>12.864</hdop>
 <extensions>
 <speed>1.14</speed>
 </extensions>
 </trkpt>
 <trkpt lat="50.3979066" lon="7.9544764">
 <ele>367</ele>
 <time>2020-11-30T12:02:46Z</time>
 <hdop>13.936</hdop>
 <extensions>
 <speed>1.18</speed>
 </extensions>
 </trkpt>
 <trkpt lat="50.3978789" lon="7.9544896">
 <ele>370</ele>
 <time>2020-11-30T12:02:52Z</time>
 <hdop>12.864</hdop>
 <extensions>
 <speed>0.22</speed>
 </extensions>
 </trkpt>
 <trkpt lat="50.3978469" lon="7.9545109">
 <ele>367</ele>
 <time>2020-11-30T12:02:57Z</time>
 <hdop>12.864</hdop>
 <extensions>
 <speed>0.75</speed>
 </extensions>
 </trkpt>
 <trkpt lat="50.3978041" lon="7.95453">
 <ele>369</ele>
 <time>2020-11-30T12:03:02Z</time>
 <hdop>11.792</hdop>
 <extensions>
 <speed>1.28</speed>
 </extensions>
 </trkpt>
 <trkpt lat="50.3977353" lon="7.9545192">
 <ele>370</ele>
 <time>2020-11-30T12:03:08Z</time>
 <hdop>12.864</hdop>
 <extensions>
 <speed>1.17</speed>
 </extensions>
 </trkpt>
 <trkpt lat="50.3977062" lon="7.9545125">
 <ele>369</ele>
 <time>2020-11-30T12:03:14Z</time>
 <hdop>11.792</hdop>
 <extensions>
 <speed>0.28</speed>
 </extensions>
 </trkpt>
 <trkpt lat="50.3976836" lon="7.9545259">
 <ele>371</ele>
 <time>2020-11-30T12:03:19Z</time>
 <hdop>13.936</hdop>
 <extensions>
 <speed>0.68</speed>
 </extensions>
 </trkpt>
 <trkpt lat="50.3976391" lon="7.9545556">
 <ele>372</ele>
 <time>2020-11-30T12:03:25Z</time>
 <hdop>11.792</hdop>
 <extensions>
 <speed>0.42</speed>
 </extensions>
 </trkpt>
 <trkpt lat="50.397574" lon="7.9545846">
 <ele>372</ele>
 <time>2020-11-30T12:03:31Z</time>
 <hdop>11.792</hdop>
 <extensions>
 <speed>0.96</speed>
 </extensions>
 </trkpt>
 <trkpt lat="50.3974956" lon="7.9546078">
 <ele>370</ele>
 <time>2020-11-30T12:03:36Z</time>
 <hdop>11.792</hdop>
 <extensions>
 <speed>1.08</speed>
 </extensions>
 </trkpt>
 <trkpt lat="50.3974158" lon="7.9546109">
 <ele>372</ele>
 <time>2020-11-30T12:03:41Z</time>
 <hdop>11.792</hdop>
 <extensions>
 <speed>0.98</speed>
 </extensions>
 </trkpt>
 <trkpt lat="50.3973945" lon="7.9545512">
 <ele>371</ele>
 <time>2020-11-30T12:03:47Z</time>
 <hdop>11.792</hdop>
 <extensions>
 <speed>0.55</speed>
 </extensions>
 </trkpt>
 <trkpt lat="50.3973063" lon="7.9545039">
 <ele>374</ele>
 <time>2020-11-30T12:03:53Z</time>
 <hdop>15.008</hdop>
 <extensions>
 <speed>1.57</speed>
 </extensions>
 </trkpt>
 <trkpt lat="50.3972695" lon="7.954466">
 <ele>376</ele>
 <time>2020-11-30T12:03:58Z</time>
 <hdop>17.152</hdop>
 <extensions>
 <speed>0.53</speed>
 </extensions>
 </trkpt>
 <trkpt lat="50.3974857" lon="7.9544379">
 <ele>376</ele>
 <time>2020-11-30T12:04:04Z</time>
 <hdop>21.44</hdop>
 <extensions>
 <speed>2.7</speed>
 </extensions>
 </trkpt>
 <trkpt lat="50.3974381" lon="7.954326">
 <ele>375</ele>
 <time>2020-11-30T12:04:09Z</time>
 <hdop>11.792</hdop>
 <extensions>
 <speed>1.49</speed>
 </extensions>
 </trkpt>
 <trkpt lat="50.3973589" lon="7.9543441">
 <ele>378</ele>
 <time>2020-11-30T12:04:15Z</time>
 <hdop>10.72</hdop>
 </trkpt>
 <trkpt lat="50.397349" lon="7.9543704">
 <ele>373</ele>
 <time>2020-11-30T12:04:21Z</time>
 <hdop>10.72</hdop>
 </trkpt>
 <trkpt lat="50.3973473" lon="7.954409">
 <ele>374</ele>
 <time>2020-11-30T12:04:27Z</time>
 <hdop>10.72</hdop>
 <extensions>
 <speed>1.35</speed>
 </extensions>
 </trkpt>
 <trkpt lat="50.3973775" lon="7.954446">
 <ele>372</ele>
 <time>2020-11-30T12:04:33Z</time>
 <hdop>12.864</hdop>
 <extensions>
 <speed>0.79</speed>
 </extensions>
 </trkpt>
 <trkpt lat="50.3974655" lon="7.954487">
 <ele>368</ele>
 <time>2020-11-30T12:04:38Z</time>
 <hdop>15.008</hdop>
 <extensions>
 <speed>1.56</speed>
 </extensions>
 </trkpt>
 <trkpt lat="50.3974609" lon="7.9545558">
 <ele>362</ele>
 <time>2020-11-30T12:04:44Z</time>
 <hdop>12.864</hdop>
 <extensions>
 <speed>0.81</speed>
 </extensions>
 </trkpt>
 <trkpt lat="50.3974711" lon="7.9544964">
 <ele>361</ele>
 <time>2020-11-30T12:04:50Z</time>
 <hdop>11.792</hdop>
 <extensions>
 <speed>2.29</speed>
 </extensions>
 </trkpt>
 <trkpt lat="50.3974026" lon="7.9545664">
 <ele>363</ele>
 <time>2020-11-30T12:04:56Z</time>
 <hdop>11.792</hdop>
 <extensions>
 <speed>1.21</speed>
 </extensions>
 </trkpt>
 <trkpt lat="50.3973978" lon="7.9546878">
 <ele>362</ele>
 <time>2020-11-30T12:05:01Z</time>
 <hdop>13.936</hdop>
 <extensions>
 <speed>0.52</speed>
 </extensions>
 </trkpt>
 <trkpt lat="50.3974283" lon="7.9546993">
 <ele>360</ele>
 <time>2020-11-30T12:05:06Z</time>
 <hdop>11.792</hdop>
 <extensions>
 <speed>1.12</speed>
 </extensions>
 </trkpt>
 <trkpt lat="50.3974068" lon="7.9546407">
 <ele>362</ele>
 <time>2020-11-30T12:05:12Z</time>
 <hdop>11.792</hdop>
 <extensions>
 <speed>1.28</speed>
 </extensions>
 </trkpt>
 <trkpt lat="50.3974536" lon="7.9545954">
 <ele>366</ele>
 <time>2020-11-30T12:05:17Z</time>
 <hdop>12.864</hdop>
 <extensions>
 <speed>1.39</speed>
 </extensions>
 </trkpt>
 <trkpt lat="50.3974747" lon="7.9545805">
 <ele>369</ele>
 <time>2020-11-30T12:05:23Z</time>
 <hdop>12.864</hdop>
 <extensions>
 <speed>0.4</speed>
 </extensions>
 </trkpt>
 <trkpt lat="50.3974343" lon="7.9545937">
 <ele>369</ele>
 <time>2020-11-30T12:05:29Z</time>
 <hdop>13.936</hdop>
 <extensions>
 <speed>2.75</speed>
 </extensions>
 </trkpt>
 <trkpt lat="50.3974419" lon="7.9548398">
 <ele>368</ele>
 <time>2020-11-30T12:05:34Z</time>
 <hdop>22.512</hdop>
 <extensions>
 <speed>3.49</speed>
 </extensions>
 </trkpt>
 <trkpt lat="50.3974821" lon="7.9546147">
 <ele>373</ele>
 <time>2020-11-30T12:05:40Z</time>
 <hdop>23.584</hdop>
 <extensions>
 <speed>1.88</speed>
 </extensions>
 </trkpt>
 <trkpt lat="50.3973157" lon="7.9550404">
 <ele>370</ele>
 <time>2020-11-30T12:05:46Z</time>
 <hdop>35.376</hdop>
 <extensions>
 <speed>0.62</speed>
 </extensions>
 </trkpt>
 <trkpt lat="50.3973841" lon="7.9548263">
 <ele>367</ele>
 <time>2020-11-30T12:05:51Z</time>
 <hdop>26.8</hdop>
 <extensions>
 <speed>1.07</speed>
 </extensions>
 </trkpt>
 <trkpt lat="50.3974003" lon="7.9545751">
 <ele>369</ele>
 <time>2020-11-30T12:05:56Z</time>
 <hdop>18.224</hdop>
 <extensions>
 <speed>2.97</speed>
 </extensions>
 </trkpt>
 <trkpt lat="50.3973114" lon="7.9543252">
 <ele>369</ele>
 <time>2020-11-30T12:06:03Z</time>
 <hdop>16.08</hdop>
 <extensions>
 <speed>0.46</speed>
 </extensions>
 </trkpt>
 <trkpt lat="50.3974583" lon="7.9543508">
 <ele>371</ele>
 <time>2020-11-30T12:06:09Z</time>
 <hdop>21.44</hdop>
 <extensions>
 <speed>0.68</speed>
 </extensions>
 </trkpt>
 <trkpt lat="50.3976707" lon="7.9544431">
 <ele>371</ele>
 <time>2020-11-30T12:06:14Z</time>
 <hdop>25.728</hdop>
 <extensions>
 <speed>3.28</speed>
 </extensions>
 </trkpt>
 <trkpt lat="50.3979088" lon="7.9547001">
 <ele>371</ele>
 <time>2020-11-30T12:06:20Z</time>
 <hdop>42.88</hdop>
 <extensions>
 <speed>3.91</speed>
 </extensions>
 </trkpt>
 <trkpt lat="50.3980541" lon="7.9548155">
 <ele>372</ele>
 <time>2020-11-30T12:06:25Z</time>
 <hdop>42.88</hdop>
 <extensions>
 <speed>4.11</speed>
 </extensions>
 </trkpt>
 <trkpt lat="50.3981122" lon="7.9548984">
 <ele>373</ele>
 <time>2020-11-30T12:06:33Z</time>
 <hdop>47.168</hdop>
 <extensions>
 <speed>1.77</speed>
 </extensions>
 </trkpt>
 <trkpt lat="50.3981008" lon="7.9546383">
 <ele>363</ele>
 <time>2020-11-30T12:06:38Z</time>
 <hdop>27.872</hdop>
 <extensions>
 <speed>0.58</speed>
 </extensions>
 </trkpt>
 <trkpt lat="50.3981329" lon="7.9546">
 <ele>365</ele>
 <time>2020-11-30T12:06:43Z</time>
 <hdop>22.512</hdop>
 <extensions>
 <speed>1.11</speed>
 </extensions>
 </trkpt>
 <trkpt lat="50.3981492" lon="7.9546832">
 <ele>368</ele>
 <time>2020-11-30T12:06:49Z</time>
 <hdop>21.44</hdop>
 <extensions>
 <speed>0.88</speed>
 </extensions>
 </trkpt>
 <trkpt lat="50.3982113" lon="7.9546654">
 <ele>373</ele>
 <time>2020-11-30T12:06:55Z</time>
 <hdop>18.224</hdop>
 <extensions>
 <speed>1.27</speed>
 </extensions>
 </trkpt>
 <trkpt lat="50.3981901" lon="7.9546562">
 <ele>366</ele>
 <time>2020-11-30T12:07:00Z</time>
 <hdop>16.08</hdop>
 <extensions>
 <speed>1.14</speed>
 </extensions>
 </trkpt>
 <trkpt lat="50.3982531" lon="7.9546097">
 <ele>364</ele>
 <time>2020-11-30T12:07:07Z</time>
 <hdop>13.936</hdop>
 <extensions>
 <speed>0.33</speed>
 </extensions>
 </trkpt>
 <trkpt lat="50.3982846" lon="7.9545517">
 <ele>368</ele>
 <time>2020-11-30T12:07:13Z</time>
 <hdop>13.936</hdop>
 <extensions>
 <speed>2.25</speed>
 </extensions>
 </trkpt>
 <trkpt lat="50.398359" lon="7.9545913">
 <ele>363</ele>
 <time>2020-11-30T12:07:19Z</time>
 <hdop>17.152</hdop>
 <extensions>
 <speed>1.56</speed>
 </extensions>
 </trkpt>
 <trkpt lat="50.3984004" lon="7.9546359">
 <ele>364</ele>
 <time>2020-11-30T12:07:24Z</time>
 <hdop>15.008</hdop>
 <extensions>
 <speed>0.86</speed>
 </extensions>
 </trkpt>
 <trkpt lat="50.3983209" lon="7.9546286">
 <ele>365</ele>
 <time>2020-11-30T12:07:29Z</time>
 <hdop>16.08</hdop>
 <extensions>
 <speed>0.91</speed>
 </extensions>
 </trkpt>
 <trkpt lat="50.398257" lon="7.9545054">
 <ele>362</ele>
 <time>2020-11-30T12:07:35Z</time>
 <hdop>13.936</hdop>
 <extensions>
 <speed>1.25</speed>
 </extensions>
 </trkpt>
 <trkpt lat="50.3981554" lon="7.954319">
 <ele>364</ele>
 <time>2020-11-30T12:07:41Z</time>
 <hdop>18.224</hdop>
 <extensions>
 <speed>2.99</speed>
 </extensions>
 </trkpt>
 <trkpt lat="50.3980018" lon="7.9542347">
 <ele>365</ele>
 <time>2020-11-30T12:07:46Z</time>
 <hdop>13.936</hdop>
 <extensions>
 <speed>1.66</speed>
 </extensions>
 </trkpt>
 <trkpt lat="50.3979041" lon="7.9540409">
 <ele>366</ele>
 <time>2020-11-30T12:07:52Z</time>
 <hdop>12.864</hdop>
 <extensions>
 <speed>1.95</speed>
 </extensions>
 </trkpt>
 <trkpt lat="50.3978447" lon="7.9540001">
 <ele>369</ele>
 <time>2020-11-30T12:07:57Z</time>
 <hdop>13.936</hdop>
 <extensions>
 <speed>1.16</speed>
 </extensions>
 </trkpt>
 <trkpt lat="50.3977454" lon="7.953931">
 <ele>369</ele>
 <time>2020-11-30T12:08:03Z</time>
 <hdop>16.08</hdop>
 <extensions>
 <speed>1.97</speed>
 </extensions>
 </trkpt>
 <trkpt lat="50.3977675" lon="7.9537815">
 <ele>369</ele>
 <time>2020-11-30T12:08:08Z</time>
 <hdop>17.152</hdop>
 <extensions>
 <speed>2.86</speed>
 </extensions>
 </trkpt>
 <trkpt lat="50.3976875" lon="7.9536631">
 <ele>372</ele>
 <time>2020-11-30T12:08:14Z</time>
 <hdop>13.936</hdop>
 <extensions>
 <speed>0.41</speed>
 </extensions>
 </trkpt>
 <trkpt lat="50.3976346" lon="7.9537083">
 <ele>370</ele>
 <time>2020-11-30T12:08:19Z</time>
 <hdop>15.008</hdop>
 <extensions>
 <speed>1.34</speed>
 </extensions>
 </trkpt>
 <trkpt lat="50.3975905" lon="7.9537629">
 <ele>371</ele>
 <time>2020-11-30T12:08:25Z</time>
 <hdop>13.936</hdop>
 <extensions>
 <speed>0.63</speed>
 </extensions>
 </trkpt>
 <trkpt lat="50.3975411" lon="7.9536898">
 <ele>369</ele>
 <time>2020-11-30T12:08:31Z</time>
 <hdop>12.864</hdop>
 <extensions>
 <speed>0.74</speed>
 </extensions>
 </trkpt>
 <trkpt lat="50.3974735" lon="7.9536309">
 <ele>367</ele>
 <time>2020-11-30T12:08:37Z</time>
 <hdop>13.936</hdop>
 <extensions>
 <speed>1.44</speed>
 </extensions>
 </trkpt>
 <trkpt lat="50.3974354" lon="7.9536322">
 <ele>368</ele>
 <time>2020-11-30T12:08:42Z</time>
 <hdop>18.224</hdop>
 <extensions>
 <speed>0.31</speed>
 </extensions>
 </trkpt>
 <trkpt lat="50.397504" lon="7.9537031">
 <ele>373</ele>
 <time>2020-11-30T12:08:48Z</time>
 <hdop>23.584</hdop>
 <extensions>
 <speed>1.21</speed>
 </extensions>
 </trkpt>
 <trkpt lat="50.3974586" lon="7.953567">
 <ele>370</ele>
 <time>2020-11-30T12:08:54Z</time>
 <hdop>20.368</hdop>
 <extensions>
 <speed>1.46</speed>
 </extensions>
 </trkpt>
 <trkpt lat="50.3973918" lon="7.9534129">
 <ele>373</ele>
 <time>2020-11-30T12:08:59Z</time>
 <hdop>31.088</hdop>
 <extensions>
 <speed>1.67</speed>
 </extensions>
 </trkpt>
 <trkpt lat="50.3973373" lon="7.9532426">
 <ele>370</ele>
 <time>2020-11-30T12:09:05Z</time>
 <hdop>33.232</hdop>
 <extensions>
 <speed>1.95</speed>
 </extensions>
 </trkpt>
 <trkpt lat="50.3973226" lon="7.953268">
 <ele>369</ele>
 <time>2020-11-30T12:09:11Z</time>
 <hdop>20.368</hdop>
 <extensions>
 <speed>0.97</speed>
 </extensions>
 </trkpt>
 <trkpt lat="50.3972597" lon="7.9532323">
 <ele>365</ele>
 <time>2020-11-30T12:09:16Z</time>
 <hdop>21.44</hdop>
 <extensions>
 <speed>0.71</speed>
 </extensions>
 </trkpt>
 <trkpt lat="50.3971282" lon="7.9531095">
 <ele>366</ele>
 <time>2020-11-30T12:09:22Z</time>
 <hdop>18.224</hdop>
 <extensions>
 <speed>1.98</speed>
 </extensions>
 </trkpt>
 <trkpt lat="50.3970944" lon="7.9529518">
 <ele>363</ele>
 <time>2020-11-30T12:09:27Z</time>
 <hdop>13.936</hdop>
 <extensions>
 <speed>1.04</speed>
 </extensions>
 </trkpt>
 <trkpt lat="50.3971292" lon="7.95295">
 <ele>362</ele>
 <time>2020-11-30T12:09:33Z</time>
 <hdop>13.936</hdop>
 <extensions>
 <speed>0.25</speed>
 </extensions>
 </trkpt>
 <trkpt lat="50.3971369" lon="7.9528317">
 <ele>363</ele>
 <time>2020-11-30T12:09:38Z</time>
 <hdop>12.864</hdop>
 <extensions>
 <speed>1.35</speed>
 </extensions>
 </trkpt>
 <trkpt lat="50.3971451" lon="7.9527241">
 <ele>359</ele>
 <time>2020-11-30T12:09:44Z</time>
 <hdop>15.008</hdop>
 <extensions>
 <speed>0.38</speed>
 </extensions>
 </trkpt>
 <trkpt lat="50.3971624" lon="7.9527105">
 <ele>359</ele>
 <time>2020-11-30T12:09:50Z</time>
 <hdop>17.152</hdop>
 <extensions>
 <speed>0.47</speed>
 </extensions>
 </trkpt>
 <trkpt lat="50.3972013" lon="7.9526739">
 <ele>359</ele>
 <time>2020-11-30T12:09:55Z</time>
 <hdop>15.008</hdop>
 <extensions>
 <speed>0.43</speed>
 </extensions>
 </trkpt>
 <trkpt lat="50.3972857" lon="7.952529">
 <ele>353</ele>
 <time>2020-11-30T12:10:01Z</time>
 <hdop>19.296</hdop>
 <extensions>
 <speed>3.55</speed>
 </extensions>
 </trkpt>
 <trkpt lat="50.3973465" lon="7.9522864">
 <ele>352</ele>
 <time>2020-11-30T12:10:07Z</time>
 <hdop>20.368</hdop>
 <extensions>
 <speed>2.13</speed>
 </extensions>
 </trkpt>
 <trkpt lat="50.3972899" lon="7.9522138">
 <ele>350</ele>
 <time>2020-11-30T12:10:12Z</time>
 <hdop>17.152</hdop>
 <extensions>
 <speed>1.37</speed>
 </extensions>
 </trkpt>
 <trkpt lat="50.3972498" lon="7.9520987">
 <ele>349</ele>
 <time>2020-11-30T12:10:17Z</time>
 <hdop>16.08</hdop>
 <extensions>
 <speed>1.29</speed>
 </extensions>
 </trkpt>
 <trkpt lat="50.397235" lon="7.952086">
 <ele>349</ele>
 <time>2020-11-30T12:10:23Z</time>
 <hdop>15.008</hdop>
 </trkpt>
 <trkpt lat="50.3972112" lon="7.9520729">
 <ele>348</ele>
 <time>2020-11-30T12:10:29Z</time>
 <hdop>17.152</hdop>
 </trkpt>
 <trkpt lat="50.3971768" lon="7.9520542">
 <ele>351</ele>
 <time>2020-11-30T12:10:34Z</time>
 <hdop>18.224</hdop>
 </trkpt>
 <trkpt lat="50.3971711" lon="7.9520195">
 <ele>351</ele>
 <time>2020-11-30T12:10:40Z</time>
 <hdop>15.008</hdop>
 </trkpt>
 <trkpt lat="50.3971674" lon="7.9519974">
 <ele>351</ele>
 <time>2020-11-30T12:10:46Z</time>
 <hdop>15.008</hdop>
 </trkpt>
 <trkpt lat="50.3971684" lon="7.9519898">
 <ele>352</ele>
 <time>2020-11-30T12:10:51Z</time>
 <hdop>18.224</hdop>
 </trkpt>
 <trkpt lat="50.3971692" lon="7.9519635">
 <ele>353</ele>
 <time>2020-11-30T12:10:57Z</time>
 <hdop>17.152</hdop>
 </trkpt>
 <trkpt lat="50.3972429" lon="7.9518573">
 <ele>350</ele>
 <time>2020-11-30T12:11:02Z</time>
 <hdop>16.08</hdop>
 <extensions>
 <speed>1.24</speed>
 </extensions>
 </trkpt>
 <trkpt lat="50.397198" lon="7.9516386">
 <ele>347</ele>
 <time>2020-11-30T12:11:08Z</time>
 <hdop>20.368</hdop>
 <extensions>
 <speed>1.76</speed>
 </extensions>
 </trkpt>
 <trkpt lat="50.3972405" lon="7.9513222">
 <ele>354</ele>
 <time>2020-11-30T12:11:14Z</time>
 <hdop>19.296</hdop>
 <extensions>
 <speed>2.9</speed>
 </extensions>
 </trkpt>
 <trkpt lat="50.3972393" lon="7.9512086">
 <ele>354</ele>
 <time>2020-11-30T12:11:20Z</time>
 <hdop>22.512</hdop>
 <extensions>
 <speed>0.62</speed>
 </extensions>
 </trkpt>
 <trkpt lat="50.3973406" lon="7.9512062">
 <ele>349</ele>
 <time>2020-11-30T12:11:26Z</time>
 <hdop>21.44</hdop>
 <extensions>
 <speed>1.85</speed>
 </extensions>
 </trkpt>
 <trkpt lat="50.3973838" lon="7.9511814">
 <ele>348</ele>
 <time>2020-11-30T12:11:31Z</time>
 <hdop>21.44</hdop>
 <extensions>
 <speed>0.67</speed>
 </extensions>
 </trkpt>
 <trkpt lat="50.3973384" lon="7.9509904">
 <ele>348</ele>
 <time>2020-11-30T12:11:37Z</time>
 <hdop>20.368</hdop>
 <extensions>
 <speed>1.59</speed>
 </extensions>
 </trkpt>
 <trkpt lat="50.3974087" lon="7.9506853">
 <ele>360</ele>
 <time>2020-11-30T12:11:43Z</time>
 <hdop>17.152</hdop>
 <extensions>
 <speed>2.08</speed>
 </extensions>
 </trkpt>
 <trkpt lat="50.3974756" lon="7.950504">
 <ele>353</ele>
 <time>2020-11-30T12:11:48Z</time>
 <hdop>15.008</hdop>
 <extensions>
 <speed>1.42</speed>
 </extensions>
 </trkpt>
 <trkpt lat="50.3974941" lon="7.9503448">
 <ele>351</ele>
 <time>2020-11-30T12:11:54Z</time>
 <hdop>17.152</hdop>
 <extensions>
 <speed>2.05</speed>
 </extensions>
 </trkpt>
 <trkpt lat="50.3974668" lon="7.9502876">
 <ele>351</ele>
 <time>2020-11-30T12:12:00Z</time>
 <hdop>15.008</hdop>
 <extensions>
 <speed>2.13</speed>
 </extensions>
 </trkpt>
 <trkpt lat="50.3974832" lon="7.950133">
 <ele>349</ele>
 <time>2020-11-30T12:12:06Z</time>
 <hdop>18.224</hdop>
 <extensions>
 <speed>0.99</speed>
 </extensions>
 </trkpt>
 <trkpt lat="50.3974827" lon="7.9500844">
 <ele>350</ele>
 <time>2020-11-30T12:12:12Z</time>
 <hdop>15.008</hdop>
 <extensions>
 <speed>0.85</speed>
 </extensions>
 </trkpt>
 <trkpt lat="50.3974446" lon="7.950053">
 <ele>347</ele>
 <time>2020-11-30T12:12:17Z</time>
 <hdop>13.936</hdop>
 <extensions>
 <speed>1.47</speed>
 </extensions>
 </trkpt>
 <trkpt lat="50.3974863" lon="7.9501313">
 <ele>351</ele>
 <time>2020-11-30T12:12:22Z</time>
 <hdop>13.936</hdop>
 <extensions>
 <speed>0.76</speed>
 </extensions>
 </trkpt>
 <trkpt lat="50.3975212" lon="7.9499107">
 <ele>354</ele>
 <time>2020-11-30T12:12:28Z</time>
 <hdop>18.224</hdop>
 <extensions>
 <speed>1.14</speed>
 </extensions>
 </trkpt>
 <trkpt lat="50.3974786" lon="7.9497586">
 <ele>354</ele>
 <time>2020-11-30T12:12:33Z</time>
 <hdop>22.512</hdop>
 <extensions>
 <speed>1.99</speed>
 </extensions>
 </trkpt>
 <trkpt lat="50.3974979" lon="7.9496001">
 <ele>355</ele>
 <time>2020-11-30T12:12:39Z</time>
 <hdop>20.368</hdop>
 <extensions>
 <speed>0.25</speed>
 </extensions>
 </trkpt>
 <trkpt lat="50.3975382" lon="7.9495576">
 <ele>355</ele>
 <time>2020-11-30T12:12:44Z</time>
 <hdop>16.08</hdop>
 <extensions>
 <speed>0.72</speed>
 </extensions>
 </trkpt>
 <trkpt lat="50.3975657" lon="7.9494763">
 <ele>370</ele>
 <time>2020-11-30T12:12:49Z</time>
 <hdop>18.224</hdop>
 <extensions>
 <speed>0.67</speed>
 </extensions>
 </trkpt>
 <trkpt lat="50.3976194" lon="7.9494305">
 <ele>367</ele>
 <time>2020-11-30T12:12:55Z</time>
 <hdop>27.872</hdop>
 <extensions>
 <speed>1.23</speed>
 </extensions>
 </trkpt>
 <trkpt lat="50.3977058" lon="7.9493843">
 <ele>367</ele>
 <time>2020-11-30T12:13:00Z</time>
 <hdop>23.584</hdop>
 <extensions>
 <speed>0.19</speed>
 </extensions>
 </trkpt>
 <trkpt lat="50.397759" lon="7.9493145">
 <ele>363</ele>
 <time>2020-11-30T12:13:06Z</time>
 <hdop>15.008</hdop>
 <extensions>
 <speed>1.56</speed>
 </extensions>
 </trkpt>
 <trkpt lat="50.3977779" lon="7.9493655">
 <ele>358</ele>
 <time>2020-11-30T12:13:11Z</time>
 <hdop>16.08</hdop>
 <extensions>
 <speed>1.64</speed>
 </extensions>
 </trkpt>
 <trkpt lat="50.3977957" lon="7.9495022">
 <ele>360</ele>
 <time>2020-11-30T12:13:17Z</time>
 <hdop>16.08</hdop>
 <extensions>
 <speed>1.79</speed>
 </extensions>
 </trkpt>
 <trkpt lat="50.3976733" lon="7.949518">
 <ele>360</ele>
 <time>2020-11-30T12:13:23Z</time>
 <hdop>18.224</hdop>
 <extensions>
 <speed>2.52</speed>
 </extensions>
 </trkpt>
 <trkpt lat="50.3975698" lon="7.9494953">
 <ele>359</ele>
 <time>2020-11-30T12:13:28Z</time>
 <hdop>18.224</hdop>
 <extensions>
 <speed>1</speed>
 </extensions>
 </trkpt>
 <trkpt lat="50.3974929" lon="7.949205">
 <ele>359</ele>
 <time>2020-11-30T12:13:34Z</time>
 <hdop>18.224</hdop>
 <extensions>
 <speed>3.78</speed>
 </extensions>
 </trkpt>
 <trkpt lat="50.3974302" lon="7.9491241">
 <ele>362</ele>
 <time>2020-11-30T12:13:39Z</time>
 <hdop>12.864</hdop>
 <extensions>
 <speed>1.61</speed>
 </extensions>
 </trkpt>
 <trkpt lat="50.3975703" lon="7.9491548">
 <ele>373</ele>
 <time>2020-11-30T12:13:45Z</time>
 <hdop>11.792</hdop>
 <extensions>
 <speed>0.6</speed>
 </extensions>
 </trkpt>
 <trkpt lat="50.397619" lon="7.949183">
 <ele>372</ele>
 <time>2020-11-30T12:13:51Z</time>
 <hdop>16.08</hdop>
 <extensions>
 <speed>1.16</speed>
 </extensions>
 </trkpt>
 <trkpt lat="50.3975321" lon="7.9492854">
 <ele>373</ele>
 <time>2020-11-30T12:13:56Z</time>
 <hdop>13.936</hdop>
 <extensions>
 <speed>2.08</speed>
 </extensions>
 </trkpt>
 <trkpt lat="50.3975203" lon="7.9494086">
 <ele>376</ele>
 <time>2020-11-30T12:14:01Z</time>
 <hdop>13.936</hdop>
 <extensions>
 <speed>0.72</speed>
 </extensions>
 </trkpt>
 <trkpt lat="50.397499" lon="7.9494153">
 <ele>371</ele>
 <time>2020-11-30T12:14:07Z</time>
 <hdop>11.792</hdop>
 <extensions>
 <speed>0.71</speed>
 </extensions>
 </trkpt>
 <trkpt lat="50.3975034" lon="7.9493492">
 <ele>370</ele>
 <time>2020-11-30T12:14:12Z</time>
 <hdop>12.864</hdop>
 <extensions>
 <speed>1.78</speed>
 </extensions>
 </trkpt>
 <trkpt lat="50.3975702" lon="7.9493386">
 <ele>371</ele>
 <time>2020-11-30T12:14:17Z</time>
 <hdop>13.936</hdop>
 <extensions>
 <speed>0.52</speed>
 </extensions>
 </trkpt>
 <trkpt lat="50.3975721" lon="7.9494407">
 <ele>371</ele>
 <time>2020-11-30T12:14:23Z</time>
 <hdop>13.936</hdop>
 <extensions>
 <speed>0.96</speed>
 </extensions>
 </trkpt>
 <trkpt lat="50.3975604" lon="7.9494889">
 <ele>371</ele>
 <time>2020-11-30T12:14:28Z</time>
 <hdop>15.008</hdop>
 <extensions>
 <speed>0.45</speed>
 </extensions>
 </trkpt>
 <trkpt lat="50.3975372" lon="7.9494796">
 <ele>371</ele>
 <time>2020-11-30T12:14:34Z</time>
 <hdop>15.008</hdop>
 <extensions>
 <speed>1.2</speed>
 </extensions>
 </trkpt>
 <trkpt lat="50.3975074" lon="7.9494712">
 <ele>371</ele>
 <time>2020-11-30T12:14:40Z</time>
 <hdop>13.936</hdop>
 <extensions>
 <speed>0.65</speed>
 </extensions>
 </trkpt>
 <trkpt lat="50.3975463" lon="7.9494879">
 <ele>367</ele>
 <time>2020-11-30T12:14:46Z</time>
 <hdop>11.792</hdop>
 </trkpt>
 <trkpt lat="50.3975132" lon="7.9494637">
 <ele>367</ele>
 <time>2020-11-30T12:14:51Z</time>
 <hdop>12.864</hdop>
 </trkpt>
 <trkpt lat="50.3975691" lon="7.9493794">
 <ele>367</ele>
 <time>2020-11-30T12:14:57Z</time>
 <hdop>11.792</hdop>
 <extensions>
 <speed>0.92</speed>
 </extensions>
 </trkpt>
 <trkpt lat="50.3975925" lon="7.9493466">
 <ele>365</ele>
 <time>2020-11-30T12:15:02Z</time>
 <hdop>11.792</hdop>
 <extensions>
 <speed>0.41</speed>
 </extensions>
 </trkpt>
 <trkpt lat="50.3975887" lon="7.9493444">
 <ele>365</ele>
 <time>2020-11-30T12:15:08Z</time>
 <hdop>11.792</hdop>
 </trkpt>
 <trkpt lat="50.3975781" lon="7.9493382">
 <ele>365</ele>
 <time>2020-11-30T12:15:13Z</time>
 <hdop>11.792</hdop>
 </trkpt>
 <trkpt lat="50.3975669" lon="7.9493233">
 <ele>365</ele>
 <time>2020-11-30T12:15:19Z</time>
 <hdop>10.72</hdop>
 </trkpt>
 <trkpt lat="50.3975666" lon="7.9493188">
 <ele>364</ele>
 <time>2020-11-30T12:15:24Z</time>
 <hdop>10.72</hdop>
 </trkpt>
 <trkpt lat="50.397566" lon="7.9493159">
 <ele>364</ele>
 <time>2020-11-30T12:15:29Z</time>
 <hdop>10.72</hdop>
 </trkpt>
 <trkpt lat="50.3975658" lon="7.949315">
 <ele>364</ele>
 <time>2020-11-30T12:15:35Z</time>
 <hdop>10.72</hdop>
 </trkpt>
 <trkpt lat="50.3975545" lon="7.9492996">
 <ele>365</ele>
 <time>2020-11-30T12:15:41Z</time>
 <hdop>11.792</hdop>
 <extensions>
 <speed>1.94</speed>
 </extensions>
 </trkpt>
 <trkpt lat="50.3975249" lon="7.9491569">
 <ele>355</ele>
 <time>2020-11-30T12:15:47Z</time>
 <hdop>11.792</hdop>
 <extensions>
 <speed>0.8</speed>
 </extensions>
 </trkpt>
 <trkpt lat="50.3974774" lon="7.9489853">
 <ele>356</ele>
 <time>2020-11-30T12:15:53Z</time>
 <hdop>11.792</hdop>
 <extensions>
 <speed>1.04</speed>
 </extensions>
 </trkpt>
 <trkpt lat="50.3974339" lon="7.9488461">
 <ele>358</ele>
 <time>2020-11-30T12:15:59Z</time>
 <hdop>11.792</hdop>
 <extensions>
 <speed>0.86</speed>
 </extensions>
 </trkpt>
 <trkpt lat="50.3973757" lon="7.9487293">
 <ele>358</ele>
 <time>2020-11-30T12:16:05Z</time>
 <hdop>12.864</hdop>
 <extensions>
 <speed>0.82</speed>
 </extensions>
 </trkpt>
 <trkpt lat="50.397346" lon="7.9487104">
 <ele>356</ele>
 <time>2020-11-30T12:16:10Z</time>
 <hdop>11.792</hdop>
 <extensions>
 <speed>1.09</speed>
 </extensions>
 </trkpt>
 <trkpt lat="50.3973009" lon="7.9485974">
 <ele>356</ele>
 <time>2020-11-30T12:16:16Z</time>
 <hdop>12.864</hdop>
 <extensions>
 <speed>1.57</speed>
 </extensions>
 </trkpt>
 <trkpt lat="50.3972224" lon="7.9485386">
 <ele>355</ele>
 <time>2020-11-30T12:16:22Z</time>
 <hdop>12.864</hdop>
 <extensions>
 <speed>1.07</speed>
 </extensions>
 </trkpt>
 <trkpt lat="50.3972398" lon="7.9484421">
 <ele>353</ele>
 <time>2020-11-30T12:16:28Z</time>
 <hdop>12.864</hdop>
 <extensions>
 <speed>0.84</speed>
 </extensions>
 </trkpt>
 <trkpt lat="50.3972201" lon="7.9483032">
 <ele>353</ele>
 <time>2020-11-30T12:16:34Z</time>
 <hdop>13.936</hdop>
 <extensions>
 <speed>1.37</speed>
 </extensions>
 </trkpt>
 <trkpt lat="50.3971773" lon="7.9482064">
 <ele>352</ele>
 <time>2020-11-30T12:16:40Z</time>
 <hdop>12.864</hdop>
 <extensions>
 <speed>0.75</speed>
 </extensions>
 </trkpt>
 <trkpt lat="50.3971327" lon="7.9481401">
 <ele>353</ele>
 <time>2020-11-30T12:16:45Z</time>
 <hdop>12.864</hdop>
 <extensions>
 <speed>0.87</speed>
 </extensions>
 </trkpt>
 <trkpt lat="50.3971034" lon="7.9480563">
 <ele>357</ele>
 <time>2020-11-30T12:16:51Z</time>
 <hdop>11.792</hdop>
 <extensions>
 <speed>1.11</speed>
 </extensions>
 </trkpt>
 <trkpt lat="50.3970564" lon="7.947962">
 <ele>361</ele>
 <time>2020-11-30T12:16:57Z</time>
 <hdop>11.792</hdop>
 <extensions>
 <speed>1.07</speed>
 </extensions>
 </trkpt>
 <trkpt lat="50.3970285" lon="7.9478503">
 <ele>361</ele>
 <time>2020-11-30T12:17:03Z</time>
 <hdop>11.792</hdop>
 <extensions>
 <speed>1.16</speed>
 </extensions>
 </trkpt>
 <trkpt lat="50.3970139" lon="7.9477834">
 <ele>362</ele>
 <time>2020-11-30T12:17:08Z</time>
 <hdop>12.864</hdop>
 <extensions>
 <speed>0.61</speed>
 </extensions>
 </trkpt>
 <trkpt lat="50.3970561" lon="7.9478223">
 <ele>357</ele>
 <time>2020-11-30T12:17:13Z</time>
 <hdop>13.936</hdop>
 <extensions>
 <speed>0.67</speed>
 </extensions>
 </trkpt>
 <trkpt lat="50.3970392" lon="7.9478473">
 <ele>357</ele>
 <time>2020-11-30T12:17:19Z</time>
 <hdop>12.864</hdop>
 <extensions>
 <speed>0.15</speed>
 </extensions>
 </trkpt>
 <trkpt lat="50.3969729" lon="7.9479126">
 <ele>362</ele>
 <time>2020-11-30T12:17:24Z</time>
 <hdop>12.864</hdop>
 <extensions>
 <speed>1.33</speed>
 </extensions>
 </trkpt>
 <trkpt lat="50.3969255" lon="7.9478198">
 <ele>370</ele>
 <time>2020-11-30T12:17:30Z</time>
 <hdop>12.864</hdop>
 <extensions>
 <speed>0.66</speed>
 </extensions>
 </trkpt>
 <trkpt lat="50.3969506" lon="7.9478071">
 <ele>369</ele>
 <time>2020-11-30T12:17:35Z</time>
 <hdop>11.792</hdop>
 </trkpt>
 <trkpt lat="50.3969927" lon="7.9478319">
 <ele>363</ele>
 <time>2020-11-30T12:17:40Z</time>
 <hdop>10.72</hdop>
 </trkpt>
 <trkpt lat="50.3969841" lon="7.9478286">
 <ele>363</ele>
 <time>2020-11-30T12:17:45Z</time>
 <hdop>10.72</hdop>
 </trkpt>
 <trkpt lat="50.3969821" lon="7.9478271">
 <ele>363</ele>
 <time>2020-11-30T12:17:50Z</time>
 <hdop>11.792</hdop>
 </trkpt>
 <trkpt lat="50.3969829" lon="7.9478256">
 <ele>363</ele>
 <time>2020-11-30T12:17:56Z</time>
 <hdop>13.936</hdop>
 </trkpt>
 <trkpt lat="50.3969806" lon="7.9478244">
 <ele>363</ele>
 <time>2020-11-30T12:18:02Z</time>
 <hdop>12.864</hdop>
 </trkpt>
 <trkpt lat="50.3970299" lon="7.9477289">
 <ele>358</ele>
 <time>2020-11-30T12:18:08Z</time>
 <hdop>11.792</hdop>
 <extensions>
 <speed>0.42</speed>
 </extensions>
 </trkpt>
 <trkpt lat="50.3971062" lon="7.9477257">
 <ele>359</ele>
 <time>2020-11-30T12:18:13Z</time>
 <hdop>11.792</hdop>
 <extensions>
 <speed>0.68</speed>
 </extensions>
 </trkpt>
 <trkpt lat="50.3971196" lon="7.9477599">
 <ele>364</ele>
 <time>2020-11-30T12:18:19Z</time>
 <hdop>12.864</hdop>
 <extensions>
 <speed>0.63</speed>
 </extensions>
 </trkpt>
 <trkpt lat="50.3970949" lon="7.947848">
 <ele>365</ele>
 <time>2020-11-30T12:18:25Z</time>
 <hdop>15.008</hdop>
 <extensions>
 <speed>0.36</speed>
 </extensions>
 </trkpt>
 <trkpt lat="50.3971148" lon="7.9478676">
 <ele>365</ele>
 <time>2020-11-30T12:18:31Z</time>
 <hdop>17.152</hdop>
 <extensions>
 <speed>0.76</speed>
 </extensions>
 </trkpt>
 <trkpt lat="50.3971796" lon="7.9478343">
 <ele>359</ele>
 <time>2020-11-30T12:18:36Z</time>
 <hdop>21.44</hdop>
 <extensions>
 <speed>2.34</speed>
 </extensions>
 </trkpt>
 <trkpt lat="50.3973219" lon="7.9477517">
 <ele>361</ele>
 <time>2020-11-30T12:18:42Z</time>
 <hdop>18.224</hdop>
 <extensions>
 <speed>0.25</speed>
 </extensions>
 </trkpt>
 <trkpt lat="50.397358" lon="7.9476617">
 <ele>361</ele>
 <time>2020-11-30T12:18:48Z</time>
 <hdop>13.936</hdop>
 </trkpt>
 <trkpt lat="50.3973206" lon="7.9476756">
 <ele>356</ele>
 <time>2020-11-30T12:18:53Z</time>
 <hdop>12.864</hdop>
 </trkpt>
 <trkpt lat="50.3972785" lon="7.9476586">
 <ele>350</ele>
 <time>2020-11-30T12:18:58Z</time>
 <hdop>12.864</hdop>
 </trkpt>
 <trkpt lat="50.3972147" lon="7.9476379">
 <ele>345</ele>
 <time>2020-11-30T12:19:04Z</time>
 <hdop>11.792</hdop>
 </trkpt>
 <trkpt lat="50.3971774" lon="7.9476214">
 <ele>344</ele>
 <time>2020-11-30T12:19:10Z</time>
 <hdop>11.792</hdop>
 </trkpt>
 <trkpt lat="50.3971732" lon="7.9476176">
 <ele>344</ele>
 <time>2020-11-30T12:19:15Z</time>
 <hdop>10.72</hdop>
 </trkpt>
 <trkpt lat="50.3971246" lon="7.9475441">
 <ele>340</ele>
 <time>2020-11-30T12:19:20Z</time>
 <hdop>11.792</hdop>
 <extensions>
 <speed>0.93</speed>
 </extensions>
 </trkpt>
 <trkpt lat="50.3970596" lon="7.9474328">
 <ele>342</ele>
 <time>2020-11-30T12:19:26Z</time>
 <hdop>12.864</hdop>
 <extensions>
 <speed>1.92</speed>
 </extensions>
 </trkpt>
 <trkpt lat="50.3969602" lon="7.9473287">
 <ele>342</ele>
 <time>2020-11-30T12:19:31Z</time>
 <hdop>11.792</hdop>
 <extensions>
 <speed>1.41</speed>
 </extensions>
 </trkpt>
 <trkpt lat="50.3968608" lon="7.9471967">
 <ele>345</ele>
 <time>2020-11-30T12:19:37Z</time>
 <hdop>12.864</hdop>
 <extensions>
 <speed>1.3</speed>
 </extensions>
 </trkpt>
 <trkpt lat="50.3968358" lon="7.9470965">
 <ele>347</ele>
 <time>2020-11-30T12:19:42Z</time>
 <hdop>11.792</hdop>
 <extensions>
 <speed>1.04</speed>
 </extensions>
 </trkpt>
 <trkpt lat="50.3968202" lon="7.9469616">
 <ele>351</ele>
 <time>2020-11-30T12:19:47Z</time>
 <hdop>11.792</hdop>
 <extensions>
 <speed>1.04</speed>
 </extensions>
 </trkpt>
 <trkpt lat="50.3967654" lon="7.9468482">
 <ele>350</ele>
 <time>2020-11-30T12:19:53Z</time>
 <hdop>12.864</hdop>
 <extensions>
 <speed>0.95</speed>
 </extensions>
 </trkpt>
 <trkpt lat="50.3967219" lon="7.9467121">
 <ele>352</ele>
 <time>2020-11-30T12:19:59Z</time>
 <hdop>11.792</hdop>
 <extensions>
 <speed>0.84</speed>
 </extensions>
 </trkpt>
 <trkpt lat="50.3967103" lon="7.9466164">
 <ele>352</ele>
 <time>2020-11-30T12:20:05Z</time>
 <hdop>10.72</hdop>
 <extensions>
 <speed>0.59</speed>
 </extensions>
 </trkpt>
 <trkpt lat="50.3967003" lon="7.9465128">
 <ele>353</ele>
 <time>2020-11-30T12:20:10Z</time>
 <hdop>10.72</hdop>
 <extensions>
 <speed>1.61</speed>
 </extensions>
 </trkpt>
 <trkpt lat="50.3966606" lon="7.9465146">
 <ele>353</ele>
 <time>2020-11-30T12:20:15Z</time>
 <hdop>11.792</hdop>
 <extensions>
 <speed>1.53</speed>
 </extensions>
 </trkpt>
 <trkpt lat="50.3966047" lon="7.9462982">
 <ele>350</ele>
 <time>2020-11-30T12:20:21Z</time>
 <hdop>11.792</hdop>
 <extensions>
 <speed>1.61</speed>
 </extensions>
 </trkpt>
 <trkpt lat="50.3966063" lon="7.9462078">
 <ele>349</ele>
 <time>2020-11-30T12:20:26Z</time>
 <hdop>11.792</hdop>
 <extensions>
 <speed>1.02</speed>
 </extensions>
 </trkpt>
 <trkpt lat="50.3965922" lon="7.946116">
 <ele>351</ele>
 <time>2020-11-30T12:20:31Z</time>
 <hdop>11.792</hdop>
 <extensions>
 <speed>0.91</speed>
 </extensions>
 </trkpt>
 <trkpt lat="50.3966075" lon="7.9460012">
 <ele>354</ele>
 <time>2020-11-30T12:20:37Z</time>
 <hdop>11.792</hdop>
 <extensions>
 <speed>1.13</speed>
 </extensions>
 </trkpt>
 <trkpt lat="50.3965838" lon="7.9459125">
 <ele>355</ele>
 <time>2020-11-30T12:20:43Z</time>
 <hdop>10.72</hdop>
 <extensions>
 <speed>0.54</speed>
 </extensions>
 </trkpt>
 <trkpt lat="50.3965532" lon="7.9458272">
 <ele>352</ele>
 <time>2020-11-30T12:20:48Z</time>
 <hdop>10.72</hdop>
 <extensions>
 <speed>0.32</speed>
 </extensions>
 </trkpt>
 <trkpt lat="50.3965004" lon="7.945843">
 <ele>351</ele>
 <time>2020-11-30T12:20:54Z</time>
 <hdop>10.72</hdop>
 <extensions>
 <speed>0.73</speed>
 </extensions>
 </trkpt>
 <trkpt lat="50.3964998" lon="7.9458316">
 <ele>351</ele>
 <time>2020-11-30T12:21:00Z</time>
 <hdop>10.72</hdop>
 </trkpt>
 <trkpt lat="50.3965007" lon="7.9458144">
 <ele>351</ele>
 <time>2020-11-30T12:21:06Z</time>
 <hdop>10.72</hdop>
 </trkpt>
 <trkpt lat="50.3964974" lon="7.9458054">
 <ele>350</ele>
 <time>2020-11-30T12:21:12Z</time>
 <hdop>10.72</hdop>
 </trkpt>
 <trkpt lat="50.3965156" lon="7.9458256">
 <ele>349</ele>
 <time>2020-11-30T12:21:17Z</time>
 <hdop>10.72</hdop>
 </trkpt>
 <trkpt lat="50.3964961" lon="7.9458277">
 <ele>353</ele>
 <time>2020-11-30T12:21:23Z</time>
 <hdop>10.72</hdop>
 </trkpt>
 <trkpt lat="50.3965044" lon="7.9458386">
 <ele>352</ele>
 <time>2020-11-30T12:21:28Z</time>
 <hdop>10.72</hdop>
 </trkpt>
 <trkpt lat="50.396506" lon="7.9458164">
 <ele>353</ele>
 <time>2020-11-30T12:21:34Z</time>
 <hdop>11.792</hdop>
 </trkpt>
 <trkpt lat="50.396512" lon="7.9458015">
 <ele>353</ele>
 <time>2020-11-30T12:21:40Z</time>
 <hdop>10.72</hdop>
 </trkpt>
 <trkpt lat="50.3965123" lon="7.9458132">
 <ele>351</ele>
 <time>2020-11-30T12:21:45Z</time>
 <hdop>11.792</hdop>
 </trkpt>
 <trkpt lat="50.3965128" lon="7.9458146">
 <ele>352</ele>
 <time>2020-11-30T12:21:51Z</time>
 <hdop>11.792</hdop>
 </trkpt>
 <trkpt lat="50.3965569" lon="7.9457242">
 <ele>349</ele>
 <time>2020-11-30T12:21:57Z</time>
 <hdop>10.72</hdop>
 <extensions>
 <speed>1.69</speed>
 </extensions>
 </trkpt>
 <trkpt lat="50.3966401" lon="7.9454636">
 <ele>347</ele>
 <time>2020-11-30T12:22:03Z</time>
 <hdop>10.72</hdop>
 <extensions>
 <speed>2.35</speed>
 </extensions>
 </trkpt>
 <trkpt lat="50.3966903" lon="7.9453594">
 <ele>342</ele>
 <time>2020-11-30T12:22:09Z</time>
 <hdop>10.72</hdop>
 <extensions>
 <speed>2.79</speed>
 </extensions>
 </trkpt>
 <trkpt lat="50.3967263" lon="7.945303">
 <ele>339</ele>
 <time>2020-11-30T12:22:14Z</time>
 <hdop>9.648</hdop>
 <extensions>
 <speed>1.13</speed>
 </extensions>
 </trkpt>
 <trkpt lat="50.3967852" lon="7.9452569">
 <ele>338</ele>
 <time>2020-11-30T12:22:19Z</time>
 <hdop>10.72</hdop>
 <extensions>
 <speed>1.44</speed>
 </extensions>
 </trkpt>
 <trkpt lat="50.3968705" lon="7.9451142">
 <ele>339</ele>
 <time>2020-11-30T12:22:25Z</time>
 <hdop>9.648</hdop>
 <extensions>
 <speed>1.7</speed>
 </extensions>
 </trkpt>
 <trkpt lat="50.3969047" lon="7.9450287">
 <ele>340</ele>
 <time>2020-11-30T12:22:30Z</time>
 <hdop>9.648</hdop>
 <extensions>
 <speed>1.09</speed>
 </extensions>
 </trkpt>
 <trkpt lat="50.39695" lon="7.9448938">
 <ele>337</ele>
 <time>2020-11-30T12:22:36Z</time>
 <hdop>9.648</hdop>
 <extensions>
 <speed>1.32</speed>
 </extensions>
 </trkpt>
 <trkpt lat="50.3969849" lon="7.9448644">
 <ele>340</ele>
 <time>2020-11-30T12:22:42Z</time>
 <hdop>10.72</hdop>
 <extensions>
 <speed>0.7</speed>
 </extensions>
 </trkpt>
 <trkpt lat="50.3970112" lon="7.9447149">
 <ele>337</ele>
 <time>2020-11-30T12:22:48Z</time>
 <hdop>10.72</hdop>
 <extensions>
 <speed>1.93</speed>
 </extensions>
 </trkpt>
 <trkpt lat="50.3970562" lon="7.9446076">
 <ele>337</ele>
 <time>2020-11-30T12:22:53Z</time>
 <hdop>10.72</hdop>
 <extensions>
 <speed>2.32</speed>
 </extensions>
 </trkpt>
 <trkpt lat="50.3970862" lon="7.9445745">
 <ele>337</ele>
 <time>2020-11-30T12:22:58Z</time>
 <hdop>10.72</hdop>
 <extensions>
 <speed>1.1</speed>
 </extensions>
 </trkpt>
 <trkpt lat="50.3971536" lon="7.9444775">
 <ele>338</ele>
 <time>2020-11-30T12:23:04Z</time>
 <hdop>10.72</hdop>
 <extensions>
 <speed>1.71</speed>
 </extensions>
 </trkpt>
 <trkpt lat="50.3971988" lon="7.944383">
 <ele>338</ele>
 <time>2020-11-30T12:23:10Z</time>
 <hdop>9.648</hdop>
 <extensions>
 <speed>1.12</speed>
 </extensions>
 </trkpt>
 <trkpt lat="50.3972672" lon="7.9443261">
 <ele>336</ele>
 <time>2020-11-30T12:23:16Z</time>
 <hdop>9.648</hdop>
 <extensions>
 <speed>1.41</speed>
 </extensions>
 </trkpt>
 <trkpt lat="50.3973195" lon="7.9441878">
 <ele>336</ele>
 <time>2020-11-30T12:23:22Z</time>
 <hdop>9.648</hdop>
 <extensions>
 <speed>1.07</speed>
 </extensions>
 </trkpt>
 <trkpt lat="50.3973602" lon="7.9440882">
 <ele>335</ele>
 <time>2020-11-30T12:23:28Z</time>
 <hdop>9.648</hdop>
 <extensions>
 <speed>2.3</speed>
 </extensions>
 </trkpt>
 <trkpt lat="50.3974023" lon="7.9439776">
 <ele>335</ele>
 <time>2020-11-30T12:23:33Z</time>
 <hdop>9.648</hdop>
 <extensions>
 <speed>1.35</speed>
 </extensions>
 </trkpt>
 <trkpt lat="50.3974617" lon="7.9438928">
 <ele>333</ele>
 <time>2020-11-30T12:23:38Z</time>
 <hdop>10.72</hdop>
 <extensions>
 <speed>2.19</speed>
 </extensions>
 </trkpt>
 <trkpt lat="50.3974901" lon="7.943778">
 <ele>333</ele>
 <time>2020-11-30T12:23:44Z</time>
 <hdop>9.648</hdop>
 <extensions>
 <speed>2.02</speed>
 </extensions>
 </trkpt>
 <trkpt lat="50.3975371" lon="7.9436281">
 <ele>334</ele>
 <time>2020-11-30T12:23:50Z</time>
 <hdop>9.648</hdop>
 <extensions>
 <speed>1.13</speed>
 </extensions>
 </trkpt>
 <trkpt lat="50.397614" lon="7.9434823">
 <ele>334</ele>
 <time>2020-11-30T12:23:56Z</time>
 <hdop>10.72</hdop>
 <extensions>
 <speed>2.23</speed>
 </extensions>
 </trkpt>
 <trkpt lat="50.3976706" lon="7.9434177">
 <ele>336</ele>
 <time>2020-11-30T12:24:01Z</time>
 <hdop>11.792</hdop>
 <extensions>
 <speed>1.61</speed>
 </extensions>
 </trkpt>
 <trkpt lat="50.397703" lon="7.9433351">
 <ele>332</ele>
 <time>2020-11-30T12:24:07Z</time>
 <hdop>10.72</hdop>
 <extensions>
 <speed>1.01</speed>
 </extensions>
 </trkpt>
 <trkpt lat="50.3977515" lon="7.9431918">
 <ele>332</ele>
 <time>2020-11-30T12:24:13Z</time>
 <hdop>11.792</hdop>
 <extensions>
 <speed>2.04</speed>
 </extensions>
 </trkpt>
 <trkpt lat="50.3977998" lon="7.943085">
 <ele>331</ele>
 <time>2020-11-30T12:24:18Z</time>
 <hdop>10.72</hdop>
 <extensions>
 <speed>2.04</speed>
 </extensions>
 </trkpt>
 <trkpt lat="50.3978027" lon="7.9429785">
 <ele>332</ele>
 <time>2020-11-30T12:24:23Z</time>
 <hdop>10.72</hdop>
 <extensions>
 <speed>2.15</speed>
 </extensions>
 </trkpt>
 <trkpt lat="50.3978335" lon="7.9429001">
 <ele>332</ele>
 <time>2020-11-30T12:24:29Z</time>
 <hdop>10.72</hdop>
 <extensions>
 <speed>0.94</speed>
 </extensions>
 </trkpt>
 <trkpt lat="50.3978809" lon="7.9428245">
 <ele>330</ele>
 <time>2020-11-30T12:24:35Z</time>
 <hdop>9.648</hdop>
 <extensions>
 <speed>1.4</speed>
 </extensions>
 </trkpt>
 <trkpt lat="50.3979244" lon="7.9427496">
 <ele>330</ele>
 <time>2020-11-30T12:24:41Z</time>
 <hdop>9.648</hdop>
 <extensions>
 <speed>1.75</speed>
 </extensions>
 </trkpt>
 <trkpt lat="50.3979445" lon="7.9426676">
 <ele>331</ele>
 <time>2020-11-30T12:24:46Z</time>
 <hdop>9.648</hdop>
 <extensions>
 <speed>1.06</speed>
 </extensions>
 </trkpt>
 <trkpt lat="50.397976" lon="7.9425744">
 <ele>332</ele>
 <time>2020-11-30T12:24:51Z</time>
 <hdop>9.648</hdop>
 <extensions>
 <speed>1.17</speed>
 </extensions>
 </trkpt>
 <trkpt lat="50.3980393" lon="7.9424129">
 <ele>334</ele>
 <time>2020-11-30T12:24:57Z</time>
 <hdop>9.648</hdop>
 <extensions>
 <speed>1.77</speed>
 </extensions>
 </trkpt>
 <trkpt lat="50.3981238" lon="7.9423009">
 <ele>332</ele>
 <time>2020-11-30T12:25:03Z</time>
 <hdop>10.72</hdop>
 <extensions>
 <speed>1.72</speed>
 </extensions>
 </trkpt>
 <trkpt lat="50.3981458" lon="7.942214">
 <ele>333</ele>
 <time>2020-11-30T12:25:08Z</time>
 <hdop>10.72</hdop>
 <extensions>
 <speed>0.98</speed>
 </extensions>
 </trkpt>
 <trkpt lat="50.3982184" lon="7.9421262">
 <ele>334</ele>
 <time>2020-11-30T12:25:14Z</time>
 <hdop>9.648</hdop>
 <extensions>
 <speed>0.3</speed>
 </extensions>
 </trkpt>
 <trkpt lat="50.3982446" lon="7.9420147">
 <ele>335</ele>
 <time>2020-11-30T12:25:20Z</time>
 <hdop>10.72</hdop>
 <extensions>
 <speed>1.97</speed>
 </extensions>
 </trkpt>
 <trkpt lat="50.3982934" lon="7.9419378">
 <ele>335</ele>
 <time>2020-11-30T12:25:25Z</time>
 <hdop>10.72</hdop>
 <extensions>
 <speed>1.6</speed>
 </extensions>
 </trkpt>
 <trkpt lat="50.3984049" lon="7.9418058">
 <ele>335</ele>
 <time>2020-11-30T12:25:31Z</time>
 <hdop>10.72</hdop>
 <extensions>
 <speed>1.91</speed>
 </extensions>
 </trkpt>
 <trkpt lat="50.3984626" lon="7.9416894">
 <ele>336</ele>
 <time>2020-11-30T12:25:36Z</time>
 <hdop>10.72</hdop>
 <extensions>
 <speed>1.22</speed>
 </extensions>
 </trkpt>
 <trkpt lat="50.3984976" lon="7.9416445">
 <ele>337</ele>
 <time>2020-11-30T12:25:41Z</time>
 <hdop>10.72</hdop>
 <extensions>
 <speed>1.43</speed>
 </extensions>
 </trkpt>
 <trkpt lat="50.3985572" lon="7.9415752">
 <ele>335</ele>
 <time>2020-11-30T12:25:47Z</time>
 <hdop>10.72</hdop>
 <extensions>
 <speed>2.06</speed>
 </extensions>
 </trkpt>
 <trkpt lat="50.3985632" lon="7.9415806">
 <ele>334</ele>
 <time>2020-11-30T12:25:52Z</time>
 <hdop>10.72</hdop>
 </trkpt>
 <trkpt lat="50.398608" lon="7.9414754">
 <ele>335</ele>
 <time>2020-11-30T12:25:57Z</time>
 <hdop>10.72</hdop>
 <extensions>
 <speed>3.56</speed>
 </extensions>
 </trkpt>
 <trkpt lat="50.3986488" lon="7.9413338">
 <ele>334</ele>
 <time>2020-11-30T12:26:02Z</time>
 <hdop>10.72</hdop>
 <extensions>
 <speed>2.43</speed>
 </extensions>
 </trkpt>
 <trkpt lat="50.398736" lon="7.9412002">
 <ele>335</ele>
 <time>2020-11-30T12:26:07Z</time>
 <hdop>10.72</hdop>
 <extensions>
 <speed>0.99</speed>
 </extensions>
 </trkpt>
 <trkpt lat="50.3987954" lon="7.9411243">
 <ele>336</ele>
 <time>2020-11-30T12:26:13Z</time>
 <hdop>10.72</hdop>
 <extensions>
 <speed>1.9</speed>
 </extensions>
 </trkpt>
 <trkpt lat="50.3988437" lon="7.9410884">
 <ele>336</ele>
 <time>2020-11-30T12:26:18Z</time>
 <hdop>9.648</hdop>
 <extensions>
 <speed>1.81</speed>
 </extensions>
 </trkpt>
 <trkpt lat="50.3988995" lon="7.9410297">
 <ele>336</ele>
 <time>2020-11-30T12:26:24Z</time>
 <hdop>10.72</hdop>
 </trkpt>
 <trkpt lat="50.3989166" lon="7.9409834">
 <ele>336</ele>
 <time>2020-11-30T12:26:29Z</time>
 <hdop>10.72</hdop>
 <extensions>
 <speed>0.32</speed>
 </extensions>
 </trkpt>
 <trkpt lat="50.3989928" lon="7.9408663">
 <ele>339</ele>
 <time>2020-11-30T12:26:34Z</time>
 <hdop>10.72</hdop>
 <extensions>
 <speed>1</speed>
 </extensions>
 </trkpt>
 <trkpt lat="50.3989812" lon="7.9408041">
 <ele>339</ele>
 <time>2020-11-30T12:26:40Z</time>
 <hdop>9.648</hdop>
 <extensions>
 <speed>0.76</speed>
 </extensions>
 </trkpt>
 <trkpt lat="50.3990276" lon="7.9407204">
 <ele>337</ele>
 <time>2020-11-30T12:26:46Z</time>
 <hdop>10.72</hdop>
 <extensions>
 <speed>1.76</speed>
 </extensions>
 </trkpt>
 <trkpt lat="50.3991149" lon="7.9405672">
 <ele>340</ele>
 <time>2020-11-30T12:26:52Z</time>
 <hdop>11.792</hdop>
 <extensions>
 <speed>2.12</speed>
 </extensions>
 </trkpt>
 <trkpt lat="50.3991673" lon="7.9404786">
 <ele>338</ele>
 <time>2020-11-30T12:26:58Z</time>
 <hdop>10.72</hdop>
 <extensions>
 <speed>1.89</speed>
 </extensions>
 </trkpt>
 <trkpt lat="50.3992117" lon="7.9404454">
 <ele>335</ele>
 <time>2020-11-30T12:27:03Z</time>
 <hdop>10.72</hdop>
 <extensions>
 <speed>1.74</speed>
 </extensions>
 </trkpt>
 <trkpt lat="50.3992705" lon="7.9403956">
 <ele>336</ele>
 <time>2020-11-30T12:27:09Z</time>
 <hdop>9.648</hdop>
 <extensions>
 <speed>1.35</speed>
 </extensions>
 </trkpt>
 <trkpt lat="50.3993259" lon="7.940272">
 <ele>335</ele>
 <time>2020-11-30T12:27:15Z</time>
 <hdop>9.648</hdop>
 <extensions>
 <speed>1.36</speed>
 </extensions>
 </trkpt>
 <trkpt lat="50.3993749" lon="7.9401598">
 <ele>337</ele>
 <time>2020-11-30T12:27:21Z</time>
 <hdop>9.648</hdop>
 <extensions>
 <speed>1.14</speed>
 </extensions>
 </trkpt>
 <trkpt lat="50.3994265" lon="7.9400741">
 <ele>338</ele>
 <time>2020-11-30T12:27:27Z</time>
 <hdop>9.648</hdop>
 <extensions>
 <speed>1.9</speed>
 </extensions>
 </trkpt>
 <trkpt lat="50.3994932" lon="7.9400132">
 <ele>337</ele>
 <time>2020-11-30T12:27:32Z</time>
 <hdop>9.648</hdop>
 <extensions>
 <speed>1.66</speed>
 </extensions>
 </trkpt>
 <trkpt lat="50.3995451" lon="7.939923">
 <ele>339</ele>
 <time>2020-11-30T12:27:38Z</time>
 <hdop>9.648</hdop>
 <extensions>
 <speed>1.39</speed>
 </extensions>
 </trkpt>
 <trkpt lat="50.3995766" lon="7.9398696">
 <ele>338</ele>
 <time>2020-11-30T12:27:43Z</time>
 <hdop>3.216</hdop>
 <extensions>
 <speed>1.28</speed>
 </extensions>
 </trkpt>
 <trkpt lat="50.3996222" lon="7.9397746">
 <ele>337</ele>
 <time>2020-11-30T12:27:49Z</time>
 <hdop>3.216</hdop>
 <extensions>
 <speed>0.98</speed>
 </extensions>
 </trkpt>
 <trkpt lat="50.3996608" lon="7.9396959">
 <ele>336</ele>
 <time>2020-11-30T12:27:54Z</time>
 <hdop>3.216</hdop>
 <extensions>
 <speed>1.59</speed>
 </extensions>
 </trkpt>
 <trkpt lat="50.3997122" lon="7.939579">
 <ele>335</ele>
 <time>2020-11-30T12:28:00Z</time>
 <hdop>3.216</hdop>
 <extensions>
 <speed>0.69</speed>
 </extensions>
 </trkpt>
 <trkpt lat="50.3997598" lon="7.9394934">
 <ele>333</ele>
 <time>2020-11-30T12:28:05Z</time>
 <hdop>3.216</hdop>
 <extensions>
 <speed>1.61</speed>
 </extensions>
 </trkpt>
 <trkpt lat="50.3998401" lon="7.9394177">
 <ele>332</ele>
 <time>2020-11-30T12:28:10Z</time>
 <hdop>3.216</hdop>
 <extensions>
 <speed>1.62</speed>
 </extensions>
 </trkpt>
 <trkpt lat="50.3998844" lon="7.9393356">
 <ele>332</ele>
 <time>2020-11-30T12:28:15Z</time>
 <hdop>3.216</hdop>
 <extensions>
 <speed>1</speed>
 </extensions>
 </trkpt>
 <trkpt lat="50.3999235" lon="7.9392518">
 <ele>336</ele>
 <time>2020-11-30T12:28:21Z</time>
 <hdop>3.216</hdop>
 <extensions>
 <speed>1.88</speed>
 </extensions>
 </trkpt>
 <trkpt lat="50.3999916" lon="7.9391468">
 <ele>333</ele>
 <time>2020-11-30T12:28:26Z</time>
 <hdop>3.216</hdop>
 <extensions>
 <speed>2.66</speed>
 </extensions>
 </trkpt>
 <trkpt lat="50.4000486" lon="7.9390289">
 <ele>335</ele>
 <time>2020-11-30T12:28:32Z</time>
 <hdop>3.216</hdop>
 <extensions>
 <speed>2.47</speed>
 </extensions>
 </trkpt>
 <trkpt lat="50.4001063" lon="7.938927">
 <ele>334</ele>
 <time>2020-11-30T12:28:38Z</time>
 <hdop>3.216</hdop>
 <extensions>
 <speed>1.66</speed>
 </extensions>
 </trkpt>
 <trkpt lat="50.4001341" lon="7.9388754">
 <ele>335</ele>
 <time>2020-11-30T12:28:43Z</time>
 <hdop>4.288</hdop>
 <extensions>
 <speed>1.54</speed>
 </extensions>
 </trkpt>
 <trkpt lat="50.4001874" lon="7.9387616">
 <ele>330</ele>
 <time>2020-11-30T12:28:49Z</time>
 <hdop>9.648</hdop>
 <extensions>
 <speed>1.63</speed>
 </extensions>
 </trkpt>
 <trkpt lat="50.4002586" lon="7.9386529">
 <ele>330</ele>
 <time>2020-11-30T12:28:55Z</time>
 <hdop>10.72</hdop>
 <extensions>
 <speed>1.41</speed>
 </extensions>
 </trkpt>
 <trkpt lat="50.4002605" lon="7.9386538">
 <ele>331</ele>
 <time>2020-11-30T12:29:01Z</time>
 <hdop>10.72</hdop>
 </trkpt>
 <trkpt lat="50.4002677" lon="7.9386339">
 <ele>331</ele>
 <time>2020-11-30T12:29:06Z</time>
 <hdop>10.72</hdop>
 </trkpt>
 <trkpt lat="50.4003762" lon="7.9384382">
 <ele>333</ele>
 <time>2020-11-30T12:29:11Z</time>
 <hdop>9.648</hdop>
 <extensions>
 <speed>2.46</speed>
 </extensions>
 </trkpt>
 <trkpt lat="50.4004373" lon="7.9383358">
 <ele>329</ele>
 <time>2020-11-30T12:29:17Z</time>
 <hdop>9.648</hdop>
 <extensions>
 <speed>0.71</speed>
 </extensions>
 </trkpt>
 <trkpt lat="50.4005128" lon="7.9382676">
 <ele>327</ele>
 <time>2020-11-30T12:29:22Z</time>
 <hdop>9.648</hdop>
 <extensions>
 <speed>2.1</speed>
 </extensions>
 </trkpt>
 <trkpt lat="50.4005736" lon="7.9381733">
 <ele>328</ele>
 <time>2020-11-30T12:29:27Z</time>
 <hdop>9.648</hdop>
 </trkpt>
 <trkpt lat="50.4006302" lon="7.9380844">
 <ele>329</ele>
 <time>2020-11-30T12:29:33Z</time>
 <hdop>9.648</hdop>
 <extensions>
 <speed>1.39</speed>
 </extensions>
 </trkpt>
 <trkpt lat="50.4006685" lon="7.9379726">
 <ele>334</ele>
 <time>2020-11-30T12:29:39Z</time>
 <hdop>9.648</hdop>
 <extensions>
 <speed>0.36</speed>
 </extensions>
 </trkpt>
 <trkpt lat="50.4006983" lon="7.9378662">
 <ele>334</ele>
 <time>2020-11-30T12:29:45Z</time>
 <hdop>9.648</hdop>
 <extensions>
 <speed>1.77</speed>
 </extensions>
 </trkpt>
 <trkpt lat="50.4007364" lon="7.9378284">
 <ele>333</ele>
 <time>2020-11-30T12:29:51Z</time>
 <hdop>9.648</hdop>
 </trkpt>
 <trkpt lat="50.4007762" lon="7.9377424">
 <ele>332</ele>
 <time>2020-11-30T12:29:57Z</time>
 <hdop>9.648</hdop>
 <extensions>
 <speed>1.89</speed>
 </extensions>
 </trkpt>
 <trkpt lat="50.4008497" lon="7.9376326">
 <ele>334</ele>
 <time>2020-11-30T12:30:03Z</time>
 <hdop>9.648</hdop>
 <extensions>
 <speed>1.28</speed>
 </extensions>
 </trkpt>
 <trkpt lat="50.400862" lon="7.9375892">
 <ele>333</ele>
 <time>2020-11-30T12:30:08Z</time>
 <hdop>3.216</hdop>
 <extensions>
 <speed>0.88</speed>
 </extensions>
 </trkpt>
 <trkpt lat="50.4008712" lon="7.9375664">
 <ele>335</ele>
 <time>2020-11-30T12:30:14Z</time>
 <hdop>3.216</hdop>
 </trkpt>
 <trkpt lat="50.4008811" lon="7.9375505">
 <ele>336</ele>
 <time>2020-11-30T12:30:20Z</time>
 <hdop>3.216</hdop>
 <extensions>
 <speed>0.38</speed>
 </extensions>
 </trkpt>
 <trkpt lat="50.4009213" lon="7.937518">
 <ele>338</ele>
 <time>2020-11-30T12:30:25Z</time>
 <hdop>3.216</hdop>
 <extensions>
 <speed>1.51</speed>
 </extensions>
 </trkpt>
 <trkpt lat="50.4009645" lon="7.9374171">
 <ele>336</ele>
 <time>2020-11-30T12:30:31Z</time>
 <hdop>3.216</hdop>
 <extensions>
 <speed>1.85</speed>
 </extensions>
 </trkpt>
 <trkpt lat="50.4010282" lon="7.9373498">
 <ele>336</ele>
 <time>2020-11-30T12:30:37Z</time>
 <hdop>3.216</hdop>
 <extensions>
 <speed>1.52</speed>
 </extensions>
 </trkpt>
 <trkpt lat="50.4010692" lon="7.9372911">
 <ele>336</ele>
 <time>2020-11-30T12:30:43Z</time>
 <hdop>3.216</hdop>
 <extensions>
 <speed>0.83</speed>
 </extensions>
 </trkpt>
 <trkpt lat="50.4011207" lon="7.9371904">
 <ele>338</ele>
 <time>2020-11-30T12:30:49Z</time>
 <hdop>3.216</hdop>
 <extensions>
 <speed>1.05</speed>
 </extensions>
 </trkpt>
 <trkpt lat="50.4011748" lon="7.937132">
 <ele>341</ele>
 <time>2020-11-30T12:30:55Z</time>
 <hdop>3.216</hdop>
 <extensions>
 <speed>1.98</speed>
 </extensions>
 </trkpt>
 <trkpt lat="50.4012204" lon="7.9370311">
 <ele>341</ele>
 <time>2020-11-30T12:31:00Z</time>
 <hdop>3.216</hdop>
 <extensions>
 <speed>2.29</speed>
 </extensions>
 </trkpt>
 <trkpt lat="50.4012694" lon="7.9369208">
 <ele>344</ele>
 <time>2020-11-30T12:31:06Z</time>
 <hdop>3.216</hdop>
 <extensions>
 <speed>1.65</speed>
 </extensions>
 </trkpt>
 <trkpt lat="50.4013133" lon="7.9367995">
 <ele>344</ele>
 <time>2020-11-30T12:31:12Z</time>
 <hdop>3.216</hdop>
 <extensions>
 <speed>1.67</speed>
 </extensions>
 </trkpt>
 <trkpt lat="50.4013519" lon="7.9367358">
 <ele>343</ele>
 <time>2020-11-30T12:31:17Z</time>
 <hdop>3.216</hdop>
 <extensions>
 <speed>0.77</speed>
 </extensions>
 </trkpt>
 <trkpt lat="50.4013938" lon="7.936685">
 <ele>341</ele>
 <time>2020-11-30T12:31:22Z</time>
 <hdop>3.216</hdop>
 <extensions>
 <speed>1.33</speed>
 </extensions>
 </trkpt>
 <trkpt lat="50.4014572" lon="7.936599">
 <ele>341</ele>
 <time>2020-11-30T12:31:28Z</time>
 <hdop>3.216</hdop>
 <extensions>
 <speed>0.81</speed>
 </extensions>
 </trkpt>
 <trkpt lat="50.401483" lon="7.9364933">
 <ele>341</ele>
 <time>2020-11-30T12:31:34Z</time>
 <hdop>3.216</hdop>
 <extensions>
 <speed>1.02</speed>
 </extensions>
 </trkpt>
 <trkpt lat="50.4015761" lon="7.9363922">
 <ele>342</ele>
 <time>2020-11-30T12:31:40Z</time>
 <hdop>3.216</hdop>
 <extensions>
 <speed>1.21</speed>
 </extensions>
 </trkpt>
 <trkpt lat="50.4016158" lon="7.9363334">
 <ele>342</ele>
 <time>2020-11-30T12:31:45Z</time>
 <hdop>3.216</hdop>
 <extensions>
 <speed>1.2</speed>
 </extensions>
 </trkpt>
 <trkpt lat="50.4016664" lon="7.9362646">
 <ele>343</ele>
 <time>2020-11-30T12:31:51Z</time>
 <hdop>9.648</hdop>
 <extensions>
 <speed>1.38</speed>
 </extensions>
 </trkpt>
 <trkpt lat="50.4016815" lon="7.9362092">
 <ele>345</ele>
 <time>2020-11-30T12:31:56Z</time>
 <hdop>9.648</hdop>
 </trkpt>
 <trkpt lat="50.4016821" lon="7.9361938">
 <ele>345</ele>
 <time>2020-11-30T12:32:01Z</time>
 <hdop>9.648</hdop>
 </trkpt>
 <trkpt lat="50.401691" lon="7.9361613">
 <ele>346</ele>
 <time>2020-11-30T12:32:07Z</time>
 <hdop>9.648</hdop>
 <extensions>
 <speed>0.7</speed>
 </extensions>
 </trkpt>
 <trkpt lat="50.4017139" lon="7.9360666">
 <ele>347</ele>
 <time>2020-11-30T12:32:12Z</time>
 <hdop>9.648</hdop>
 <extensions>
 <speed>1.45</speed>
 </extensions>
 </trkpt>
 <trkpt lat="50.4017803" lon="7.9359963">
 <ele>346</ele>
 <time>2020-11-30T12:32:18Z</time>
 <hdop>9.648</hdop>
 <extensions>
 <speed>0.99</speed>
 </extensions>
 </trkpt>
 <trkpt lat="50.4018612" lon="7.9359419">
 <ele>346</ele>
 <time>2020-11-30T12:32:23Z</time>
 <hdop>9.648</hdop>
 <extensions>
 <speed>1.06</speed>
 </extensions>
 </trkpt>
 <trkpt lat="50.4019065" lon="7.9359158">
 <ele>345</ele>
 <time>2020-11-30T12:32:28Z</time>
 <hdop>9.648</hdop>
 <extensions>
 <speed>1.56</speed>
 </extensions>
 </trkpt>
 <trkpt lat="50.4019578" lon="7.935816">
 <ele>345</ele>
 <time>2020-11-30T12:32:34Z</time>
 <hdop>9.648</hdop>
 <extensions>
 <speed>1.87</speed>
 </extensions>
 </trkpt>
 <trkpt lat="50.4020155" lon="7.9356688">
 <ele>345</ele>
 <time>2020-11-30T12:32:40Z</time>
 <hdop>10.72</hdop>
 <extensions>
 <speed>1.39</speed>
 </extensions>
 </trkpt>
 <trkpt lat="50.4020437" lon="7.935581">
 <ele>348</ele>
 <time>2020-11-30T12:32:46Z</time>
 <hdop>9.648</hdop>
 <extensions>
 <speed>2.24</speed>
 </extensions>
 </trkpt>
 <trkpt lat="50.4020669" lon="7.9354933">
 <ele>348</ele>
 <time>2020-11-30T12:32:51Z</time>
 <hdop>9.648</hdop>
 <extensions>
 <speed>1.08</speed>
 </extensions>
 </trkpt>
 <trkpt lat="50.4021317" lon="7.9353601">
 <ele>348</ele>
 <time>2020-11-30T12:32:57Z</time>
 <hdop>11.792</hdop>
 <extensions>
 <speed>2.78</speed>
 </extensions>
 </trkpt>
 <trkpt lat="50.4022206" lon="7.9353188">
 <ele>348</ele>
 <time>2020-11-30T12:33:03Z</time>
 <hdop>9.648</hdop>
 <extensions>
 <speed>1.19</speed>
 </extensions>
 </trkpt>
 <trkpt lat="50.402256" lon="7.935246">
 <ele>347</ele>
 <time>2020-11-30T12:33:08Z</time>
 <hdop>9.648</hdop>
 <extensions>
 <speed>2.31</speed>
 </extensions>
 </trkpt>
 <trkpt lat="50.4023287" lon="7.9351565">
 <ele>349</ele>
 <time>2020-11-30T12:33:13Z</time>
 <hdop>9.648</hdop>
 <extensions>
 <speed>2.16</speed>
 </extensions>
 </trkpt>
 <trkpt lat="50.402353" lon="7.9351078">
 <ele>349</ele>
 <time>2020-11-30T12:33:19Z</time>
 <hdop>9.648</hdop>
 <extensions>
 <speed>2.42</speed>
 </extensions>
 </trkpt>
 <trkpt lat="50.4023924" lon="7.9350092">
 <ele>348</ele>
 <time>2020-11-30T12:33:25Z</time>
 <hdop>10.72</hdop>
 </trkpt>
 <trkpt lat="50.4024109" lon="7.9349464">
 <ele>347</ele>
 <time>2020-11-30T12:33:30Z</time>
 <hdop>9.648</hdop>
 <extensions>
 <speed>1.1</speed>
 </extensions>
 </trkpt>
 <trkpt lat="50.4024916" lon="7.9348573">
 <ele>350</ele>
 <time>2020-11-30T12:33:36Z</time>
 <hdop>9.648</hdop>
 <extensions>
 <speed>0.95</speed>
 </extensions>
 </trkpt>
 <trkpt lat="50.4025544" lon="7.9347689">
 <ele>351</ele>
 <time>2020-11-30T12:33:41Z</time>
 <hdop>9.648</hdop>
 <extensions>
 <speed>1.91</speed>
 </extensions>
 </trkpt>
 <trkpt lat="50.4026603" lon="7.934691">
 <ele>350</ele>
 <time>2020-11-30T12:33:46Z</time>
 <hdop>10.72</hdop>
 <extensions>
 <speed>2.13</speed>
 </extensions>
 </trkpt>
 <trkpt lat="50.4026609" lon="7.934594">
 <ele>351</ele>
 <time>2020-11-30T12:33:51Z</time>
 <hdop>10.72</hdop>
 <extensions>
 <speed>1.53</speed>
 </extensions>
 </trkpt>
 <trkpt lat="50.4027043" lon="7.9345064">
 <ele>348</ele>
 <time>2020-11-30T12:33:57Z</time>
 <hdop>10.72</hdop>
 <extensions>
 <speed>0.38</speed>
 </extensions>
 </trkpt>
 <trkpt lat="50.4026871" lon="7.9344526">
 <ele>346</ele>
 <time>2020-11-30T12:34:03Z</time>
 <hdop>9.648</hdop>
 <extensions>
 <speed>1.59</speed>
 </extensions>
 </trkpt>
 <trkpt lat="50.4027539" lon="7.9343303">
 <ele>346</ele>
 <time>2020-11-30T12:34:09Z</time>
 <hdop>9.648</hdop>
 <extensions>
 <speed>1.95</speed>
 </extensions>
 </trkpt>
 <trkpt lat="50.4028139" lon="7.934255">
 <ele>347</ele>
 <time>2020-11-30T12:34:14Z</time>
 <hdop>9.648</hdop>
 <extensions>
 <speed>1.84</speed>
 </extensions>
 </trkpt>
 <trkpt lat="50.4028618" lon="7.9341632">
 <ele>349</ele>
 <time>2020-11-30T12:34:19Z</time>
 <hdop>9.648</hdop>
 <extensions>
 <speed>1.23</speed>
 </extensions>
 </trkpt>
 <trkpt lat="50.4029107" lon="7.9341142">
 <ele>349</ele>
 <time>2020-11-30T12:34:24Z</time>
 <hdop>9.648</hdop>
 <extensions>
 <speed>0.69</speed>
 </extensions>
 </trkpt>
 <trkpt lat="50.4029776" lon="7.9340302">
 <ele>347</ele>
 <time>2020-11-30T12:34:30Z</time>
 <hdop>9.648</hdop>
 <extensions>
 <speed>1.68</speed>
 </extensions>
 </trkpt>
 <trkpt lat="50.4030342" lon="7.9339316">
 <ele>349</ele>
 <time>2020-11-30T12:34:36Z</time>
 <hdop>9.648</hdop>
 <extensions>
 <speed>1.16</speed>
 </extensions>
 </trkpt>
 <trkpt lat="50.4030773" lon="7.9337853">
 <ele>349</ele>
 <time>2020-11-30T12:34:42Z</time>
 <hdop>9.648</hdop>
 <extensions>
 <speed>1.46</speed>
 </extensions>
 </trkpt>
 <trkpt lat="50.4031751" lon="7.9336664">
 <ele>349</ele>
 <time>2020-11-30T12:34:47Z</time>
 <hdop>10.72</hdop>
 <extensions>
 <speed>1.95</speed>
 </extensions>
 </trkpt>
 <trkpt lat="50.4032228" lon="7.9336301">
 <ele>347</ele>
 <time>2020-11-30T12:34:52Z</time>
 <hdop>9.648</hdop>
 <extensions>
 <speed>1.04</speed>
 </extensions>
 </trkpt>
 <trkpt lat="50.4032647" lon="7.9336206">
 <ele>345</ele>
 <time>2020-11-30T12:34:57Z</time>
 <hdop>9.648</hdop>
 <extensions>
 <speed>1.63</speed>
 </extensions>
 </trkpt>
 <trkpt lat="50.4033132" lon="7.9334972">
 <ele>343</ele>
 <time>2020-11-30T12:35:03Z</time>
 <hdop>9.648</hdop>
 <extensions>
 <speed>0.94</speed>
 </extensions>
 </trkpt>
 <trkpt lat="50.403304" lon="7.9334765">
 <ele>342</ele>
 <time>2020-11-30T12:35:08Z</time>
 <hdop>9.648</hdop>
 </trkpt>
 <trkpt lat="50.403347" lon="7.9333719">
 <ele>341</ele>
 <time>2020-11-30T12:35:14Z</time>
 <hdop>9.648</hdop>
 <extensions>
 <speed>1.04</speed>
 </extensions>
 </trkpt>
 <trkpt lat="50.4034103" lon="7.9332968">
 <ele>341</ele>
 <time>2020-11-30T12:35:19Z</time>
 <hdop>3.216</hdop>
 <extensions>
 <speed>1.96</speed>
 </extensions>
 </trkpt>
 <trkpt lat="50.4034083" lon="7.9332763">
 <ele>342</ele>
 <time>2020-11-30T12:35:24Z</time>
 <hdop>4.288</hdop>
 <extensions>
 <speed>0.2</speed>
 </extensions>
 </trkpt>
 <trkpt lat="50.4034202" lon="7.9332461">
 <ele>341</ele>
 <time>2020-11-30T12:35:29Z</time>
 <hdop>4.288</hdop>
 <extensions>
 <speed>0.88</speed>
 </extensions>
 </trkpt>
 <trkpt lat="50.4034326" lon="7.9332504">
 <ele>344</ele>
 <time>2020-11-30T12:35:35Z</time>
 <hdop>6.432</hdop>
 </trkpt>
 <trkpt lat="50.4034511" lon="7.9332589">
 <ele>347</ele>
 <time>2020-11-30T12:35:41Z</time>
 <hdop>6.432</hdop>
 </trkpt>
 <trkpt lat="50.4034441" lon="7.933282">
 <ele>346</ele>
 <time>2020-11-30T12:35:47Z</time>
 <hdop>6.432</hdop>
 </trkpt>
 <trkpt lat="50.4034413" lon="7.9332808">
 <ele>346</ele>
 <time>2020-11-30T12:35:52Z</time>
 <hdop>5.36</hdop>
 </trkpt>
 <trkpt lat="50.4034433" lon="7.9332677">
 <ele>346</ele>
 <time>2020-11-30T12:35:58Z</time>
 <hdop>4.288</hdop>
 </trkpt>
 <trkpt lat="50.403444" lon="7.9332634">
 <ele>346</ele>
 <time>2020-11-30T12:36:03Z</time>
 <hdop>4.288</hdop>
 </trkpt>
 <trkpt lat="50.4034439" lon="7.9332622">
 <ele>346</ele>
 <time>2020-11-30T12:36:09Z</time>
 <hdop>4.288</hdop>
 </trkpt>
 <trkpt lat="50.403444" lon="7.9332621">
 <ele>346</ele>
 <time>2020-11-30T12:36:14Z</time>
 <hdop>6.432</hdop>
 </trkpt>
 <trkpt lat="50.403444" lon="7.933262">
 <ele>346</ele>
 <time>2020-11-30T12:36:19Z</time>
 <hdop>5.36</hdop>
 </trkpt>
 <trkpt lat="50.4034439" lon="7.933262">
 <ele>346</ele>
 <time>2020-11-30T12:36:24Z</time>
 <hdop>6.432</hdop>
 </trkpt>
 <trkpt lat="50.4034438" lon="7.933262">
 <ele>346</ele>
 <time>2020-11-30T12:36:29Z</time>
 <hdop>11.792</hdop>
 </trkpt>
 <trkpt lat="50.4034437" lon="7.9332619">
 <ele>346</ele>
 <time>2020-11-30T12:36:34Z</time>
 <hdop>10.72</hdop>
 </trkpt>
 <trkpt lat="50.4034435" lon="7.9332618">
 <ele>346</ele>
 <time>2020-11-30T12:36:39Z</time>
 <hdop>9.648</hdop>
 </trkpt>
 <trkpt lat="50.4034433" lon="7.9332619">
 <ele>346</ele>
 <time>2020-11-30T12:36:45Z</time>
 <hdop>9.648</hdop>
 </trkpt>
 <trkpt lat="50.4034434" lon="7.933262">
 <ele>346</ele>
 <time>2020-11-30T12:36:50Z</time>
 <hdop>9.648</hdop>
 </trkpt>
 <trkpt lat="50.4034325" lon="7.9332935">
 <ele>341</ele>
 <time>2020-11-30T12:36:56Z</time>
 <hdop>9.648</hdop>
 </trkpt>
 <trkpt lat="50.4034219" lon="7.9333161">
 <ele>340</ele>
 <time>2020-11-30T12:37:02Z</time>
 <hdop>4.288</hdop>
 </trkpt>
 <trkpt lat="50.4034131" lon="7.933323">
 <ele>341</ele>
 <time>2020-11-30T12:37:08Z</time>
 <hdop>3.216</hdop>
 </trkpt>
 <trkpt lat="50.4034089" lon="7.9333106">
 <ele>343</ele>
 <time>2020-11-30T12:37:13Z</time>
 <hdop>3.216</hdop>
 </trkpt>
 <trkpt lat="50.4034096" lon="7.9332922">
 <ele>346</ele>
 <time>2020-11-30T12:37:19Z</time>
 <hdop>3.216</hdop>
 </trkpt>
 <trkpt lat="50.4034112" lon="7.933284">
 <ele>346</ele>
 <time>2020-11-30T12:37:24Z</time>
 <hdop>3.216</hdop>
 </trkpt>
 <trkpt lat="50.4034114" lon="7.9332836">
 <ele>346</ele>
 <time>2020-11-30T12:37:30Z</time>
 <hdop>3.216</hdop>
 </trkpt>
 <trkpt lat="50.4034136" lon="7.9332691">
 <ele>346</ele>
 <time>2020-11-30T12:37:36Z</time>
 <hdop>3.216</hdop>
 </trkpt>
 <trkpt lat="50.4034165" lon="7.9332682">
 <ele>344</ele>
 <time>2020-11-30T12:37:41Z</time>
 <hdop>5.36</hdop>
 </trkpt>
 <trkpt lat="50.4034186" lon="7.9332703">
 <ele>346</ele>
 <time>2020-11-30T12:37:47Z</time>
 <hdop>5.36</hdop>
 </trkpt>
 <trkpt lat="50.4034189" lon="7.9332712">
 <ele>346</ele>
 <time>2020-11-30T12:37:53Z</time>
 <hdop>5.36</hdop>
 </trkpt>
 <trkpt lat="50.4034194" lon="7.9332721">
 <ele>346</ele>
 <time>2020-11-30T12:37:58Z</time>
 <hdop>5.36</hdop>
 </trkpt>
 <trkpt lat="50.4034195" lon="7.9332723">
 <ele>346</ele>
 <time>2020-11-30T12:38:04Z</time>
 <hdop>5.36</hdop>
 </trkpt>
 <trkpt lat="50.4034195" lon="7.9332724">
 <ele>346</ele>
 <time>2020-11-30T12:38:10Z</time>
 <hdop>5.36</hdop>
 </trkpt>
 <trkpt lat="50.4034195" lon="7.9332723">
 <ele>346</ele>
 <time>2020-11-30T12:38:15Z</time>
 <hdop>5.36</hdop>
 </trkpt>
 <trkpt lat="50.4034196" lon="7.9332723">
 <ele>346</ele>
 <time>2020-11-30T12:38:20Z</time>
 <hdop>5.36</hdop>
 </trkpt>
 <trkpt lat="50.4034196" lon="7.9332723">
 <ele>346</ele>
 <time>2020-11-30T12:38:26Z</time>
 <hdop>7.504</hdop>
 </trkpt>
 <trkpt lat="50.4034198" lon="7.9332727">
 <ele>346</ele>
 <time>2020-11-30T12:38:31Z</time>
 <hdop>10.72</hdop>
 </trkpt>
 <trkpt lat="50.4034198" lon="7.9332727">
 <ele>347</ele>
 <time>2020-11-30T12:38:36Z</time>
 <hdop>10.72</hdop>
 </trkpt>
 <trkpt lat="50.4034197" lon="7.9332725">
 <ele>346</ele>
 <time>2020-11-30T12:38:42Z</time>
 <hdop>10.72</hdop>
 </trkpt>
 <trkpt lat="50.4034198" lon="7.9332727">
 <ele>347</ele>
 <time>2020-11-30T12:38:47Z</time>
 <hdop>10.72</hdop>
 </trkpt>
 <trkpt lat="50.4034198" lon="7.9332725">
 <ele>347</ele>
 <time>2020-11-30T12:38:53Z</time>
 <hdop>10.72</hdop>
 </trkpt>
 <trkpt lat="50.4034198" lon="7.9332724">
 <ele>347</ele>
 <time>2020-11-30T12:38:59Z</time>
 <hdop>10.72</hdop>
 </trkpt>
 <trkpt lat="50.4034198" lon="7.9332723">
 <ele>347</ele>
 <time>2020-11-30T12:39:04Z</time>
 <hdop>10.72</hdop>
 </trkpt>
 <trkpt lat="50.4034198" lon="7.9332721">
 <ele>347</ele>
 <time>2020-11-30T12:39:10Z</time>
 <hdop>9.648</hdop>
 </trkpt>
 <trkpt lat="50.4034198" lon="7.9332721">
 <ele>347</ele>
 <time>2020-11-30T12:39:15Z</time>
 <hdop>9.648</hdop>
 </trkpt>
 <trkpt lat="50.4034198" lon="7.9332721">
 <ele>347</ele>
 <time>2020-11-30T12:39:21Z</time>
 <hdop>10.72</hdop>
 </trkpt>
 <trkpt lat="50.4034197" lon="7.9332722">
 <ele>347</ele>
 <time>2020-11-30T12:39:26Z</time>
 <hdop>10.72</hdop>
 </trkpt>
 <trkpt lat="50.4034198" lon="7.933272">
 <ele>347</ele>
 <time>2020-11-30T12:39:32Z</time>
 <hdop>10.72</hdop>
 </trkpt>
 <trkpt lat="50.4034198" lon="7.9332722">
 <ele>347</ele>
 <time>2020-11-30T12:39:37Z</time>
 <hdop>10.72</hdop>
 </trkpt>
 <trkpt lat="50.4034198" lon="7.9332722">
 <ele>347</ele>
 <time>2020-11-30T12:39:43Z</time>
 <hdop>10.72</hdop>
 </trkpt>
 <trkpt lat="50.4034199" lon="7.9332722">
 <ele>347</ele>
 <time>2020-11-30T12:39:49Z</time>
 <hdop>10.72</hdop>
 </trkpt>
 <trkpt lat="50.4034198" lon="7.9332723">
 <ele>347</ele>
 <time>2020-11-30T12:39:55Z</time>
 <hdop>9.648</hdop>
 </trkpt>
 <trkpt lat="50.4034198" lon="7.9332723">
 <ele>347</ele>
 <time>2020-11-30T12:40:01Z</time>
 <hdop>11.792</hdop>
 </trkpt>
 <trkpt lat="50.4034198" lon="7.9332722">
 <ele>347</ele>
 <time>2020-11-30T12:40:07Z</time>
 <hdop>10.72</hdop>
 </trkpt>
 <trkpt lat="50.4034197" lon="7.9332722">
 <ele>347</ele>
 <time>2020-11-30T12:40:13Z</time>
 <hdop>10.72</hdop>
 </trkpt>
 <trkpt lat="50.4034197" lon="7.9332723">
 <ele>347</ele>
 <time>2020-11-30T12:40:19Z</time>
 <hdop>10.72</hdop>
 </trkpt>
 <trkpt lat="50.4034197" lon="7.9332722">
 <ele>347</ele>
 <time>2020-11-30T12:40:24Z</time>
 <hdop>10.72</hdop>
 </trkpt>
 <trkpt lat="50.4034198" lon="7.9332722">
 <ele>347</ele>
 <time>2020-11-30T12:40:30Z</time>
 <hdop>10.72</hdop>
 </trkpt>
 <trkpt lat="50.4034198" lon="7.9332722">
 <ele>347</ele>
 <time>2020-11-30T12:40:36Z</time>
 <hdop>10.72</hdop>
 </trkpt>
 <trkpt lat="50.4034199" lon="7.9332722">
 <ele>347</ele>
 <time>2020-11-30T12:40:42Z</time>
 <hdop>9.648</hdop>
 </trkpt>
 <trkpt lat="50.40342" lon="7.9332721">
 <ele>347</ele>
 <time>2020-11-30T12:40:48Z</time>
 <hdop>9.648</hdop>
 </trkpt>
 <trkpt lat="50.40342" lon="7.9332721">
 <ele>347</ele>
 <time>2020-11-30T12:40:54Z</time>
 <hdop>9.648</hdop>
 </trkpt>
 <trkpt lat="50.4034298" lon="7.9332941">
 <ele>346</ele>
 <time>2020-11-30T12:41:00Z</time>
 <hdop>3.216</hdop>
 <extensions>
 <speed>0.39</speed>
 </extensions>
 </trkpt>
 <trkpt lat="50.4034391" lon="7.9332925">
 <ele>348</ele>
 <time>2020-11-30T12:41:06Z</time>
 <hdop>3.216</hdop>
 </trkpt>
 <trkpt lat="50.4034457" lon="7.9332899">
 <ele>349</ele>
 <time>2020-11-30T12:41:11Z</time>
 <hdop>3.216</hdop>
 </trkpt>
 <trkpt lat="50.4034546" lon="7.9333019">
 <ele>351</ele>
 <time>2020-11-30T12:41:16Z</time>
 <hdop>3.216</hdop>
 </trkpt>
 <trkpt lat="50.4034383" lon="7.9333124">
 <ele>348</ele>
 <time>2020-11-30T12:41:22Z</time>
 <hdop>3.216</hdop>
 </trkpt>
 <trkpt lat="50.4034326" lon="7.9333086">
 <ele>347</ele>
 <time>2020-11-30T12:41:27Z</time>
 <hdop>3.216</hdop>
 </trkpt>
 <trkpt lat="50.403435" lon="7.9332918">
 <ele>345</ele>
 <time>2020-11-30T12:41:33Z</time>
 <hdop>3.216</hdop>
 <extensions>
 <speed>0.43</speed>
 </extensions>
 </trkpt>
 <trkpt lat="50.4034167" lon="7.933296">
 <ele>347</ele>
 <time>2020-11-30T12:41:38Z</time>
 <hdop>3.216</hdop>
 </trkpt>
 <trkpt lat="50.4034188" lon="7.9332654">
 <ele>347</ele>
 <time>2020-11-30T12:41:44Z</time>
 <hdop>5.36</hdop>
 </trkpt>
 <trkpt lat="50.4033989" lon="7.9331625">
 <ele>348</ele>
 <time>2020-11-30T12:41:49Z</time>
 <hdop>7.504</hdop>
 </trkpt>
 <trkpt lat="50.403434" lon="7.9332168">
 <ele>349</ele>
 <time>2020-11-30T12:41:54Z</time>
 <hdop>6.432</hdop>
 </trkpt>
 <trkpt lat="50.4034331" lon="7.9332328">
 <ele>348</ele>
 <time>2020-11-30T12:41:59Z</time>
 <hdop>8.576</hdop>
 </trkpt>
 <trkpt lat="50.403468" lon="7.9332976">
 <ele>349</ele>
 <time>2020-11-30T12:42:05Z</time>
 <hdop>5.36</hdop>
 <extensions>
 <speed>0.73</speed>
 </extensions>
 </trkpt>
 <trkpt lat="50.4034708" lon="7.9333468">
 <ele>349</ele>
 <time>2020-11-30T12:42:10Z</time>
 <hdop>7.504</hdop>
 <extensions>
 <speed>0.87</speed>
 </extensions>
 </trkpt>
 <trkpt lat="50.403478" lon="7.9334397">
 <ele>349</ele>
 <time>2020-11-30T12:42:16Z</time>
 <hdop>4.288</hdop>
 <extensions>
 <speed>1.82</speed>
 </extensions>
 </trkpt>
 <trkpt lat="50.4035124" lon="7.93356">
 <ele>348</ele>
 <time>2020-11-30T12:42:22Z</time>
 <hdop>3.216</hdop>
 <extensions>
 <speed>1.36</speed>
 </extensions>
 </trkpt>
 <trkpt lat="50.4035138" lon="7.9336569">
 <ele>349</ele>
 <time>2020-11-30T12:42:27Z</time>
 <hdop>3.216</hdop>
 <extensions>
 <speed>2.1</speed>
 </extensions>
 </trkpt>
 <trkpt lat="50.4035127" lon="7.9337791">
 <ele>352</ele>
 <time>2020-11-30T12:42:33Z</time>
 <hdop>4.288</hdop>
 <extensions>
 <speed>1.67</speed>
 </extensions>
 </trkpt>
 <trkpt lat="50.4035101" lon="7.9339123">
 <ele>352</ele>
 <time>2020-11-30T12:42:38Z</time>
 <hdop>3.216</hdop>
 <extensions>
 <speed>1.36</speed>
 </extensions>
 </trkpt>
 <trkpt lat="50.4034849" lon="7.9340134">
 <ele>353</ele>
 <time>2020-11-30T12:42:43Z</time>
 <hdop>4.288</hdop>
 <extensions>
 <speed>1.02</speed>
 </extensions>
 </trkpt>
 <trkpt lat="50.4034707" lon="7.9341038">
 <ele>354</ele>
 <time>2020-11-30T12:42:49Z</time>
 <hdop>3.216</hdop>
 <extensions>
 <speed>1.26</speed>
 </extensions>
 </trkpt>
 <trkpt lat="50.4034729" lon="7.9342363">
 <ele>350</ele>
 <time>2020-11-30T12:42:54Z</time>
 <hdop>4.288</hdop>
 <extensions>
 <speed>1.55</speed>
 </extensions>
 </trkpt>
 <trkpt lat="50.4035169" lon="7.9343281">
 <ele>350</ele>
 <time>2020-11-30T12:42:59Z</time>
 <hdop>3.216</hdop>
 <extensions>
 <speed>1.75</speed>
 </extensions>
 </trkpt>
 <trkpt lat="50.4035622" lon="7.9344737">
 <ele>351</ele>
 <time>2020-11-30T12:43:05Z</time>
 <hdop>3.216</hdop>
 <extensions>
 <speed>1.58</speed>
 </extensions>
 </trkpt>
 <trkpt lat="50.4035356" lon="7.9345538">
 <ele>350</ele>
 <time>2020-11-30T12:43:10Z</time>
 <hdop>4.288</hdop>
 <extensions>
 <speed>0.58</speed>
 </extensions>
 </trkpt>
 <trkpt lat="50.4035657" lon="7.9346994">
 <ele>354</ele>
 <time>2020-11-30T12:43:16Z</time>
 <hdop>4.288</hdop>
 <extensions>
 <speed>1.7</speed>
 </extensions>
 </trkpt>
 <trkpt lat="50.4035504" lon="7.9347817">
 <ele>350</ele>
 <time>2020-11-30T12:43:21Z</time>
 <hdop>4.288</hdop>
 <extensions>
 <speed>0.65</speed>
 </extensions>
 </trkpt>
 <trkpt lat="50.4035468" lon="7.9348309">
 <ele>349</ele>
 <time>2020-11-30T12:43:26Z</time>
 <hdop>4.288</hdop>
 <extensions>
 <speed>1.26</speed>
 </extensions>
 </trkpt>
 <trkpt lat="50.4035921" lon="7.934945">
 <ele>351</ele>
 <time>2020-11-30T12:43:31Z</time>
 <hdop>4.288</hdop>
 <extensions>
 <speed>1.35</speed>
 </extensions>
 </trkpt>
 <trkpt lat="50.4035738" lon="7.9350968">
 <ele>352</ele>
 <time>2020-11-30T12:43:37Z</time>
 <hdop>5.36</hdop>
 <extensions>
 <speed>1.21</speed>
 </extensions>
 </trkpt>
 <trkpt lat="50.4036222" lon="7.9352556">
 <ele>352</ele>
 <time>2020-11-30T12:43:43Z</time>
 <hdop>4.288</hdop>
 <extensions>
 <speed>1.3</speed>
 </extensions>
 </trkpt>
 <trkpt lat="50.4036021" lon="7.9353682">
 <ele>350</ele>
 <time>2020-11-30T12:43:49Z</time>
 <hdop>4.288</hdop>
 <extensions>
 <speed>1.89</speed>
 </extensions>
 </trkpt>
 <trkpt lat="50.4036035" lon="7.9354473">
 <ele>351</ele>
 <time>2020-11-30T12:43:55Z</time>
 <hdop>5.36</hdop>
 <extensions>
 <speed>0.42</speed>
 </extensions>
 </trkpt>
 <trkpt lat="50.4035832" lon="7.9355384">
 <ele>351</ele>
 <time>2020-11-30T12:44:01Z</time>
 <hdop>10.72</hdop>
 <extensions>
 <speed>1.25</speed>
 </extensions>
 </trkpt>
 <trkpt lat="50.4035698" lon="7.9356264">
 <ele>352</ele>
 <time>2020-11-30T12:44:06Z</time>
 <hdop>9.648</hdop>
 <extensions>
 <speed>1.46</speed>
 </extensions>
 </trkpt>
 <trkpt lat="50.4035748" lon="7.935739">
 <ele>351</ele>
 <time>2020-11-30T12:44:12Z</time>
 <hdop>9.648</hdop>
 <extensions>
 <speed>1.7</speed>
 </extensions>
 </trkpt>
 <trkpt lat="50.4036434" lon="7.935968">
 <ele>354</ele>
 <time>2020-11-30T12:44:18Z</time>
 <hdop>10.72</hdop>
 <extensions>
 <speed>1.53</speed>
 </extensions>
 </trkpt>
 <trkpt lat="50.403665" lon="7.9360523">
 <ele>355</ele>
 <time>2020-11-30T12:44:24Z</time>
 <hdop>9.648</hdop>
 <extensions>
 <speed>1.14</speed>
 </extensions>
 </trkpt>
 <trkpt lat="50.4036708" lon="7.9361453">
 <ele>355</ele>
 <time>2020-11-30T12:44:30Z</time>
 <hdop>10.72</hdop>
 <extensions>
 <speed>1.55</speed>
 </extensions>
 </trkpt>
 <trkpt lat="50.4036806" lon="7.9362792">
 <ele>357</ele>
 <time>2020-11-30T12:44:35Z</time>
 <hdop>10.72</hdop>
 <extensions>
 <speed>1.07</speed>
 </extensions>
 </trkpt>
 <trkpt lat="50.4037178" lon="7.9364445">
 <ele>355</ele>
 <time>2020-11-30T12:44:41Z</time>
 <hdop>9.648</hdop>
 <extensions>
 <speed>1.98</speed>
 </extensions>
 </trkpt>
 <trkpt lat="50.403737" lon="7.9365691">
 <ele>353</ele>
 <time>2020-11-30T12:44:46Z</time>
 <hdop>10.72</hdop>
 <extensions>
 <speed>1.33</speed>
 </extensions>
 </trkpt>
 <trkpt lat="50.4037125" lon="7.9366648">
 <ele>353</ele>
 <time>2020-11-30T12:44:52Z</time>
 <hdop>10.72</hdop>
 <extensions>
 <speed>1.45</speed>
 </extensions>
 </trkpt>
 <trkpt lat="50.4037196" lon="7.9367813">
 <ele>351</ele>
 <time>2020-11-30T12:44:57Z</time>
 <hdop>10.72</hdop>
 <extensions>
 <speed>1.31</speed>
 </extensions>
 </trkpt>
 <trkpt lat="50.4037396" lon="7.9368428">
 <ele>354</ele>
 <time>2020-11-30T12:45:03Z</time>
 <hdop>9.648</hdop>
 <extensions>
 <speed>0.73</speed>
 </extensions>
 </trkpt>
 <trkpt lat="50.4037351" lon="7.9369916">
 <ele>353</ele>
 <time>2020-11-30T12:45:08Z</time>
 <hdop>9.648</hdop>
 <extensions>
 <speed>1.8</speed>
 </extensions>
 </trkpt>
 <trkpt lat="50.4037397" lon="7.9371382">
 <ele>353</ele>
 <time>2020-11-30T12:45:14Z</time>
 <hdop>10.72</hdop>
 <extensions>
 <speed>1.08</speed>
 </extensions>
 </trkpt>
 <trkpt lat="50.4038034" lon="7.9372316">
 <ele>355</ele>
 <time>2020-11-30T12:45:19Z</time>
 <hdop>10.72</hdop>
 <extensions>
 <speed>0.68</speed>
 </extensions>
 </trkpt>
 <trkpt lat="50.4038111" lon="7.9373085">
 <ele>352</ele>
 <time>2020-11-30T12:45:24Z</time>
 <hdop>10.72</hdop>
 <extensions>
 <speed>1.82</speed>
 </extensions>
 </trkpt>
 <trkpt lat="50.4038099" lon="7.9374512">
 <ele>351</ele>
 <time>2020-11-30T12:45:30Z</time>
 <hdop>10.72</hdop>
 <extensions>
 <speed>1.32</speed>
 </extensions>
 </trkpt>
 <trkpt lat="50.4038563" lon="7.9375733">
 <ele>350</ele>
 <time>2020-11-30T12:45:36Z</time>
 <hdop>9.648</hdop>
 <extensions>
 <speed>1.07</speed>
 </extensions>
 </trkpt>
 <trkpt lat="50.4038509" lon="7.9377041">
 <ele>350</ele>
 <time>2020-11-30T12:45:41Z</time>
 <hdop>9.648</hdop>
 <extensions>
 <speed>1.81</speed>
 </extensions>
 </trkpt>
 <trkpt lat="50.4038353" lon="7.9377521">
 <ele>352</ele>
 <time>2020-11-30T12:45:46Z</time>
 <hdop>10.72</hdop>
 <extensions>
 <speed>0.64</speed>
 </extensions>
 </trkpt>
 <trkpt lat="50.403893" lon="7.9377778">
 <ele>352</ele>
 <time>2020-11-30T12:45:52Z</time>
 <hdop>10.72</hdop>
 <extensions>
 <speed>0.98</speed>
 </extensions>
 </trkpt>
 <trkpt lat="50.4039826" lon="7.9378572">
 <ele>351</ele>
 <time>2020-11-30T12:45:58Z</time>
 <hdop>4.288</hdop>
 <extensions>
 <speed>0.89</speed>
 </extensions>
 </trkpt>
 <trkpt lat="50.4040365" lon="7.9379105">
 <ele>352</ele>
 <time>2020-11-30T12:46:03Z</time>
 <hdop>4.288</hdop>
 <extensions>
 <speed>1.74</speed>
 </extensions>
 </trkpt>
 <trkpt lat="50.4041032" lon="7.9379467">
 <ele>353</ele>
 <time>2020-11-30T12:46:08Z</time>
 <hdop>3.216</hdop>
 <extensions>
 <speed>0.76</speed>
 </extensions>
 </trkpt>
 <trkpt lat="50.4041785" lon="7.9380043">
 <ele>352</ele>
 <time>2020-11-30T12:46:14Z</time>
 <hdop>3.216</hdop>
 <extensions>
 <speed>1.64</speed>
 </extensions>
 </trkpt>
 <trkpt lat="50.4042526" lon="7.9380598">
 <ele>350</ele>
 <time>2020-11-30T12:46:20Z</time>
 <hdop>4.288</hdop>
 <extensions>
 <speed>1.18</speed>
 </extensions>
 </trkpt>
 <trkpt lat="50.4043133" lon="7.9381065">
 <ele>349</ele>
 <time>2020-11-30T12:46:25Z</time>
 <hdop>4.288</hdop>
 <extensions>
 <speed>1.74</speed>
 </extensions>
 </trkpt>
 <trkpt lat="50.4043681" lon="7.9381371">
 <ele>351</ele>
 <time>2020-11-30T12:46:31Z</time>
 <hdop>4.288</hdop>
 <extensions>
 <speed>0.84</speed>
 </extensions>
 </trkpt>
 <trkpt lat="50.4044076" lon="7.9382008">
 <ele>352</ele>
 <time>2020-11-30T12:46:37Z</time>
 <hdop>3.216</hdop>
 <extensions>
 <speed>0.58</speed>
 </extensions>
 </trkpt>
 <trkpt lat="50.4044652" lon="7.9382314">
 <ele>351</ele>
 <time>2020-11-30T12:46:43Z</time>
 <hdop>4.288</hdop>
 <extensions>
 <speed>0.29</speed>
 </extensions>
 </trkpt>
 <trkpt lat="50.4045423" lon="7.938251">
 <ele>353</ele>
 <time>2020-11-30T12:46:48Z</time>
 <hdop>3.216</hdop>
 <extensions>
 <speed>1.41</speed>
 </extensions>
 </trkpt>
 <trkpt lat="50.4046133" lon="7.9383042">
 <ele>353</ele>
 <time>2020-11-30T12:46:54Z</time>
 <hdop>3.216</hdop>
 <extensions>
 <speed>1.25</speed>
 </extensions>
 </trkpt>
 <trkpt lat="50.4046691" lon="7.9383335">
 <ele>355</ele>
 <time>2020-11-30T12:47:00Z</time>
 <hdop>4.288</hdop>
 <extensions>
 <speed>0.7</speed>
 </extensions>
 </trkpt>
 <trkpt lat="50.4048086" lon="7.9383265">
 <ele>354</ele>
 <time>2020-11-30T12:47:06Z</time>
 <hdop>4.288</hdop>
 <extensions>
 <speed>1.46</speed>
 </extensions>
 </trkpt>
 <trkpt lat="50.404876" lon="7.9382298">
 <ele>355</ele>
 <time>2020-11-30T12:47:11Z</time>
 <hdop>4.288</hdop>
 <extensions>
 <speed>1.39</speed>
 </extensions>
 </trkpt>
 <trkpt lat="50.4049281" lon="7.9382094">
 <ele>354</ele>
 <time>2020-11-30T12:47:16Z</time>
 <hdop>4.288</hdop>
 <extensions>
 <speed>1.76</speed>
 </extensions>
 </trkpt>
 <trkpt lat="50.4049796" lon="7.938129">
 <ele>356</ele>
 <time>2020-11-30T12:47:22Z</time>
 <hdop>9.648</hdop>
 <extensions>
 <speed>1.45</speed>
 </extensions>
 </trkpt>
 <trkpt lat="50.405036" lon="7.9380963">
 <ele>354</ele>
 <time>2020-11-30T12:47:28Z</time>
 <hdop>9.648</hdop>
 <extensions>
 <speed>1.1</speed>
 </extensions>
 </trkpt>
 <trkpt lat="50.4050855" lon="7.9380336">
 <ele>353</ele>
 <time>2020-11-30T12:47:33Z</time>
 <hdop>4.288</hdop>
 <extensions>
 <speed>1.42</speed>
 </extensions>
 </trkpt>
 <trkpt lat="50.405148" lon="7.9378647">
 <ele>353</ele>
 <time>2020-11-30T12:47:39Z</time>
 <hdop>5.36</hdop>
 <extensions>
 <speed>1.48</speed>
 </extensions>
 </trkpt>
 <trkpt lat="50.405219" lon="7.9378737">
 <ele>350</ele>
 <time>2020-11-30T12:47:45Z</time>
 <hdop>5.36</hdop>
 <extensions>
 <speed>2.44</speed>
 </extensions>
 </trkpt>
 <trkpt lat="50.40528" lon="7.9378999">
 <ele>353</ele>
 <time>2020-11-30T12:47:50Z</time>
 <hdop>6.432</hdop>
 <extensions>
 <speed>1.43</speed>
 </extensions>
 </trkpt>
 <trkpt lat="50.4053165" lon="7.9377587">
 <ele>357</ele>
 <time>2020-11-30T12:47:56Z</time>
 <hdop>5.36</hdop>
 <extensions>
 <speed>1.52</speed>
 </extensions>
 </trkpt>
 <trkpt lat="50.405361" lon="7.9376628">
 <ele>357</ele>
 <time>2020-11-30T12:48:02Z</time>
 <hdop>6.432</hdop>
 <extensions>
 <speed>0.85</speed>
 </extensions>
 </trkpt>
 <trkpt lat="50.4053932" lon="7.9375937">
 <ele>356</ele>
 <time>2020-11-30T12:48:07Z</time>
 <hdop>5.36</hdop>
 <extensions>
 <speed>0.45</speed>
 </extensions>
 </trkpt>
 <trkpt lat="50.4054638" lon="7.9375646">
 <ele>356</ele>
 <time>2020-11-30T12:48:13Z</time>
 <hdop>5.36</hdop>
 <extensions>
 <speed>1.62</speed>
 </extensions>
 </trkpt>
 <trkpt lat="50.4055493" lon="7.9375799">
 <ele>355</ele>
 <time>2020-11-30T12:48:19Z</time>
 <hdop>4.288</hdop>
 <extensions>
 <speed>1.58</speed>
 </extensions>
 </trkpt>
 <trkpt lat="50.4055997" lon="7.9376346">
 <ele>353</ele>
 <time>2020-11-30T12:48:24Z</time>
 <hdop>6.432</hdop>
 <extensions>
 <speed>1.04</speed>
 </extensions>
 </trkpt>
 <trkpt lat="50.4056493" lon="7.9375354">
 <ele>355</ele>
 <time>2020-11-30T12:48:29Z</time>
 <hdop>7.504</hdop>
 <extensions>
 <speed>1.18</speed>
 </extensions>
 </trkpt>
 <trkpt lat="50.4056588" lon="7.937561">
 <ele>355</ele>
 <time>2020-11-30T12:48:34Z</time>
 <hdop>7.504</hdop>
 <extensions>
 <speed>0.37</speed>
 </extensions>
 </trkpt>
 <trkpt lat="50.4056734" lon="7.9376008">
 <ele>356</ele>
 <time>2020-11-30T12:48:40Z</time>
 <hdop>6.432</hdop>
 </trkpt>
 <trkpt lat="50.4057254" lon="7.9376154">
 <ele>356</ele>
 <time>2020-11-30T12:48:46Z</time>
 <hdop>7.504</hdop>
 <extensions>
 <speed>2.41</speed>
 </extensions>
 </trkpt>
 <trkpt lat="50.4058567" lon="7.9376039">
 <ele>356</ele>
 <time>2020-11-30T12:48:52Z</time>
 <hdop>6.432</hdop>
 <extensions>
 <speed>1.22</speed>
 </extensions>
 </trkpt>
 <trkpt lat="50.4059373" lon="7.9375851">
 <ele>353</ele>
 <time>2020-11-30T12:48:58Z</time>
 <hdop>7.504</hdop>
 <extensions>
 <speed>1.16</speed>
 </extensions>
 </trkpt>
 <trkpt lat="50.4059591" lon="7.9375538">
 <ele>352</ele>
 <time>2020-11-30T12:49:04Z</time>
 <hdop>7.504</hdop>
 <extensions>
 <speed>1.91</speed>
 </extensions>
 </trkpt>
 <trkpt lat="50.4060552" lon="7.9375366">
 <ele>358</ele>
 <time>2020-11-30T12:49:10Z</time>
 <hdop>7.504</hdop>
 <extensions>
 <speed>0.7</speed>
 </extensions>
 </trkpt>
 <trkpt lat="50.4061155" lon="7.9375759">
 <ele>359</ele>
 <time>2020-11-30T12:49:15Z</time>
 <hdop>8.576</hdop>
 <extensions>
 <speed>1.23</speed>
 </extensions>
 </trkpt>
 <trkpt lat="50.4061613" lon="7.9376382">
 <ele>357</ele>
 <time>2020-11-30T12:49:21Z</time>
 <hdop>4.288</hdop>
 <extensions>
 <speed>1.04</speed>
 </extensions>
 </trkpt>
 <trkpt lat="50.4061931" lon="7.9377326">
 <ele>359</ele>
 <time>2020-11-30T12:49:26Z</time>
 <hdop>4.288</hdop>
 <extensions>
 <speed>1.05</speed>
 </extensions>
 </trkpt>
 <trkpt lat="50.4062489" lon="7.9378009">
 <ele>359</ele>
 <time>2020-11-30T12:49:31Z</time>
 <hdop>4.288</hdop>
 <extensions>
 <speed>1.25</speed>
 </extensions>
 </trkpt>
 <trkpt lat="50.4062794" lon="7.9378518">
 <ele>362</ele>
 <time>2020-11-30T12:49:37Z</time>
 <hdop>4.288</hdop>
 </trkpt>
 <trkpt lat="50.406271" lon="7.9378552">
 <ele>361</ele>
 <time>2020-11-30T12:49:42Z</time>
 <hdop>4.288</hdop>
 </trkpt>
 <trkpt lat="50.4062721" lon="7.9378811">
 <ele>361</ele>
 <time>2020-11-30T12:49:47Z</time>
 <hdop>4.288</hdop>
 <extensions>
 <speed>0.73</speed>
 </extensions>
 </trkpt>
 <trkpt lat="50.4062529" lon="7.9380135">
 <ele>357</ele>
 <time>2020-11-30T12:49:53Z</time>
 <hdop>4.288</hdop>
 <extensions>
 <speed>0.93</speed>
 </extensions>
 </trkpt>
 <trkpt lat="50.4062453" lon="7.9381068">
 <ele>357</ele>
 <time>2020-11-30T12:49:58Z</time>
 <hdop>4.288</hdop>
 <extensions>
 <speed>1.23</speed>
 </extensions>
 </trkpt>
 <trkpt lat="50.4062358" lon="7.9381924">
 <ele>355</ele>
 <time>2020-11-30T12:50:03Z</time>
 <hdop>4.288</hdop>
 <extensions>
 <speed>0.6</speed>
 </extensions>
 </trkpt>
 <trkpt lat="50.4062649" lon="7.9382798">
 <ele>355</ele>
 <time>2020-11-30T12:50:09Z</time>
 <hdop>5.36</hdop>
 <extensions>
 <speed>1.37</speed>
 </extensions>
 </trkpt>
 <trkpt lat="50.4063389" lon="7.9384061">
 <ele>357</ele>
 <time>2020-11-30T12:50:14Z</time>
 <hdop>5.36</hdop>
 <extensions>
 <speed>1.5</speed>
 </extensions>
 </trkpt>
 <trkpt lat="50.4063708" lon="7.9384953">
 <ele>362</ele>
 <time>2020-11-30T12:50:20Z</time>
 <hdop>6.432</hdop>
 <extensions>
 <speed>0.8</speed>
 </extensions>
 </trkpt>
 <trkpt lat="50.4063818" lon="7.9385145">
 <ele>362</ele>
 <time>2020-11-30T12:50:26Z</time>
 <hdop>6.432</hdop>
 </trkpt>
 <trkpt lat="50.4063658" lon="7.9384982">
 <ele>362</ele>
 <time>2020-11-30T12:50:31Z</time>
 <hdop>7.504</hdop>
 <extensions>
 <speed>0.46</speed>
 </extensions>
 </trkpt>
 <trkpt lat="50.4063504" lon="7.9385352">
 <ele>365</ele>
 <time>2020-11-30T12:50:36Z</time>
 <hdop>6.432</hdop>
 <extensions>
 <speed>0.82</speed>
 </extensions>
 </trkpt>
 <trkpt lat="50.40637" lon="7.9386392">
 <ele>368</ele>
 <time>2020-11-30T12:50:42Z</time>
 <hdop>5.36</hdop>
 <extensions>
 <speed>1.04</speed>
 </extensions>
 </trkpt>
 <trkpt lat="50.406382" lon="7.9387722">
 <ele>366</ele>
 <time>2020-11-30T12:50:48Z</time>
 <hdop>4.288</hdop>
 <extensions>
 <speed>1.34</speed>
 </extensions>
 </trkpt>
 <trkpt lat="50.4064021" lon="7.9389106">
 <ele>364</ele>
 <time>2020-11-30T12:50:54Z</time>
 <hdop>4.288</hdop>
 <extensions>
 <speed>1.85</speed>
 </extensions>
 </trkpt>
 <trkpt lat="50.4064102" lon="7.9390072">
 <ele>364</ele>
 <time>2020-11-30T12:50:59Z</time>
 <hdop>4.288</hdop>
 <extensions>
 <speed>0.42</speed>
 </extensions>
 </trkpt>
 <trkpt lat="50.4064003" lon="7.9390857">
 <ele>366</ele>
 <time>2020-11-30T12:51:05Z</time>
 <hdop>5.36</hdop>
 <extensions>
 <speed>0.96</speed>
 </extensions>
 </trkpt>
 <trkpt lat="50.4064051" lon="7.9391857">
 <ele>367</ele>
 <time>2020-11-30T12:51:11Z</time>
 <hdop>5.36</hdop>
 <extensions>
 <speed>1.44</speed>
 </extensions>
 </trkpt>
 <trkpt lat="50.4064175" lon="7.9392675">
 <ele>368</ele>
 <time>2020-11-30T12:51:16Z</time>
 <hdop>4.288</hdop>
 <extensions>
 <speed>0.96</speed>
 </extensions>
 </trkpt>
 <trkpt lat="50.4064494" lon="7.9393527">
 <ele>370</ele>
 <time>2020-11-30T12:51:21Z</time>
 <hdop>4.288</hdop>
 <extensions>
 <speed>2.24</speed>
 </extensions>
 </trkpt>
 <trkpt lat="50.4064737" lon="7.9394355">
 <ele>368</ele>
 <time>2020-11-30T12:51:27Z</time>
 <hdop>4.288</hdop>
 <extensions>
 <speed>1.03</speed>
 </extensions>
 </trkpt>
 <trkpt lat="50.4065229" lon="7.9395239">
 <ele>367</ele>
 <time>2020-11-30T12:51:33Z</time>
 <hdop>4.288</hdop>
 <extensions>
 <speed>0.99</speed>
 </extensions>
 </trkpt>
 <trkpt lat="50.4065932" lon="7.9395764">
 <ele>369</ele>
 <time>2020-11-30T12:51:38Z</time>
 <hdop>5.36</hdop>
 <extensions>
 <speed>0.83</speed>
 </extensions>
 </trkpt>
 <trkpt lat="50.4066203" lon="7.9395352">
 <ele>369</ele>
 <time>2020-11-30T12:51:44Z</time>
 <hdop>6.432</hdop>
 <extensions>
 <speed>0.78</speed>
 </extensions>
 </trkpt>
 <trkpt lat="50.4066111" lon="7.9395542">
 <ele>368</ele>
 <time>2020-11-30T12:51:49Z</time>
 <hdop>6.432</hdop>
 </trkpt>
 <trkpt lat="50.4066088" lon="7.9396668">
 <ele>369</ele>
 <time>2020-11-30T12:51:55Z</time>
 <hdop>4.288</hdop>
 <extensions>
 <speed>1.24</speed>
 </extensions>
 </trkpt>
 <trkpt lat="50.4066122" lon="7.9398054">
 <ele>370</ele>
 <time>2020-11-30T12:52:01Z</time>
 <hdop>4.288</hdop>
 <extensions>
 <speed>2.26</speed>
 </extensions>
 </trkpt>
 <trkpt lat="50.4066378" lon="7.9399976">
 <ele>371</ele>
 <time>2020-11-30T12:52:07Z</time>
 <hdop>5.36</hdop>
 <extensions>
 <speed>1.91</speed>
 </extensions>
 </trkpt>
 <trkpt lat="50.4066453" lon="7.9401222">
 <ele>372</ele>
 <time>2020-11-30T12:52:13Z</time>
 <hdop>5.36</hdop>
 <extensions>
 <speed>1.7</speed>
 </extensions>
 </trkpt>
 <trkpt lat="50.406678" lon="7.9402158">
 <ele>370</ele>
 <time>2020-11-30T12:52:19Z</time>
 <hdop>5.36</hdop>
 <extensions>
 <speed>1.54</speed>
 </extensions>
 </trkpt>
 <trkpt lat="50.4066837" lon="7.9402854">
 <ele>368</ele>
 <time>2020-11-30T12:52:24Z</time>
 <hdop>4.288</hdop>
 </trkpt>
 <trkpt lat="50.4066858" lon="7.9403526">
 <ele>368</ele>
 <time>2020-11-30T12:52:29Z</time>
 <hdop>5.36</hdop>
 <extensions>
 <speed>1.25</speed>
 </extensions>
 </trkpt>
 <trkpt lat="50.406708" lon="7.9404983">
 <ele>370</ele>
 <time>2020-11-30T12:52:35Z</time>
 <hdop>4.288</hdop>
 <extensions>
 <speed>1.46</speed>
 </extensions>
 </trkpt>
 <trkpt lat="50.4067212" lon="7.940588">
 <ele>369</ele>
 <time>2020-11-30T12:52:40Z</time>
 <hdop>3.216</hdop>
 <extensions>
 <speed>0.92</speed>
 </extensions>
 </trkpt>
 <trkpt lat="50.4067646" lon="7.9406649">
 <ele>371</ele>
 <time>2020-11-30T12:52:46Z</time>
 <hdop>4.288</hdop>
 <extensions>
 <speed>1.69</speed>
 </extensions>
 </trkpt>
 <trkpt lat="50.4067676" lon="7.940755">
 <ele>369</ele>
 <time>2020-11-30T12:52:51Z</time>
 <hdop>9.648</hdop>
 <extensions>
 <speed>1.05</speed>
 </extensions>
 </trkpt>
 <trkpt lat="50.4068372" lon="7.9408536">
 <ele>372</ele>
 <time>2020-11-30T12:52:56Z</time>
 <hdop>9.648</hdop>
 <extensions>
 <speed>1.19</speed>
 </extensions>
 </trkpt>
 <trkpt lat="50.4069106" lon="7.9409305">
 <ele>372</ele>
 <time>2020-11-30T12:53:02Z</time>
 <hdop>9.648</hdop>
 <extensions>
 <speed>1.04</speed>
 </extensions>
 </trkpt>
 <trkpt lat="50.4069641" lon="7.9409813">
 <ele>374</ele>
 <time>2020-11-30T12:53:07Z</time>
 <hdop>10.72</hdop>
 <extensions>
 <speed>1.43</speed>
 </extensions>
 </trkpt>
 <trkpt lat="50.4070376" lon="7.9410439">
 <ele>370</ele>
 <time>2020-11-30T12:53:13Z</time>
 <hdop>10.72</hdop>
 <extensions>
 <speed>0.53</speed>
 </extensions>
 </trkpt>
 <trkpt lat="50.4070399" lon="7.9410486">
 <ele>369</ele>
 <time>2020-11-30T12:53:18Z</time>
 <hdop>10.72</hdop>
 </trkpt>
 <trkpt lat="50.407052" lon="7.9410484">
 <ele>367</ele>
 <time>2020-11-30T12:53:23Z</time>
 <hdop>10.72</hdop>
 <extensions>
 <speed>0.27</speed>
 </extensions>
 </trkpt>
 <trkpt lat="50.4070593" lon="7.941003">
 <ele>368</ele>
 <time>2020-11-30T12:53:29Z</time>
 <hdop>10.72</hdop>
 </trkpt>
 <trkpt lat="50.4070716" lon="7.9410008">
 <ele>367</ele>
 <time>2020-11-30T12:53:34Z</time>
 <hdop>9.648</hdop>
 </trkpt>
 <trkpt lat="50.407084" lon="7.9410106">
 <ele>367</ele>
 <time>2020-11-30T12:53:40Z</time>
 <hdop>9.648</hdop>
 </trkpt>
 <trkpt lat="50.4071778" lon="7.9409564">
 <ele>368</ele>
 <time>2020-11-30T12:53:45Z</time>
 <hdop>10.72</hdop>
 <extensions>
 <speed>1.54</speed>
 </extensions>
 </trkpt>
 <trkpt lat="50.4072885" lon="7.9410161">
 <ele>367</ele>
 <time>2020-11-30T12:53:51Z</time>
 <hdop>10.72</hdop>
 <extensions>
 <speed>0.85</speed>
 </extensions>
 </trkpt>
 <trkpt lat="50.4073081" lon="7.9410929">
 <ele>365</ele>
 <time>2020-11-30T12:53:57Z</time>
 <hdop>10.72</hdop>
 <extensions>
 <speed>0.57</speed>
 </extensions>
 </trkpt>
 <trkpt lat="50.4073063" lon="7.9410979">
 <ele>365</ele>
 <time>2020-11-30T12:54:02Z</time>
 <hdop>10.72</hdop>
 <extensions>
 <speed>1.12</speed>
 </extensions>
 </trkpt>
 <trkpt lat="50.4073849" lon="7.9411104">
 <ele>361</ele>
 <time>2020-11-30T12:54:08Z</time>
 <hdop>9.648</hdop>
 <extensions>
 <speed>1</speed>
 </extensions>
 </trkpt>
 <trkpt lat="50.407471" lon="7.9410864">
 <ele>366</ele>
 <time>2020-11-30T12:54:13Z</time>
 <hdop>9.648</hdop>
 <extensions>
 <speed>1.38</speed>
 </extensions>
 </trkpt>
 <trkpt lat="50.4075376" lon="7.9410919">
 <ele>365</ele>
 <time>2020-11-30T12:54:19Z</time>
 <hdop>9.648</hdop>
 <extensions>
 <speed>1.6</speed>
 </extensions>
 </trkpt>
 <trkpt lat="50.407596" lon="7.9411154">
 <ele>364</ele>
 <time>2020-11-30T12:54:24Z</time>
 <hdop>10.72</hdop>
 <extensions>
 <speed>1.16</speed>
 </extensions>
 </trkpt>
 <trkpt lat="50.4076331" lon="7.9410749">
 <ele>364</ele>
 <time>2020-11-30T12:54:30Z</time>
 <hdop>4.288</hdop>
 <extensions>
 <speed>0.89</speed>
 </extensions>
 </trkpt>
 <trkpt lat="50.4076671" lon="7.9410641">
 <ele>362</ele>
 <time>2020-11-30T12:54:36Z</time>
 <hdop>6.432</hdop>
 </trkpt>
 <trkpt lat="50.4076837" lon="7.941077">
 <ele>361</ele>
 <time>2020-11-30T12:54:41Z</time>
 <hdop>4.288</hdop>
 <extensions>
 <speed>0.45</speed>
 </extensions>
 </trkpt>
 <trkpt lat="50.4076937" lon="7.9410572">
 <ele>364</ele>
 <time>2020-11-30T12:54:47Z</time>
 <hdop>4.288</hdop>
 <extensions>
 <speed>1.06</speed>
 </extensions>
 </trkpt>
 <trkpt lat="50.4077353" lon="7.941016">
 <ele>363</ele>
 <time>2020-11-30T12:54:53Z</time>
 <hdop>3.216</hdop>
 <extensions>
 <speed>0.43</speed>
 </extensions>
 </trkpt>
 <trkpt lat="50.4077947" lon="7.9409965">
 <ele>363</ele>
 <time>2020-11-30T12:54:59Z</time>
 <hdop>7.504</hdop>
 <extensions>
 <speed>1.85</speed>
 </extensions>
 </trkpt>
 <trkpt lat="50.4078494" lon="7.9410146">
 <ele>360</ele>
 <time>2020-11-30T12:55:04Z</time>
 <hdop>5.36</hdop>
 <extensions>
 <speed>1.37</speed>
 </extensions>
 </trkpt>
 <trkpt lat="50.4079258" lon="7.9409042">
 <ele>361</ele>
 <time>2020-11-30T12:55:09Z</time>
 <hdop>4.288</hdop>
 <extensions>
 <speed>1.36</speed>
 </extensions>
 </trkpt>
 <trkpt lat="50.4080025" lon="7.9408822">
 <ele>366</ele>
 <time>2020-11-30T12:55:15Z</time>
 <hdop>3.216</hdop>
 <extensions>
 <speed>1.2</speed>
 </extensions>
 </trkpt>
 <trkpt lat="50.4080446" lon="7.9408672">
 <ele>362</ele>
 <time>2020-11-30T12:55:21Z</time>
 <hdop>3.216</hdop>
 </trkpt>
 <trkpt lat="50.4080932" lon="7.9408171">
 <ele>360</ele>
 <time>2020-11-30T12:55:27Z</time>
 <hdop>3.216</hdop>
 <extensions>
 <speed>1.12</speed>
 </extensions>
 </trkpt>
 <trkpt lat="50.4081747" lon="7.9407255">
 <ele>357</ele>
 <time>2020-11-30T12:55:33Z</time>
 <hdop>3.216</hdop>
 <extensions>
 <speed>1.57</speed>
 </extensions>
 </trkpt>
 <trkpt lat="50.4082129" lon="7.9407064">
 <ele>357</ele>
 <time>2020-11-30T12:55:39Z</time>
 <hdop>3.216</hdop>
 <extensions>
 <speed>0.98</speed>
 </extensions>
 </trkpt>
 <trkpt lat="50.4082602" lon="7.940642">
 <ele>359</ele>
 <time>2020-11-30T12:55:45Z</time>
 <hdop>4.288</hdop>
 <extensions>
 <speed>1.27</speed>
 </extensions>
 </trkpt>
 <trkpt lat="50.4083083" lon="7.9406347">
 <ele>359</ele>
 <time>2020-11-30T12:55:50Z</time>
 <hdop>3.216</hdop>
 <extensions>
 <speed>1.04</speed>
 </extensions>
 </trkpt>
 <trkpt lat="50.4083709" lon="7.9405596">
 <ele>358</ele>
 <time>2020-11-30T12:55:56Z</time>
 <hdop>4.288</hdop>
 <extensions>
 <speed>1.34</speed>
 </extensions>
 </trkpt>
 <trkpt lat="50.4084356" lon="7.940496">
 <ele>358</ele>
 <time>2020-11-30T12:56:01Z</time>
 <hdop>3.216</hdop>
 <extensions>
 <speed>1.72</speed>
 </extensions>
 </trkpt>
 <trkpt lat="50.408498" lon="7.9404233">
 <ele>357</ele>
 <time>2020-11-30T12:56:07Z</time>
 <hdop>5.36</hdop>
 <extensions>
 <speed>1.18</speed>
 </extensions>
 </trkpt>
 <trkpt lat="50.4085607" lon="7.9403661">
 <ele>357</ele>
 <time>2020-11-30T12:56:13Z</time>
 <hdop>3.216</hdop>
 <extensions>
 <speed>0.82</speed>
 </extensions>
 </trkpt>
 <trkpt lat="50.408626" lon="7.940305">
 <ele>360</ele>
 <time>2020-11-30T12:56:18Z</time>
 <hdop>4.288</hdop>
 <extensions>
 <speed>0.83</speed>
 </extensions>
 </trkpt>
 <trkpt lat="50.4086498" lon="7.9403505">
 <ele>359</ele>
 <time>2020-11-30T12:56:24Z</time>
 <hdop>3.216</hdop>
 <extensions>
 <speed>0.28</speed>
 </extensions>
 </trkpt>
 <trkpt lat="50.4086585" lon="7.940374">
 <ele>359</ele>
 <time>2020-11-30T12:56:30Z</time>
 <hdop>4.288</hdop>
 </trkpt>
 <trkpt lat="50.4086486" lon="7.9404358">
 <ele>355</ele>
 <time>2020-11-30T12:56:35Z</time>
 <hdop>4.288</hdop>
 <extensions>
 <speed>1.02</speed>
 </extensions>
 </trkpt>
 <trkpt lat="50.4086606" lon="7.9405096">
 <ele>355</ele>
 <time>2020-11-30T12:56:40Z</time>
 <hdop>6.432</hdop>
 <extensions>
 <speed>1.26</speed>
 </extensions>
 </trkpt>
 <trkpt lat="50.4086713" lon="7.9406005">
 <ele>356</ele>
 <time>2020-11-30T12:56:46Z</time>
 <hdop>10.72</hdop>
 <extensions>
 <speed>1.24</speed>
 </extensions>
 </trkpt>
 <trkpt lat="50.4087013" lon="7.9406629">
 <ele>358</ele>
 <time>2020-11-30T12:56:52Z</time>
 <hdop>10.72</hdop>
 <extensions>
 <speed>0.98</speed>
 </extensions>
 </trkpt>
 <trkpt lat="50.4087274" lon="7.9407127">
 <ele>354</ele>
 <time>2020-11-30T12:56:57Z</time>
 <hdop>5.36</hdop>
 <extensions>
 <speed>0.58</speed>
 </extensions>
 </trkpt>
 <trkpt lat="50.4087419" lon="7.9407912">
 <ele>354</ele>
 <time>2020-11-30T12:57:02Z</time>
 <hdop>5.36</hdop>
 <extensions>
 <speed>1.22</speed>
 </extensions>
 </trkpt>
 <trkpt lat="50.4087389" lon="7.9408965">
 <ele>357</ele>
 <time>2020-11-30T12:57:07Z</time>
 <hdop>4.288</hdop>
 <extensions>
 <speed>1.63</speed>
 </extensions>
 </trkpt>
 <trkpt lat="50.408764" lon="7.9409709">
 <ele>357</ele>
 <time>2020-11-30T12:57:13Z</time>
 <hdop>4.288</hdop>
 <extensions>
 <speed>1.36</speed>
 </extensions>
 </trkpt>
 <trkpt lat="50.4087565" lon="7.9410905">
 <ele>357</ele>
 <time>2020-11-30T12:57:18Z</time>
 <hdop>4.288</hdop>
 <extensions>
 <speed>1.7</speed>
 </extensions>
 </trkpt>
 <trkpt lat="50.408783" lon="7.9412223">
 <ele>356</ele>
 <time>2020-11-30T12:57:24Z</time>
 <hdop>4.288</hdop>
 <extensions>
 <speed>2.79</speed>
 </extensions>
 </trkpt>
 <trkpt lat="50.4088244" lon="7.9413528">
 <ele>356</ele>
 <time>2020-11-30T12:57:29Z</time>
 <hdop>4.288</hdop>
 <extensions>
 <speed>1.92</speed>
 </extensions>
 </trkpt>
 <trkpt lat="50.4088357" lon="7.941425">
 <ele>353</ele>
 <time>2020-11-30T12:57:35Z</time>
 <hdop>4.288</hdop>
 </trkpt>
 <trkpt lat="50.4088999" lon="7.9415166">
 <ele>354</ele>
 <time>2020-11-30T12:57:41Z</time>
 <hdop>4.288</hdop>
 <extensions>
 <speed>0.89</speed>
 </extensions>
 </trkpt>
 <trkpt lat="50.4088568" lon="7.9416322">
 <ele>353</ele>
 <time>2020-11-30T12:57:47Z</time>
 <hdop>4.288</hdop>
 <extensions>
 <speed>2.15</speed>
 </extensions>
 </trkpt>
 <trkpt lat="50.4088763" lon="7.9417659">
 <ele>353</ele>
 <time>2020-11-30T12:57:53Z</time>
 <hdop>4.288</hdop>
 <extensions>
 <speed>1.35</speed>
 </extensions>
 </trkpt>
 <trkpt lat="50.4089013" lon="7.9417729">
 <ele>348</ele>
 <time>2020-11-30T12:57:59Z</time>
 <hdop>4.288</hdop>
 </trkpt>
 <trkpt lat="50.4089043" lon="7.9417771">
 <ele>348</ele>
 <time>2020-11-30T12:58:04Z</time>
 <hdop>4.288</hdop>
 </trkpt>
 <trkpt lat="50.4089091" lon="7.9417872">
 <ele>351</ele>
 <time>2020-11-30T12:58:10Z</time>
 <hdop>5.36</hdop>
 <extensions>
 <speed>0.29</speed>
 </extensions>
 </trkpt>
 <trkpt lat="50.4088821" lon="7.941775">
 <ele>348</ele>
 <time>2020-11-30T12:58:15Z</time>
 <hdop>3.216</hdop>
 <extensions>
 <speed>1.27</speed>
 </extensions>
 </trkpt>
 <trkpt lat="50.4088625" lon="7.941816">
 <ele>349</ele>
 <time>2020-11-30T12:58:21Z</time>
 <hdop>3.216</hdop>
 </trkpt>
 <trkpt lat="50.4088606" lon="7.9418448">
 <ele>346</ele>
 <time>2020-11-30T12:58:26Z</time>
 <hdop>3.216</hdop>
 <extensions>
 <speed>0.71</speed>
 </extensions>
 </trkpt>
 <trkpt lat="50.4088114" lon="7.9418409">
 <ele>347</ele>
 <time>2020-11-30T12:58:31Z</time>
 <hdop>3.216</hdop>
 <extensions>
 <speed>1.9</speed>
 </extensions>
 </trkpt>
 <trkpt lat="50.4087239" lon="7.9418301">
 <ele>347</ele>
 <time>2020-11-30T12:58:36Z</time>
 <hdop>3.216</hdop>
 <extensions>
 <speed>1.42</speed>
 </extensions>
 </trkpt>
 <trkpt lat="50.4086767" lon="7.9417959">
 <ele>348</ele>
 <time>2020-11-30T12:58:41Z</time>
 <hdop>4.288</hdop>
 <extensions>
 <speed>1.35</speed>
 </extensions>
 </trkpt>
 <trkpt lat="50.4086131" lon="7.9418189">
 <ele>352</ele>
 <time>2020-11-30T12:58:47Z</time>
 <hdop>4.288</hdop>
 <extensions>
 <speed>1.32</speed>
 </extensions>
 </trkpt>
 <trkpt lat="50.4085396" lon="7.9419044">
 <ele>352</ele>
 <time>2020-11-30T12:58:53Z</time>
 <hdop>5.36</hdop>
 <extensions>
 <speed>1.34</speed>
 </extensions>
 </trkpt>
 <trkpt lat="50.4084866" lon="7.9419407">
 <ele>347</ele>
 <time>2020-11-30T12:58:58Z</time>
 <hdop>4.288</hdop>
 <extensions>
 <speed>1.79</speed>
 </extensions>
 </trkpt>
 <trkpt lat="50.4084606" lon="7.9419567">
 <ele>348</ele>
 <time>2020-11-30T12:59:03Z</time>
 <hdop>4.288</hdop>
 <extensions>
 <speed>0.82</speed>
 </extensions>
 </trkpt>
 <trkpt lat="50.4083715" lon="7.941983">
 <ele>352</ele>
 <time>2020-11-30T12:59:09Z</time>
 <hdop>6.432</hdop>
 <extensions>
 <speed>1.61</speed>
 </extensions>
 </trkpt>
 <trkpt lat="50.4083028" lon="7.941993">
 <ele>350</ele>
 <time>2020-11-30T12:59:15Z</time>
 <hdop>5.36</hdop>
 <extensions>
 <speed>1.2</speed>
 </extensions>
 </trkpt>
 <trkpt lat="50.4082144" lon="7.9420235">
 <ele>354</ele>
 <time>2020-11-30T12:59:21Z</time>
 <hdop>5.36</hdop>
 <extensions>
 <speed>1.03</speed>
 </extensions>
 </trkpt>
 <trkpt lat="50.4081442" lon="7.942002">
 <ele>356</ele>
 <time>2020-11-30T12:59:26Z</time>
 <hdop>7.504</hdop>
 <extensions>
 <speed>1.43</speed>
 </extensions>
 </trkpt>
 <trkpt lat="50.4080544" lon="7.9419523">
 <ele>351</ele>
 <time>2020-11-30T12:59:32Z</time>
 <hdop>5.36</hdop>
 <extensions>
 <speed>2.51</speed>
 </extensions>
 </trkpt>
 <trkpt lat="50.4079654" lon="7.9419223">
 <ele>349</ele>
 <time>2020-11-30T12:59:38Z</time>
 <hdop>5.36</hdop>
 <extensions>
 <speed>1.6</speed>
 </extensions>
 </trkpt>
 <trkpt lat="50.4078876" lon="7.9419334">
 <ele>350</ele>
 <time>2020-11-30T12:59:43Z</time>
 <hdop>5.36</hdop>
 <extensions>
 <speed>1.71</speed>
 </extensions>
 </trkpt>
 <trkpt lat="50.4078051" lon="7.9419243">
 <ele>351</ele>
 <time>2020-11-30T12:59:49Z</time>
 <hdop>5.36</hdop>
 <extensions>
 <speed>0.97</speed>
 </extensions>
 </trkpt>
 <trkpt lat="50.4077584" lon="7.9419137">
 <ele>352</ele>
 <time>2020-11-30T12:59:54Z</time>
 <hdop>10.72</hdop>
 </trkpt>
 <trkpt lat="50.4077119" lon="7.9419">
 <ele>351</ele>
 <time>2020-11-30T12:59:59Z</time>
 <hdop>9.648</hdop>
 <extensions>
 <speed>1.58</speed>
 </extensions>
 </trkpt>
 <trkpt lat="50.4076344" lon="7.9419196">
 <ele>351</ele>
 <time>2020-11-30T13:00:04Z</time>
 <hdop>10.72</hdop>
 <extensions>
 <speed>0.3</speed>
 </extensions>
 </trkpt>
 <trkpt lat="50.4076414" lon="7.9419003">
 <ele>353</ele>
 <time>2020-11-30T13:00:10Z</time>
 <hdop>9.648</hdop>
 <extensions>
 <speed>0.33</speed>
 </extensions>
 </trkpt>
 <trkpt lat="50.4076249" lon="7.9419745">
 <ele>355</ele>
 <time>2020-11-30T13:00:16Z</time>
 <hdop>10.72</hdop>
 <extensions>
 <speed>0.77</speed>
 </extensions>
 </trkpt>
 <trkpt lat="50.4076644" lon="7.9420032">
 <ele>354</ele>
 <time>2020-11-30T13:00:22Z</time>
 <hdop>10.72</hdop>
 <extensions>
 <speed>0.3</speed>
 </extensions>
 </trkpt>
 <trkpt lat="50.4076464" lon="7.9420378">
 <ele>347</ele>
 <time>2020-11-30T13:00:28Z</time>
 <hdop>10.72</hdop>
 <extensions>
 <speed>0.72</speed>
 </extensions>
 </trkpt>
 <trkpt lat="50.4076038" lon="7.9420843">
 <ele>344</ele>
 <time>2020-11-30T13:00:33Z</time>
 <hdop>5.36</hdop>
 <extensions>
 <speed>0.56</speed>
 </extensions>
 </trkpt>
 <trkpt lat="50.4075947" lon="7.9421686">
 <ele>349</ele>
 <time>2020-11-30T13:00:39Z</time>
 <hdop>4.288</hdop>
 <extensions>
 <speed>1.03</speed>
 </extensions>
 </trkpt>
 <trkpt lat="50.4075734" lon="7.9422287">
 <ele>345</ele>
 <time>2020-11-30T13:00:45Z</time>
 <hdop>5.36</hdop>
 <extensions>
 <speed>1.03</speed>
 </extensions>
 </trkpt>
 <trkpt lat="50.4075432" lon="7.942319">
 <ele>344</ele>
 <time>2020-11-30T13:00:50Z</time>
 <hdop>5.36</hdop>
 <extensions>
 <speed>1.34</speed>
 </extensions>
 </trkpt>
 <trkpt lat="50.4075456" lon="7.9423051">
 <ele>342</ele>
 <time>2020-11-30T13:00:55Z</time>
 <hdop>6.432</hdop>
 <extensions>
 <speed>0.77</speed>
 </extensions>
 </trkpt>
 <trkpt lat="50.4074969" lon="7.9423205">
 <ele>345</ele>
 <time>2020-11-30T13:01:01Z</time>
 <hdop>4.288</hdop>
 <extensions>
 <speed>0.33</speed>
 </extensions>
 </trkpt>
 <trkpt lat="50.4075065" lon="7.9423185">
 <ele>342</ele>
 <time>2020-11-30T13:01:06Z</time>
 <hdop>4.288</hdop>
 </trkpt>
 <trkpt lat="50.4075165" lon="7.9423145">
 <ele>341</ele>
 <time>2020-11-30T13:01:11Z</time>
 <hdop>3.216</hdop>
 </trkpt>
 <trkpt lat="50.4075233" lon="7.9423429">
 <ele>341</ele>
 <time>2020-11-30T13:01:16Z</time>
 <hdop>3.216</hdop>
 </trkpt>
 <trkpt lat="50.4075542" lon="7.9424114">
 <ele>343</ele>
 <time>2020-11-30T13:01:22Z</time>
 <hdop>3.216</hdop>
 <extensions>
 <speed>0.75</speed>
 </extensions>
 </trkpt>
 <trkpt lat="50.4075408" lon="7.9424362">
 <ele>341</ele>
 <time>2020-11-30T13:01:28Z</time>
 <hdop>3.216</hdop>
 <extensions>
 <speed>0.71</speed>
 </extensions>
 </trkpt>
 <trkpt lat="50.4075614" lon="7.9424502">
 <ele>342</ele>
 <time>2020-11-30T13:01:34Z</time>
 <hdop>4.288</hdop>
 </trkpt>
 <trkpt lat="50.4075696" lon="7.9424662">
 <ele>341</ele>
 <time>2020-11-30T13:01:39Z</time>
 <hdop>3.216</hdop>
 <extensions>
 <speed>1.13</speed>
 </extensions>
 </trkpt>
 <trkpt lat="50.4075518" lon="7.9425282">
 <ele>341</ele>
 <time>2020-11-30T13:01:45Z</time>
 <hdop>3.216</hdop>
 </trkpt>
 <trkpt lat="50.4075267" lon="7.9425375">
 <ele>340</ele>
 <time>2020-11-30T13:01:50Z</time>
 <hdop>4.288</hdop>
 <extensions>
 <speed>0.38</speed>
 </extensions>
 </trkpt>
 <trkpt lat="50.4074791" lon="7.9426474">
 <ele>338</ele>
 <time>2020-11-30T13:01:56Z</time>
 <hdop>4.288</hdop>
 <extensions>
 <speed>1.14</speed>
 </extensions>
 </trkpt>
 <trkpt lat="50.4074688" lon="7.9426996">
 <ele>336</ele>
 <time>2020-11-30T13:02:02Z</time>
 <hdop>4.288</hdop>
 <extensions>
 <speed>0.34</speed>
 </extensions>
 </trkpt>
 <trkpt lat="50.4074679" lon="7.9427063">
 <ele>337</ele>
 <time>2020-11-30T13:02:07Z</time>
 <hdop>4.288</hdop>
 </trkpt>
 <trkpt lat="50.4074652" lon="7.9427069">
 <ele>337</ele>
 <time>2020-11-30T13:02:13Z</time>
 <hdop>6.432</hdop>
 <extensions>
 <speed>0.18</speed>
 </extensions>
 </trkpt>
 <trkpt lat="50.407453" lon="7.9427001">
 <ele>347</ele>
 <time>2020-11-30T13:02:18Z</time>
 <hdop>4.288</hdop>
 <extensions>
 <speed>0.81</speed>
 </extensions>
 </trkpt>
 <trkpt lat="50.4074069" lon="7.9427037">
 <ele>336</ele>
 <time>2020-11-30T13:02:24Z</time>
 <hdop>4.288</hdop>
 </trkpt>
 <trkpt lat="50.4073615" lon="7.9427437">
 <ele>341</ele>
 <time>2020-11-30T13:02:30Z</time>
 <hdop>4.288</hdop>
 <extensions>
 <speed>0.74</speed>
 </extensions>
 </trkpt>
 <trkpt lat="50.4072741" lon="7.9427478">
 <ele>339</ele>
 <time>2020-11-30T13:02:35Z</time>
 <hdop>4.288</hdop>
 <extensions>
 <speed>2.27</speed>
 </extensions>
 </trkpt>
 <trkpt lat="50.4071625" lon="7.9426999">
 <ele>338</ele>
 <time>2020-11-30T13:02:41Z</time>
 <hdop>4.288</hdop>
 </trkpt>
 <trkpt lat="50.4070727" lon="7.9427012">
 <ele>340</ele>
 <time>2020-11-30T13:02:47Z</time>
 <hdop>5.36</hdop>
 <extensions>
 <speed>2.44</speed>
 </extensions>
 </trkpt>
 <trkpt lat="50.4070119" lon="7.9427512">
 <ele>339</ele>
 <time>2020-11-30T13:02:52Z</time>
 <hdop>4.288</hdop>
 <extensions>
 <speed>1.65</speed>
 </extensions>
 </trkpt>
 <trkpt lat="50.4069322" lon="7.942826">
 <ele>339</ele>
 <time>2020-11-30T13:02:57Z</time>
 <hdop>5.36</hdop>
 <extensions>
 <speed>1.89</speed>
 </extensions>
 </trkpt>
 <trkpt lat="50.4068918" lon="7.9428685">
 <ele>338</ele>
 <time>2020-11-30T13:03:02Z</time>
 <hdop>4.288</hdop>
 <extensions>
 <speed>1.39</speed>
 </extensions>
 </trkpt>
 <trkpt lat="50.4068437" lon="7.9428763">
 <ele>335</ele>
 <time>2020-11-30T13:03:08Z</time>
 <hdop>5.36</hdop>
 <extensions>
 <speed>0.33</speed>
 </extensions>
 </trkpt>
 <trkpt lat="50.4068044" lon="7.9428775">
 <ele>333</ele>
 <time>2020-11-30T13:03:13Z</time>
 <hdop>4.288</hdop>
 <extensions>
 <speed>0.84</speed>
 </extensions>
 </trkpt>
 <trkpt lat="50.4067598" lon="7.9429457">
 <ele>331</ele>
 <time>2020-11-30T13:03:18Z</time>
 <hdop>5.36</hdop>
 <extensions>
 <speed>1.78</speed>
 </extensions>
 </trkpt>
 <trkpt lat="50.406721" lon="7.94297">
 <ele>329</ele>
 <time>2020-11-30T13:03:24Z</time>
 <hdop>3.216</hdop>
 <extensions>
 <speed>1.79</speed>
 </extensions>
 </trkpt>
 <trkpt lat="50.4066321" lon="7.9430346">
 <ele>327</ele>
 <time>2020-11-30T13:03:29Z</time>
 <hdop>10.72</hdop>
 <extensions>
 <speed>1.51</speed>
 </extensions>
 </trkpt>
 <trkpt lat="50.406546" lon="7.9431086">
 <ele>328</ele>
 <time>2020-11-30T13:03:35Z</time>
 <hdop>10.72</hdop>
 <extensions>
 <speed>0.75</speed>
 </extensions>
 </trkpt>
 <trkpt lat="50.4064694" lon="7.943186">
 <ele>332</ele>
 <time>2020-11-30T13:03:41Z</time>
 <hdop>9.648</hdop>
 <extensions>
 <speed>2.47</speed>
 </extensions>
 </trkpt>
 <trkpt lat="50.4064029" lon="7.9432545">
 <ele>332</ele>
 <time>2020-11-30T13:03:47Z</time>
 <hdop>4.288</hdop>
 <extensions>
 <speed>1.53</speed>
 </extensions>
 </trkpt>
 <trkpt lat="50.4063863" lon="7.9432779">
 <ele>331</ele>
 <time>2020-11-30T13:03:52Z</time>
 <hdop>3.216</hdop>
 <extensions>
 <speed>1.6</speed>
 </extensions>
 </trkpt>
 <trkpt lat="50.4063365" lon="7.9433325">
 <ele>340</ele>
 <time>2020-11-30T13:03:58Z</time>
 <hdop>4.288</hdop>
 <extensions>
 <speed>0.7</speed>
 </extensions>
 </trkpt>
 <trkpt lat="50.4062689" lon="7.9434197">
 <ele>329</ele>
 <time>2020-11-30T13:04:04Z</time>
 <hdop>3.216</hdop>
 <extensions>
 <speed>1.75</speed>
 </extensions>
 </trkpt>
 <trkpt lat="50.4061754" lon="7.9434679">
 <ele>327</ele>
 <time>2020-11-30T13:04:09Z</time>
 <hdop>3.216</hdop>
 <extensions>
 <speed>2.31</speed>
 </extensions>
 </trkpt>
 <trkpt lat="50.4060933" lon="7.943549">
 <ele>329</ele>
 <time>2020-11-30T13:04:15Z</time>
 <hdop>3.216</hdop>
 <extensions>
 <speed>1.61</speed>
 </extensions>
 </trkpt>
 <trkpt lat="50.4060503" lon="7.9435983">
 <ele>328</ele>
 <time>2020-11-30T13:04:20Z</time>
 <hdop>4.288</hdop>
 <extensions>
 <speed>1.1</speed>
 </extensions>
 </trkpt>
 <trkpt lat="50.4059906" lon="7.9436323">
 <ele>324</ele>
 <time>2020-11-30T13:04:26Z</time>
 <hdop>3.216</hdop>
 <extensions>
 <speed>1.54</speed>
 </extensions>
 </trkpt>
 <trkpt lat="50.4059368" lon="7.9436338">
 <ele>323</ele>
 <time>2020-11-30T13:04:32Z</time>
 <hdop>3.216</hdop>
 <extensions>
 <speed>1.86</speed>
 </extensions>
 </trkpt>
 <trkpt lat="50.4058583" lon="7.9436509">
 <ele>322</ele>
 <time>2020-11-30T13:04:37Z</time>
 <hdop>5.36</hdop>
 <extensions>
 <speed>1.15</speed>
 </extensions>
 </trkpt>
 <trkpt lat="50.405803" lon="7.9437071">
 <ele>323</ele>
 <time>2020-11-30T13:04:42Z</time>
 <hdop>6.432</hdop>
 <extensions>
 <speed>1.76</speed>
 </extensions>
 </trkpt>
 <trkpt lat="50.4057374" lon="7.9437219">
 <ele>323</ele>
 <time>2020-11-30T13:04:48Z</time>
 <hdop>4.288</hdop>
 <extensions>
 <speed>1.73</speed>
 </extensions>
 </trkpt>
 <trkpt lat="50.4056581" lon="7.9437345">
 <ele>323</ele>
 <time>2020-11-30T13:04:54Z</time>
 <hdop>3.216</hdop>
 <extensions>
 <speed>1.32</speed>
 </extensions>
 </trkpt>
 <trkpt lat="50.405564" lon="7.9436636">
 <ele>322</ele>
 <time>2020-11-30T13:04:59Z</time>
 <hdop>4.288</hdop>
 <extensions>
 <speed>1.4</speed>
 </extensions>
 </trkpt>
 <trkpt lat="50.4054767" lon="7.9435965">
 <ele>325</ele>
 <time>2020-11-30T13:05:05Z</time>
 <hdop>3.216</hdop>
 <extensions>
 <speed>1.9</speed>
 </extensions>
 </trkpt>
 <trkpt lat="50.4053792" lon="7.9435479">
 <ele>322</ele>
 <time>2020-11-30T13:05:10Z</time>
 <hdop>3.216</hdop>
 <extensions>
 <speed>1.81</speed>
 </extensions>
 </trkpt>
 <trkpt lat="50.4053244" lon="7.9435066">
 <ele>321</ele>
 <time>2020-11-30T13:05:15Z</time>
 <hdop>3.216</hdop>
 <extensions>
 <speed>1.29</speed>
 </extensions>
 </trkpt>
 <trkpt lat="50.4052632" lon="7.9435125">
 <ele>320</ele>
 <time>2020-11-30T13:05:21Z</time>
 <hdop>3.216</hdop>
 <extensions>
 <speed>1.36</speed>
 </extensions>
 </trkpt>
 <trkpt lat="50.4051847" lon="7.9434483">
 <ele>321</ele>
 <time>2020-11-30T13:05:27Z</time>
 <hdop>3.216</hdop>
 <extensions>
 <speed>0.93</speed>
 </extensions>
 </trkpt>
 <trkpt lat="50.4051311" lon="7.9434597">
 <ele>322</ele>
 <time>2020-11-30T13:05:33Z</time>
 <hdop>3.216</hdop>
 <extensions>
 <speed>1.78</speed>
 </extensions>
 </trkpt>
 <trkpt lat="50.405051" lon="7.9434432">
 <ele>321</ele>
 <time>2020-11-30T13:05:39Z</time>
 <hdop>3.216</hdop>
 <extensions>
 <speed>2.62</speed>
 </extensions>
 </trkpt>
 <trkpt lat="50.404995" lon="7.9434988">
 <ele>323</ele>
 <time>2020-11-30T13:05:45Z</time>
 <hdop>3.216</hdop>
 <extensions>
 <speed>0.86</speed>
 </extensions>
 </trkpt>
 <trkpt lat="50.4050022" lon="7.9436422">
 <ele>323</ele>
 <time>2020-11-30T13:05:51Z</time>
 <hdop>3.216</hdop>
 <extensions>
 <speed>1.58</speed>
 </extensions>
 </trkpt>
 <trkpt lat="50.4050001" lon="7.9437622">
 <ele>320</ele>
 <time>2020-11-30T13:05:56Z</time>
 <hdop>3.216</hdop>
 <extensions>
 <speed>1.28</speed>
 </extensions>
 </trkpt>
 <trkpt lat="50.4050011" lon="7.9439003">
 <ele>323</ele>
 <time>2020-11-30T13:06:02Z</time>
 <hdop>3.216</hdop>
 <extensions>
 <speed>1.25</speed>
 </extensions>
 </trkpt>
 <trkpt lat="50.404981" lon="7.9440128">
 <ele>321</ele>
 <time>2020-11-30T13:06:08Z</time>
 <hdop>4.288</hdop>
 <extensions>
 <speed>1.38</speed>
 </extensions>
 </trkpt>
 <trkpt lat="50.4049939" lon="7.9440955">
 <ele>321</ele>
 <time>2020-11-30T13:06:14Z</time>
 <hdop>4.288</hdop>
 <extensions>
 <speed>0.85</speed>
 </extensions>
 </trkpt>
 <trkpt lat="50.4049926" lon="7.9441939">
 <ele>326</ele>
 <time>2020-11-30T13:06:20Z</time>
 <hdop>4.288</hdop>
 <extensions>
 <speed>1.25</speed>
 </extensions>
 </trkpt>
 <trkpt lat="50.404994" lon="7.9442651">
 <ele>321</ele>
 <time>2020-11-30T13:06:25Z</time>
 <hdop>3.216</hdop>
 <extensions>
 <speed>1.05</speed>
 </extensions>
 </trkpt>
 <trkpt lat="50.4049883" lon="7.9443505">
 <ele>325</ele>
 <time>2020-11-30T13:06:31Z</time>
 <hdop>4.288</hdop>
 </trkpt>
 <trkpt lat="50.4049851" lon="7.9444893">
 <ele>320</ele>
 <time>2020-11-30T13:06:36Z</time>
 <hdop>3.216</hdop>
 <extensions>
 <speed>1.88</speed>
 </extensions>
 </trkpt>
 <trkpt lat="50.4049728" lon="7.9446402">
 <ele>322</ele>
 <time>2020-11-30T13:06:41Z</time>
 <hdop>3.216</hdop>
 <extensions>
 <speed>1.18</speed>
 </extensions>
 </trkpt>
 <trkpt lat="50.4049573" lon="7.9447864">
 <ele>320</ele>
 <time>2020-11-30T13:06:47Z</time>
 <hdop>3.216</hdop>
 <extensions>
 <speed>1.25</speed>
 </extensions>
 </trkpt>
 <trkpt lat="50.4049834" lon="7.944879">
 <ele>320</ele>
 <time>2020-11-30T13:06:53Z</time>
 <hdop>3.216</hdop>
 <extensions>
 <speed>1.12</speed>
 </extensions>
 </trkpt>
 <trkpt lat="50.4049614" lon="7.944997">
 <ele>332</ele>
 <time>2020-11-30T13:06:59Z</time>
 <hdop>5.36</hdop>
 <extensions>
 <speed>1.56</speed>
 </extensions>
 </trkpt>
 <trkpt lat="50.4049554" lon="7.9450758">
 <ele>321</ele>
 <time>2020-11-30T13:07:04Z</time>
 <hdop>5.36</hdop>
 <extensions>
 <speed>1.3</speed>
 </extensions>
 </trkpt>
 <trkpt lat="50.4049958" lon="7.9451922">
 <ele>322</ele>
 <time>2020-11-30T13:07:09Z</time>
 <hdop>3.216</hdop>
 <extensions>
 <speed>1.13</speed>
 </extensions>
 </trkpt>
 <trkpt lat="50.4050164" lon="7.9452874">
 <ele>320</ele>
 <time>2020-11-30T13:07:15Z</time>
 <hdop>3.216</hdop>
 </trkpt>
 <trkpt lat="50.4050147" lon="7.9453208">
 <ele>319</ele>
 <time>2020-11-30T13:07:20Z</time>
 <hdop>3.216</hdop>
 <extensions>
 <speed>1.13</speed>
 </extensions>
 </trkpt>
 <trkpt lat="50.4050264" lon="7.9454877">
 <ele>318</ele>
 <time>2020-11-30T13:07:26Z</time>
 <hdop>3.216</hdop>
 <extensions>
 <speed>2.18</speed>
 </extensions>
 </trkpt>
 <trkpt lat="50.405045" lon="7.9456624">
 <ele>315</ele>
 <time>2020-11-30T13:07:32Z</time>
 <hdop>3.216</hdop>
 <extensions>
 <speed>1.55</speed>
 </extensions>
 </trkpt>
 <trkpt lat="50.4050052" lon="7.9457922">
 <ele>313</ele>
 <time>2020-11-30T13:07:38Z</time>
 <hdop>4.288</hdop>
 <extensions>
 <speed>2</speed>
 </extensions>
 </trkpt>
 <trkpt lat="50.4050396" lon="7.9459692">
 <ele>313</ele>
 <time>2020-11-30T13:07:43Z</time>
 <hdop>4.288</hdop>
 <extensions>
 <speed>2.02</speed>
 </extensions>
 </trkpt>
 <trkpt lat="50.4050594" lon="7.946064">
 <ele>327</ele>
 <time>2020-11-30T13:07:48Z</time>
 <hdop>3.216</hdop>
 <extensions>
 <speed>1.39</speed>
 </extensions>
 </trkpt>
 <trkpt lat="50.4050706" lon="7.94618">
 <ele>316</ele>
 <time>2020-11-30T13:07:53Z</time>
 <hdop>4.288</hdop>
 <extensions>
 <speed>1.28</speed>
 </extensions>
 </trkpt>
 <trkpt lat="50.4050596" lon="7.9463182">
 <ele>313</ele>
 <time>2020-11-30T13:07:59Z</time>
 <hdop>3.216</hdop>
 <extensions>
 <speed>1.38</speed>
 </extensions>
 </trkpt>
 <trkpt lat="50.4050716" lon="7.9463936">
 <ele>313</ele>
 <time>2020-11-30T13:08:04Z</time>
 <hdop>3.216</hdop>
 <extensions>
 <speed>1</speed>
 </extensions>
 </trkpt>
 <trkpt lat="50.4050949" lon="7.9465179">
 <ele>313</ele>
 <time>2020-11-30T13:08:09Z</time>
 <hdop>3.216</hdop>
 <extensions>
 <speed>2.68</speed>
 </extensions>
 </trkpt>
 <trkpt lat="50.4050632" lon="7.9466339">
 <ele>312</ele>
 <time>2020-11-30T13:08:15Z</time>
 <hdop>3.216</hdop>
 <extensions>
 <speed>1.23</speed>
 </extensions>
 </trkpt>
 <trkpt lat="50.4050489" lon="7.946721">
 <ele>312</ele>
 <time>2020-11-30T13:08:21Z</time>
 <hdop>3.216</hdop>
 <extensions>
 <speed>1.16</speed>
 </extensions>
 </trkpt>
 <trkpt lat="50.4050894" lon="7.9468225">
 <ele>309</ele>
 <time>2020-11-30T13:08:26Z</time>
 <hdop>4.288</hdop>
 <extensions>
 <speed>2.3</speed>
 </extensions>
 </trkpt>
 <trkpt lat="50.4051363" lon="7.9470128">
 <ele>313</ele>
 <time>2020-11-30T13:08:32Z</time>
 <hdop>3.216</hdop>
 <extensions>
 <speed>1.09</speed>
 </extensions>
 </trkpt>
 <trkpt lat="50.4051212" lon="7.9471">
 <ele>312</ele>
 <time>2020-11-30T13:08:37Z</time>
 <hdop>3.216</hdop>
 <extensions>
 <speed>2.17</speed>
 </extensions>
 </trkpt>
 <trkpt lat="50.4051285" lon="7.9472155">
 <ele>310</ele>
 <time>2020-11-30T13:08:42Z</time>
 <hdop>3.216</hdop>
 </trkpt>
 <trkpt lat="50.4051209" lon="7.9473198">
 <ele>307</ele>
 <time>2020-11-30T13:08:47Z</time>
 <hdop>3.216</hdop>
 <extensions>
 <speed>1.9</speed>
 </extensions>
 </trkpt>
 <trkpt lat="50.4051359" lon="7.9474801">
 <ele>306</ele>
 <time>2020-11-30T13:08:53Z</time>
 <hdop>4.288</hdop>
 <extensions>
 <speed>1.65</speed>
 </extensions>
 </trkpt>
 <trkpt lat="50.4051479" lon="7.9476312">
 <ele>306</ele>
 <time>2020-11-30T13:08:59Z</time>
 <hdop>3.216</hdop>
 <extensions>
 <speed>1.55</speed>
 </extensions>
 </trkpt>
 <trkpt lat="50.4051881" lon="7.947753">
 <ele>306</ele>
 <time>2020-11-30T13:09:04Z</time>
 <hdop>3.216</hdop>
 <extensions>
 <speed>2.24</speed>
 </extensions>
 </trkpt>
 <trkpt lat="50.4052004" lon="7.9478116">
 <ele>305</ele>
 <time>2020-11-30T13:09:10Z</time>
 <hdop>3.216</hdop>
 <extensions>
 <speed>1.24</speed>
 </extensions>
 </trkpt>
 <trkpt lat="50.4051976" lon="7.947901">
 <ele>305</ele>
 <time>2020-11-30T13:09:15Z</time>
 <hdop>3.216</hdop>
 <extensions>
 <speed>0.92</speed>
 </extensions>
 </trkpt>
 <trkpt lat="50.4052077" lon="7.9480722">
 <ele>310</ele>
 <time>2020-11-30T13:09:21Z</time>
 <hdop>4.288</hdop>
 <extensions>
 <speed>2.74</speed>
 </extensions>
 </trkpt>
 <trkpt lat="50.4052088" lon="7.9481592">
 <ele>308</ele>
 <time>2020-11-30T13:09:26Z</time>
 <hdop>3.216</hdop>
 <extensions>
 <speed>1.47</speed>
 </extensions>
 </trkpt>
 <trkpt lat="50.4052148" lon="7.9483014">
 <ele>304</ele>
 <time>2020-11-30T13:09:32Z</time>
 <hdop>3.216</hdop>
 <extensions>
 <speed>1.37</speed>
 </extensions>
 </trkpt>
 <trkpt lat="50.40523" lon="7.9483716">
 <ele>303</ele>
 <time>2020-11-30T13:09:37Z</time>
 <hdop>3.216</hdop>
 <extensions>
 <speed>2.37</speed>
 </extensions>
 </trkpt>
 <trkpt lat="50.4052305" lon="7.9485434">
 <ele>303</ele>
 <time>2020-11-30T13:09:43Z</time>
 <hdop>3.216</hdop>
 <extensions>
 <speed>1.12</speed>
 </extensions>
 </trkpt>
 <trkpt lat="50.4052539" lon="7.9486716">
 <ele>303</ele>
 <time>2020-11-30T13:09:49Z</time>
 <hdop>3.216</hdop>
 <extensions>
 <speed>1.84</speed>
 </extensions>
 </trkpt>
 <trkpt lat="50.4052597" lon="7.9488471">
 <ele>306</ele>
 <time>2020-11-30T13:09:54Z</time>
 <hdop>3.216</hdop>
 <extensions>
 <speed>1.85</speed>
 </extensions>
 </trkpt>
 <trkpt lat="50.4052715" lon="7.9489226">
 <ele>305</ele>
 <time>2020-11-30T13:10:00Z</time>
 <hdop>3.216</hdop>
 </trkpt>
 <trkpt lat="50.4053048" lon="7.949043">
 <ele>304</ele>
 <time>2020-11-30T13:10:06Z</time>
 <hdop>3.216</hdop>
 <extensions>
 <speed>1.72</speed>
 </extensions>
 </trkpt>
 <trkpt lat="50.4053759" lon="7.9491316">
 <ele>306</ele>
 <time>2020-11-30T13:10:12Z</time>
 <hdop>3.216</hdop>
 <extensions>
 <speed>1.13</speed>
 </extensions>
 </trkpt>
 <trkpt lat="50.4054005" lon="7.9491677">
 <ele>303</ele>
 <time>2020-11-30T13:10:17Z</time>
 <hdop>3.216</hdop>
 <extensions>
 <speed>0.85</speed>
 </extensions>
 </trkpt>
 <trkpt lat="50.4054528" lon="7.9492286">
 <ele>301</ele>
 <time>2020-11-30T13:10:23Z</time>
 <hdop>3.216</hdop>
 <extensions>
 <speed>1.64</speed>
 </extensions>
 </trkpt>
 <trkpt lat="50.4054984" lon="7.9493193">
 <ele>301</ele>
 <time>2020-11-30T13:10:29Z</time>
 <hdop>3.216</hdop>
 <extensions>
 <speed>0.87</speed>
 </extensions>
 </trkpt>
 <trkpt lat="50.4055721" lon="7.9493713">
 <ele>300</ele>
 <time>2020-11-30T13:10:35Z</time>
 <hdop>5.36</hdop>
 <extensions>
 <speed>1.28</speed>
 </extensions>
 </trkpt>
 <trkpt lat="50.4056478" lon="7.9494204">
 <ele>301</ele>
 <time>2020-11-30T13:10:40Z</time>
 <hdop>4.288</hdop>
 <extensions>
 <speed>1.7</speed>
 </extensions>
 </trkpt>
 <trkpt lat="50.4056955" lon="7.949551">
 <ele>301</ele>
 <time>2020-11-30T13:10:46Z</time>
 <hdop>3.216</hdop>
 <extensions>
 <speed>2.78</speed>
 </extensions>
 </trkpt>
 <trkpt lat="50.405779" lon="7.949637">
 <ele>300</ele>
 <time>2020-11-30T13:10:51Z</time>
 <hdop>3.216</hdop>
 <extensions>
 <speed>1.9</speed>
 </extensions>
 </trkpt>
 <trkpt lat="50.4058582" lon="7.9496818">
 <ele>302</ele>
 <time>2020-11-30T13:10:57Z</time>
 <hdop>3.216</hdop>
 <extensions>
 <speed>0.57</speed>
 </extensions>
 </trkpt>
 <trkpt lat="50.4059153" lon="7.9497767">
 <ele>302</ele>
 <time>2020-11-30T13:11:03Z</time>
 <hdop>3.216</hdop>
 <extensions>
 <speed>1.01</speed>
 </extensions>
 </trkpt>
 <trkpt lat="50.4059694" lon="7.9498506">
 <ele>300</ele>
 <time>2020-11-30T13:11:09Z</time>
 <hdop>3.216</hdop>
 <extensions>
 <speed>1.58</speed>
 </extensions>
 </trkpt>
 <trkpt lat="50.4060419" lon="7.9499208">
 <ele>300</ele>
 <time>2020-11-30T13:11:14Z</time>
 <hdop>3.216</hdop>
 <extensions>
 <speed>1.8</speed>
 </extensions>
 </trkpt>
 <trkpt lat="50.4060824" lon="7.9500085">
 <ele>299</ele>
 <time>2020-11-30T13:11:19Z</time>
 <hdop>3.216</hdop>
 <extensions>
 <speed>1.86</speed>
 </extensions>
 </trkpt>
 <trkpt lat="50.4060653" lon="7.9501367">
 <ele>299</ele>
 <time>2020-11-30T13:11:25Z</time>
 <hdop>3.216</hdop>
 <extensions>
 <speed>1.52</speed>
 </extensions>
 </trkpt>
 <trkpt lat="50.4060128" lon="7.950216">
 <ele>301</ele>
 <time>2020-11-30T13:11:30Z</time>
 <hdop>4.288</hdop>
 <extensions>
 <speed>0.8</speed>
 </extensions>
 </trkpt>
 <trkpt lat="50.4059623" lon="7.9502742">
 <ele>303</ele>
 <time>2020-11-30T13:11:36Z</time>
 <hdop>4.288</hdop>
 <extensions>
 <speed>1.33</speed>
 </extensions>
 </trkpt>
 <trkpt lat="50.4059014" lon="7.9503856">
 <ele>303</ele>
 <time>2020-11-30T13:11:42Z</time>
 <hdop>7.504</hdop>
 <extensions>
 <speed>0.74</speed>
 </extensions>
 </trkpt>
 <trkpt lat="50.4058654" lon="7.9505242">
 <ele>307</ele>
 <time>2020-11-30T13:11:47Z</time>
 <hdop>4.288</hdop>
 <extensions>
 <speed>1.51</speed>
 </extensions>
 </trkpt>
 <trkpt lat="50.405816" lon="7.9506913">
 <ele>305</ele>
 <time>2020-11-30T13:11:53Z</time>
 <hdop>4.288</hdop>
 <extensions>
 <speed>1.41</speed>
 </extensions>
 </trkpt>
 <trkpt lat="50.4057755" lon="7.9508334">
 <ele>307</ele>
 <time>2020-11-30T13:11:58Z</time>
 <hdop>5.36</hdop>
 <extensions>
 <speed>1.6</speed>
 </extensions>
 </trkpt>
 <trkpt lat="50.4057087" lon="7.9508555">
 <ele>309</ele>
 <time>2020-11-30T13:12:04Z</time>
 <hdop>6.432</hdop>
 <extensions>
 <speed>0.79</speed>
 </extensions>
 </trkpt>
 <trkpt lat="50.405672" lon="7.9509355">
 <ele>308</ele>
 <time>2020-11-30T13:12:10Z</time>
 <hdop>4.288</hdop>
 <extensions>
 <speed>1.99</speed>
 </extensions>
 </trkpt>
 <trkpt lat="50.4056398" lon="7.9510396">
 <ele>305</ele>
 <time>2020-11-30T13:12:15Z</time>
 <hdop>4.288</hdop>
 <extensions>
 <speed>1.91</speed>
 </extensions>
 </trkpt>
 <trkpt lat="50.4056448" lon="7.9510909">
 <ele>309</ele>
 <time>2020-11-30T13:12:21Z</time>
 <hdop>9.648</hdop>
 </trkpt>
 <trkpt lat="50.405632" lon="7.9511776">
 <ele>304</ele>
 <time>2020-11-30T13:12:27Z</time>
 <hdop>10.72</hdop>
 <extensions>
 <speed>1.08</speed>
 </extensions>
 </trkpt>
 <trkpt lat="50.4056053" lon="7.9512757">
 <ele>304</ele>
 <time>2020-11-30T13:12:33Z</time>
 <hdop>10.72</hdop>
 <extensions>
 <speed>1.47</speed>
 </extensions>
 </trkpt>
 <trkpt lat="50.4055745" lon="7.9513767">
 <ele>302</ele>
 <time>2020-11-30T13:12:39Z</time>
 <hdop>11.792</hdop>
 <extensions>
 <speed>1.96</speed>
 </extensions>
 </trkpt>
 <trkpt lat="50.4055394" lon="7.9515487">
 <ele>303</ele>
 <time>2020-11-30T13:12:45Z</time>
 <hdop>11.792</hdop>
 <extensions>
 <speed>1.29</speed>
 </extensions>
 </trkpt>
 <trkpt lat="50.4055129" lon="7.9516463">
 <ele>305</ele>
 <time>2020-11-30T13:12:51Z</time>
 <hdop>6.432</hdop>
 <extensions>
 <speed>1.39</speed>
 </extensions>
 </trkpt>
 <trkpt lat="50.4054989" lon="7.9516773">
 <ele>303</ele>
 <time>2020-11-30T13:12:57Z</time>
 <hdop>5.36</hdop>
 </trkpt>
 <trkpt lat="50.405524" lon="7.9516004">
 <ele>298</ele>
 <time>2020-11-30T13:13:03Z</time>
 <hdop>4.288</hdop>
 <extensions>
 <speed>0.71</speed>
 </extensions>
 </trkpt>
 <trkpt lat="50.4055388" lon="7.9515304">
 <ele>294</ele>
 <time>2020-11-30T13:13:08Z</time>
 <hdop>4.288</hdop>
 <extensions>
 <speed>0.29</speed>
 </extensions>
 </trkpt>
 <trkpt lat="50.4055242" lon="7.9515266">
 <ele>294</ele>
 <time>2020-11-30T13:13:14Z</time>
 <hdop>4.288</hdop>
 <extensions>
 <speed>0.69</speed>
 </extensions>
 </trkpt>
 <trkpt lat="50.4055022" lon="7.9515381">
 <ele>294</ele>
 <time>2020-11-30T13:13:20Z</time>
 <hdop>3.216</hdop>
 </trkpt>
 <trkpt lat="50.4054938" lon="7.951579">
 <ele>296</ele>
 <time>2020-11-30T13:13:26Z</time>
 <hdop>3.216</hdop>
 <extensions>
 <speed>0.21</speed>
 </extensions>
 </trkpt>
 <trkpt lat="50.405504" lon="7.951579">
 <ele>296</ele>
 <time>2020-11-30T13:13:31Z</time>
 <hdop>4.288</hdop>
 <extensions>
 <speed>0.35</speed>
 </extensions>
 </trkpt>
 <trkpt lat="50.4055111" lon="7.9515295">
 <ele>292</ele>
 <time>2020-11-30T13:13:37Z</time>
 <hdop>4.288</hdop>
 </trkpt>
 <trkpt lat="50.4055007" lon="7.9515133">
 <ele>290</ele>
 <time>2020-11-30T13:13:43Z</time>
 <hdop>4.288</hdop>
 </trkpt>
 <trkpt lat="50.4054926" lon="7.9515225">
 <ele>292</ele>
 <time>2020-11-30T13:13:49Z</time>
 <hdop>4.288</hdop>
 </trkpt>
 <trkpt lat="50.4054861" lon="7.951539">
 <ele>292</ele>
 <time>2020-11-30T13:13:54Z</time>
 <hdop>3.216</hdop>
 </trkpt>
 <trkpt lat="50.4054942" lon="7.951549">
 <ele>291</ele>
 <time>2020-11-30T13:14:00Z</time>
 <hdop>4.288</hdop>
 </trkpt>
 <trkpt lat="50.4054942" lon="7.9515489">
 <ele>292</ele>
 <time>2020-11-30T13:14:06Z</time>
 <hdop>4.288</hdop>
 </trkpt>
 <trkpt lat="50.4054941" lon="7.951549">
 <ele>292</ele>
 <time>2020-11-30T13:14:11Z</time>
 <hdop>5.36</hdop>
 </trkpt>
 <trkpt lat="50.4054941" lon="7.951549">
 <ele>292</ele>
 <time>2020-11-30T13:14:17Z</time>
 <hdop>4.288</hdop>
 </trkpt>
 <trkpt lat="50.4054941" lon="7.951549">
 <ele>292</ele>
 <time>2020-11-30T13:14:22Z</time>
 <hdop>4.288</hdop>
 </trkpt>
 <trkpt lat="50.4054986" lon="7.9515493">
 <ele>292</ele>
 <time>2020-11-30T13:14:27Z</time>
 <hdop>4.288</hdop>
 </trkpt>
 <trkpt lat="50.4055533" lon="7.9515542">
 <ele>287</ele>
 <time>2020-11-30T13:14:33Z</time>
 <hdop>3.216</hdop>
 </trkpt>
 <trkpt lat="50.4055798" lon="7.9515539">
 <ele>289</ele>
 <time>2020-11-30T13:14:39Z</time>
 <hdop>3.216</hdop>
 <extensions>
 <speed>0.18</speed>
 </extensions>
 </trkpt>
 <trkpt lat="50.4056047" lon="7.9515556">
 <ele>291</ele>
 <time>2020-11-30T13:14:46Z</time>
 <hdop>4.288</hdop>
 </trkpt>
 <trkpt lat="50.4055834" lon="7.9515526">
 <ele>293</ele>
 <time>2020-11-30T13:14:51Z</time>
 <hdop>4.288</hdop>
 <extensions>
 <speed>0.55</speed>
 </extensions>
 </trkpt>
 <trkpt lat="50.4055213" lon="7.9515278">
 <ele>294</ele>
 <time>2020-11-30T13:14:57Z</time>
 <hdop>3.216</hdop>
 </trkpt>
 </trkseg>
 </trk>
</gpx>